Darstellungsparameter: Aktuell verwendete Einstellungen:
Skalierung der Graphiken ... ?
xyx+y,   Skalierungsfaktor:      Skalierung: Modus: x, Faktor: 1
Darstellungszeitraum ... ?
Vom - - bis: - -   Zeitraum: 24.03.2021 - 21.04.2021
Min/Max/Avg-Anzeige ... ?
Zeige MMA aktuell
Zeige MMA Monat
Zeige MMA alles
Zeige --A aktuell
Zeige --A Monat
Zeige --A alles
Keine MMA-Anzeige
MMA:
Keine MMA-Graphiken
MMA-Basis: 24.03.2021 - 21.04.2021
Quicknavigation für Darstellung... ?
Tage:      1T, 2T, 3T, 5T -1T -2T -3T -5T +1T +2T +3T +5T
Wochen: 1W, 2W, 3W -1W -2W -3W +1W +2W +3W
Monate: 1M, 3M, 6M -1M -3M -6M +1M +3M +6M
Jahre:    1J, 3J, 5J, 10J -1J -3J -5J -10J +1J +3J +5J +10J
Nutze für die Darstellung ... ?
Originaldaten oder Mittelwerte auf ...
Stundenbasis Tagesbasis Wochenbasis
Monatsbasis Jahresbasis      Datenbasis: Original-Daten
Darstellen als:
Statistik (Auto) Statistik J:M      Darstellung:
Zur Graphik,    zurück zur Übersicht aller Sensoren.
 
Tabellarische Datenbersicht: ?
 
Sensor: Nr:Datum:Temp:Feuchte:
Aussen-T/F 1 24-03-2021 00:01:17 0.4 C 49 %
2 24-03-2021 00:11:17 0.1 C 50 %
3 24-03-2021 00:21:18 0.2 C 50 %
4 24-03-2021 00:31:17 0.1 C 50 %
5 24-03-2021 00:41:17 -0.2 C 50 %
6 24-03-2021 00:51:17 -0.1 C 50 %
7 24-03-2021 01:01:17 0 C 50 %
8 24-03-2021 01:11:17 0 C 50 %
9 24-03-2021 01:21:17 -0.2 C 50 %
10 24-03-2021 01:31:17 -0.3 C 50 %
11 24-03-2021 01:41:17 -0.4 C 50 %
12 24-03-2021 01:51:17 -0.6 C 50 %
13 24-03-2021 02:01:17 -0.7 C 50 %
14 24-03-2021 02:11:17 -0.8 C 50 %
15 24-03-2021 02:21:17 -0.9 C 50 %
16 24-03-2021 02:31:18 -1 C 50 %
17 24-03-2021 02:41:18 -1.1 C 50 %
18 24-03-2021 02:51:17 -1.3 C 50 %
19 24-03-2021 03:01:17 -1.3 C 50 %
20 24-03-2021 03:11:17 -1.2 C 50 %
21 24-03-2021 03:21:17 -1.2 C 51 %
22 24-03-2021 03:31:17 -1.4 C 51 %
23 24-03-2021 03:41:17 -1.3 C 50 %
24 24-03-2021 03:51:18 -1.2 C 51 %
25 24-03-2021 04:01:18 -1.3 C 51 %
Sensor: Nr:Datum:Temp:Feuchte:
Aussen-T/F 26 24-03-2021 04:11:18 -1.1 C 51 %
27 24-03-2021 04:21:17 -1.5 C 50 %
28 24-03-2021 04:31:17 -1.1 C 51 %
29 24-03-2021 04:41:17 -1.2 C 51 %
30 24-03-2021 04:51:17 -1.6 C 50 %
31 24-03-2021 05:01:17 -1.3 C 51 %
32 24-03-2021 05:11:17 -1.6 C 50 %
33 24-03-2021 05:21:18 -1.6 C 50 %
34 24-03-2021 05:31:18 -1.4 C 51 %
35 24-03-2021 05:41:18 -1.7 C 50 %
36 24-03-2021 05:51:18 -1.4 C 51 %
37 24-03-2021 06:01:17 -1.6 C 51 %
38 24-03-2021 06:11:17 -1.7 C 51 %
39 24-03-2021 06:21:18 -1.7 C 50 %
40 24-03-2021 06:31:17 -1.9 C 50 %
41 24-03-2021 06:41:17 -1.7 C 50 %
42 24-03-2021 06:51:18 -1.8 C 50 %
43 24-03-2021 07:01:18 -1.4 C 51 %
44 24-03-2021 07:11:18 -1.6 C 50 %
45 24-03-2021 07:21:17 -1.4 C 50 %
46 24-03-2021 07:31:18 -1.2 C 50 %
47 24-03-2021 07:41:18 -1.2 C 50 %
48 24-03-2021 07:51:17 -0.7 C 51 %
49 24-03-2021 08:01:17 -0.8 C 50 %
50 24-03-2021 08:11:18 -0.5 C 51 %
Sensor: Nr:Datum:Temp:Feuchte:
Aussen-T/F 51 24-03-2021 08:21:17 -0.3 C 51 %
52 24-03-2021 08:31:17 -0.1 C 51 %
53 24-03-2021 08:41:17 0.2 C 51 %
54 24-03-2021 08:51:17 0.7 C 51 %
55 24-03-2021 09:01:18 0.7 C 51 %
56 24-03-2021 09:11:18 0.8 C 51 %
57 24-03-2021 09:21:17 1.2 C 50 %
58 24-03-2021 09:31:18 1.7 C 50 %
59 24-03-2021 09:41:18 2.5 C 49 %
60 24-03-2021 09:51:17 3.1 C 48 %
61 24-03-2021 10:01:17 4.6 C 46 %
62 24-03-2021 10:11:17 5.1 C 44 %
63 24-03-2021 10:21:17 5.8 C 43 %
64 24-03-2021 10:31:17 6.9 C 41 %
65 24-03-2021 10:41:17 8.4 C 40 %
66 24-03-2021 10:51:18 9.3 C 37 %
67 24-03-2021 11:01:17 10.6 C 36 %
68 24-03-2021 11:11:17 12.9 C 31 %
69 24-03-2021 11:21:18 13.8 C 30 %
70 24-03-2021 11:31:17 14.7 C 28 %
71 24-03-2021 11:41:17 13.2 C 29 %
72 24-03-2021 11:51:17 13 C 29 %
73 24-03-2021 12:01:18 15 C 26 %
74 24-03-2021 12:11:18 15.4 C 26 %
75 24-03-2021 12:21:18 15.5 C 26 %
Sensor: Nr:Datum:Temp:Feuchte:
Aussen-T/F 76 24-03-2021 12:31:17 15.2 C 26 %
77 24-03-2021 12:41:17 14.7 C 27 %
78 24-03-2021 12:51:17 15.5 C 26 %
79 24-03-2021 13:01:18 15.6 C 26 %
80 24-03-2021 13:11:18 17 C 25 %
81 24-03-2021 13:21:17 18.3 C 22 %
82 24-03-2021 13:31:18 20.1 C 21 %
83 24-03-2021 13:41:18 18.1 C 21 %
84 24-03-2021 13:51:17 18.8 C 21 %
85 24-03-2021 14:01:17 18.1 C 21 %
86 24-03-2021 14:11:17 18.3 C 20 %
87 24-03-2021 14:21:17 19.4 C 20 %
88 24-03-2021 14:31:18 21.4 C 20 %
89 24-03-2021 14:41:18 22.3 C 20 %
90 24-03-2021 14:51:17 22.3 C 20 %
91 24-03-2021 15:01:17 21.4 C 20 %
92 24-03-2021 15:11:17 21.9 C 20 %
93 24-03-2021 15:21:17 23 C 20 %
94 24-03-2021 15:31:17 22.8 C 20 %
95 24-03-2021 15:41:17 22.9 C 20 %
96 24-03-2021 15:51:18 22.2 C 20 %
97 24-03-2021 16:01:17 21.4 C 20 %
98 24-03-2021 16:11:17 22.7 C 20 %
99 24-03-2021 16:21:17 22 C 20 %
100 24-03-2021 16:31:18 20.6 C 20 %
Sensor: Nr:Datum:Temp:Feuchte:
Aussen-T/F 101 24-03-2021 16:41:18 20.7 C 20 %
102 24-03-2021 16:51:18 18.7 C 20 %
103 24-03-2021 17:01:18 18.3 C 20 %
104 24-03-2021 17:11:18 17.6 C 20 %
105 24-03-2021 17:21:17 17.5 C 20 %
106 24-03-2021 17:31:18 17.2 C 20 %
107 24-03-2021 17:41:18 16.8 C 21 %
108 24-03-2021 17:51:18 16.4 C 22 %
109 24-03-2021 18:01:18 15.6 C 23 %
110 24-03-2021 18:11:18 14.4 C 25 %
111 24-03-2021 18:21:17 13.5 C 26 %
112 24-03-2021 18:31:17 12.9 C 28 %
113 24-03-2021 18:41:17 11.9 C 30 %
114 24-03-2021 18:51:17 11.7 C 30 %
115 24-03-2021 19:01:18 11.4 C 30 %
116 24-03-2021 19:11:18 11.2 C 30 %
117 24-03-2021 19:21:18 11.1 C 30 %
118 24-03-2021 19:31:18 10.6 C 31 %
119 24-03-2021 19:41:18 10.5 C 31 %
120 24-03-2021 19:51:18 10.2 C 31 %
121 24-03-2021 20:01:18 10.2 C 31 %
122 24-03-2021 20:11:18 9.8 C 33 %
123 24-03-2021 20:21:18 9.7 C 33 %
124 24-03-2021 20:31:17 9.4 C 33 %
125 24-03-2021 20:41:17 9.2 C 34 %
Sensor: Nr:Datum:Temp:Feuchte:
Aussen-T/F 126 24-03-2021 20:51:18 8.6 C 35 %
127 24-03-2021 21:01:18 7.9 C 36 %
128 24-03-2021 21:11:18 7.6 C 36 %
129 24-03-2021 21:21:17 7.5 C 37 %
130 24-03-2021 21:31:18 7.8 C 36 %
131 24-03-2021 21:41:18 8.8 C 35 %
132 24-03-2021 21:51:18 8.7 C 35 %
133 24-03-2021 22:01:18 7.7 C 36 %
134 24-03-2021 22:11:18 6.9 C 37 %
135 24-03-2021 22:21:17 6 C 37 %
136 24-03-2021 22:31:18 5.5 C 39 %
137 24-03-2021 22:41:18 5.2 C 40 %
138 24-03-2021 22:51:18 4.8 C 41 %
139 24-03-2021 23:01:17 4.8 C 41 %
140 24-03-2021 23:11:18 4.5 C 41 %
141 24-03-2021 23:21:17 4.2 C 41 %
142 24-03-2021 23:31:18 4.3 C 41 %
143 24-03-2021 23:41:18 4.3 C 42 %
144 24-03-2021 23:51:18 3.9 C 42 %
145 25-03-2021 00:01:18 4.2 C 42 %
146 25-03-2021 00:11:18 4 C 42 %
147 25-03-2021 00:21:17 3.9 C 43 %
148 25-03-2021 00:31:17 4.1 C 42 %
149 25-03-2021 00:41:17 4.2 C 42 %
150 25-03-2021 00:51:18 3.8 C 43 %
Sensor: Nr:Datum:Temp:Feuchte:
Aussen-T/F 151 25-03-2021 01:01:18 3.6 C 43 %
152 25-03-2021 01:11:18 3.8 C 43 %
153 25-03-2021 01:21:17 3.5 C 43 %
154 25-03-2021 01:31:18 3.2 C 44 %
155 25-03-2021 01:41:18 3 C 44 %
156 25-03-2021 01:51:18 2.7 C 45 %
157 25-03-2021 02:01:17 2.6 C 46 %
158 25-03-2021 02:11:17 2.3 C 46 %
159 25-03-2021 02:21:17 2.2 C 46 %
160 25-03-2021 02:31:17 2.2 C 46 %
161 25-03-2021 02:41:17 2.1 C 47 %
162 25-03-2021 02:51:18 1.8 C 47 %
163 25-03-2021 03:01:17 1.8 C 48 %
164 25-03-2021 03:11:17 1.6 C 48 %
165 25-03-2021 03:21:17 1.6 C 48 %
166 25-03-2021 03:31:17 1.5 C 48 %
167 25-03-2021 03:41:17 1.4 C 49 %
168 25-03-2021 03:51:17 1.4 C 49 %
169 25-03-2021 04:01:17 1.5 C 49 %
170 25-03-2021 04:11:17 1.2 C 49 %
171 25-03-2021 04:21:17 1.4 C 49 %
172 25-03-2021 04:31:17 1.2 C 49 %
173 25-03-2021 04:41:18 1.5 C 50 %
174 25-03-2021 04:51:17 1.1 C 49 %
175 25-03-2021 05:01:17 1.2 C 50 %
Sensor: Nr:Datum:Temp:Feuchte:
Aussen-T/F 176 25-03-2021 05:11:17 1.1 C 50 %
177 25-03-2021 05:21:18 0.9 C 50 %
178 25-03-2021 05:31:18 0.8 C 50 %
179 25-03-2021 05:41:18 1 C 50 %
180 25-03-2021 05:51:18 0.7 C 50 %
181 25-03-2021 06:01:18 0.6 C 51 %
182 25-03-2021 06:11:18 0.3 C 50 %
183 25-03-2021 06:21:17 0.5 C 51 %
184 25-03-2021 06:31:17 0.8 C 51 %
185 25-03-2021 06:41:17 0.8 C 51 %
186 25-03-2021 06:51:17 0.9 C 51 %
187 25-03-2021 07:01:17 1.1 C 50 %
188 25-03-2021 07:11:17 1.3 C 50 %
189 25-03-2021 07:21:18 1.5 C 50 %
190 25-03-2021 07:31:17 2.2 C 50 %
191 25-03-2021 07:41:17 3.2 C 49 %
192 25-03-2021 07:52:17 3.7 C 48 %
193 25-03-2021 08:01:18 4.1 C 45 %
194 25-03-2021 08:11:18 4.7 C 42 %
195 25-03-2021 08:21:18 5.1 C 42 %
196 25-03-2021 08:31:17 5.1 C 41 %
197 25-03-2021 08:41:17 5 C 40 %
198 25-03-2021 08:51:17 5.4 C 40 %
199 25-03-2021 09:01:18 5.9 C 40 %
200 25-03-2021 09:11:18 6.5 C 40 %
Sensor: Nr:Datum:Temp:Feuchte:
Aussen-T/F 201 25-03-2021 09:21:18 6.8 C 38 %
202 25-03-2021 09:32:17 7.5 C 38 %
203 25-03-2021 09:42:17 8.7 C 37 %
204 25-03-2021 09:51:18 9.5 C 36 %
205 25-03-2021 10:01:17 10.2 C 35 %
206 25-03-2021 10:11:17 10.5 C 35 %
207 25-03-2021 10:21:17 10.6 C 35 %
208 25-03-2021 10:31:17 11.8 C 34 %
209 25-03-2021 10:41:17 12.3 C 32 %
210 25-03-2021 10:51:17 12.4 C 32 %
211 25-03-2021 11:01:17 13 C 31 %
212 25-03-2021 11:11:18 13.6 C 31 %
213 25-03-2021 11:21:18 13.6 C 30 %
214 25-03-2021 11:31:18 14.1 C 30 %
215 25-03-2021 11:41:18 14.8 C 30 %
216 25-03-2021 11:52:17 14.6 C 30 %
217 25-03-2021 12:01:17 13.6 C 30 %
218 25-03-2021 12:11:17 13.6 C 30 %
219 25-03-2021 12:21:17 14.2 C 30 %
220 25-03-2021 12:31:18 14 C 30 %
221 25-03-2021 12:41:18 14.2 C 30 %
222 25-03-2021 12:52:17 14.7 C 30 %
223 25-03-2021 13:01:18 16 C 28 %
224 25-03-2021 13:11:18 15.7 C 29 %
225 25-03-2021 13:22:17 17.7 C 27 %
Sensor: Nr:Datum:Temp:Feuchte:
Aussen-T/F 226 25-03-2021 13:31:18 18.4 C 26 %
227 25-03-2021 13:41:18 18.7 C 25 %
228 25-03-2021 13:52:17 18.3 C 25 %
229 25-03-2021 14:01:18 16.5 C 26 %
230 25-03-2021 14:11:18 18.1 C 26 %
231 25-03-2021 14:22:17 20.1 C 24 %
232 25-03-2021 14:31:18 21.1 C 22 %
233 25-03-2021 14:41:18 21.7 C 22 %
234 25-03-2021 14:51:18 19.8 C 23 %
235 25-03-2021 15:02:17 21.8 C 21 %
236 25-03-2021 15:12:17 20.9 C 22 %
237 25-03-2021 15:22:17 21.7 C 21 %
238 25-03-2021 15:31:18 18.7 C 25 %
239 25-03-2021 15:41:18 17.9 C 25 %
240 25-03-2021 15:52:17 16.5 C 26 %
241 25-03-2021 16:02:18 15.7 C 26 %
242 25-03-2021 16:11:18 15.3 C 27 %
243 25-03-2021 16:21:18 15.3 C 26 %
244 25-03-2021 16:31:18 15.3 C 26 %
245 25-03-2021 16:41:18 15.1 C 26 %
246 25-03-2021 16:51:18 15 C 26 %
247 25-03-2021 17:02:17 14.7 C 27 %
248 25-03-2021 17:12:17 14.3 C 27 %
249 25-03-2021 17:21:18 14.1 C 28 %
250 25-03-2021 17:32:17 13.7 C 29 %
Sensor: Nr:Datum:Temp:Feuchte:
Aussen-T/F 251 25-03-2021 17:42:18 13.5 C 29 %
252 25-03-2021 17:52:17 13.1 C 30 %
253 25-03-2021 18:02:18 12.8 C 30 %
254 25-03-2021 18:11:18 12.5 C 31 %
255 25-03-2021 18:22:17 12.4 C 31 %
256 25-03-2021 18:32:18 12.1 C 32 %
257 25-03-2021 18:42:18 12.1 C 31 %
258 25-03-2021 18:52:17 12 C 31 %
259 25-03-2021 19:02:17 11.9 C 32 %
260 25-03-2021 19:12:17 11.6 C 33 %
261 25-03-2021 19:22:17 11.6 C 33 %
262 25-03-2021 19:32:18 11.3 C 33 %
263 25-03-2021 19:42:18 10.7 C 35 %
264 25-03-2021 19:52:17 10.6 C 35 %
265 25-03-2021 20:02:18 10.7 C 35 %
266 25-03-2021 20:11:18 10.7 C 35 %
267 25-03-2021 20:22:17 10.6 C 35 %
268 25-03-2021 20:32:18 10.4 C 36 %
269 25-03-2021 20:42:18 10.1 C 36 %
270 25-03-2021 20:51:18 10.2 C 36 %
271 25-03-2021 21:02:17 10.2 C 36 %
272 25-03-2021 21:12:18 9.9 C 37 %
273 25-03-2021 21:21:18 9.4 C 38 %
274 25-03-2021 21:32:17 9.2 C 38 %
275 25-03-2021 21:42:17 9.1 C 38 %
Sensor: Nr:Datum:Temp:Feuchte:
Aussen-T/F 276 25-03-2021 21:52:18 8.5 C 39 %
277 25-03-2021 22:01:18 8.9 C 39 %
278 25-03-2021 22:11:18 8.1 C 39 %
279 25-03-2021 22:22:18 8.2 C 40 %
280 25-03-2021 22:32:17 7.6 C 40 %
281 25-03-2021 22:42:17 7.5 C 41 %
282 25-03-2021 22:52:18 7.3 C 40 %
283 25-03-2021 23:02:17 7 C 41 %
284 25-03-2021 23:12:17 6.7 C 42 %
285 25-03-2021 23:22:18 6.3 C 42 %
286 25-03-2021 23:32:17 6.1 C 43 %
287 25-03-2021 23:42:18 6.1 C 44 %
288 25-03-2021 23:52:18 6.1 C 44 %
289 26-03-2021 00:02:18 6 C 44 %
290 26-03-2021 00:12:18 5.9 C 45 %
291 26-03-2021 00:22:18 5.5 C 45 %
292 26-03-2021 00:32:17 5.3 C 45 %
293 26-03-2021 00:42:18 5 C 45 %
294 26-03-2021 00:52:18 5.1 C 45 %
295 26-03-2021 01:02:18 5.4 C 46 %
296 26-03-2021 01:12:18 5.6 C 46 %
297 26-03-2021 01:21:18 5.5 C 46 %
298 26-03-2021 01:32:17 5.7 C 46 %
299 26-03-2021 01:42:17 6 C 45 %
300 26-03-2021 01:52:18 6 C 45 %
Sensor: Nr:Datum:Temp:Feuchte:
Aussen-T/F 301 26-03-2021 02:02:18 6 C 45 %
302 26-03-2021 02:12:19 5.9 C 45 %
303 26-03-2021 02:22:18 6 C 45 %
304 26-03-2021 02:32:18 5.9 C 45 %
305 26-03-2021 02:42:19 5.7 C 45 %
306 26-03-2021 02:52:18 5.7 C 45 %
307 26-03-2021 03:02:17 5.8 C 45 %
308 26-03-2021 03:12:18 5.9 C 45 %
309 26-03-2021 03:22:18 6.3 C 44 %
310 26-03-2021 03:32:18 6.1 C 44 %
311 26-03-2021 03:42:18 6.1 C 44 %
312 26-03-2021 03:52:17 6.3 C 43 %
313 26-03-2021 04:02:17 6 C 43 %
314 26-03-2021 04:12:17 5.5 C 44 %
315 26-03-2021 04:22:18 4.8 C 45 %
316 26-03-2021 04:32:17 4.4 C 45 %
317 26-03-2021 04:42:17 4 C 46 %
318 26-03-2021 04:52:18 3.8 C 47 %
319 26-03-2021 05:02:17 3.7 C 47 %
320 26-03-2021 05:12:17 3.7 C 48 %
321 26-03-2021 05:22:18 3.4 C 47 %
322 26-03-2021 05:32:17 3.2 C 48 %
323 26-03-2021 05:42:17 3.1 C 48 %
324 26-03-2021 05:52:18 3 C 48 %
325 26-03-2021 06:02:18 2.8 C 49 %
Sensor: Nr:Datum:Temp:Feuchte:
Aussen-T/F 326 26-03-2021 06:12:18 2.7 C 49 %
327 26-03-2021 06:22:18 2.5 C 49 %
328 26-03-2021 06:32:17 2.5 C 50 %
329 26-03-2021 06:42:17 2.4 C 50 %
330 26-03-2021 06:52:18 2.6 C 50 %
331 26-03-2021 07:02:17 2.9 C 50 %
332 26-03-2021 07:12:17 3.5 C 49 %
333 26-03-2021 07:22:17 3.8 C 49 %
334 26-03-2021 07:32:18 3.9 C 49 %
335 26-03-2021 07:42:18 3.8 C 49 %
336 26-03-2021 07:52:17 3.7 C 49 %
337 26-03-2021 08:02:17 3.7 C 49 %
338 26-03-2021 08:12:17 3.8 C 49 %
339 26-03-2021 08:22:18 4 C 48 %
340 26-03-2021 08:32:17 4.3 C 48 %
341 26-03-2021 08:42:17 4.6 C 49 %
342 26-03-2021 08:52:18 5 C 48 %
343 26-03-2021 09:02:18 5.4 C 48 %
344 26-03-2021 09:12:18 5.7 C 48 %
345 26-03-2021 09:22:17 6.1 C 47 %
346 26-03-2021 09:32:18 6.4 C 47 %
347 26-03-2021 09:42:18 7 C 46 %
348 26-03-2021 09:52:18 7.9 C 45 %
349 26-03-2021 10:02:18 8.9 C 42 %
350 26-03-2021 10:12:18 9.7 C 40 %
Sensor: Nr:Datum:Temp:Feuchte:
Aussen-T/F 351 26-03-2021 10:22:18 10.5 C 40 %
352 26-03-2021 10:32:17 11.3 C 38 %
353 26-03-2021 10:42:17 11.4 C 36 %
354 26-03-2021 10:52:18 12.3 C 34 %
355 26-03-2021 11:02:17 13.2 C 31 %
356 26-03-2021 11:12:17 13.3 C 31 %
357 26-03-2021 11:22:18 15.7 C 29 %
358 26-03-2021 11:32:18 16.6 C 27 %
359 26-03-2021 11:42:18 16.8 C 26 %
360 26-03-2021 11:52:17 16.5 C 26 %
361 26-03-2021 12:02:17 15.5 C 26 %
362 26-03-2021 12:12:18 14.8 C 27 %
363 26-03-2021 12:22:18 15.9 C 26 %
364 26-03-2021 12:32:18 16.6 C 26 %
365 26-03-2021 12:42:18 15.7 C 27 %
366 26-03-2021 12:52:17 16.8 C 26 %
367 26-03-2021 13:02:17 17.3 C 26 %
368 26-03-2021 13:12:17 16.6 C 26 %
369 26-03-2021 13:22:17 16.9 C 25 %
370 26-03-2021 13:32:18 16.9 C 25 %
371 26-03-2021 13:42:18 18.1 C 25 %
372 26-03-2021 13:52:18 18.9 C 24 %
373 26-03-2021 14:02:18 15.7 C 25 %
374 26-03-2021 14:12:18 18.4 C 24 %
375 26-03-2021 14:22:18 18.9 C 23 %
Sensor: Nr:Datum:Temp:Feuchte:
Aussen-T/F 376 26-03-2021 14:32:17 20.8 C 22 %
377 26-03-2021 14:42:17 17.6 C 23 %
378 26-03-2021 14:52:17 17.3 C 24 %
379 26-03-2021 15:02:18 19 C 22 %
380 26-03-2021 15:12:18 17.8 C 23 %
381 26-03-2021 15:22:18 18.4 C 23 %
382 26-03-2021 15:32:17 20.9 C 21 %
383 26-03-2021 15:42:17 16.9 C 24 %
384 26-03-2021 15:52:18 17 C 25 %
385 26-03-2021 16:02:17 16.9 C 24 %
386 26-03-2021 16:12:17 16.9 C 25 %
387 26-03-2021 16:22:18 17.3 C 23 %
388 26-03-2021 16:32:18 17.3 C 24 %
389 26-03-2021 16:42:18 17.1 C 23 %
390 26-03-2021 16:52:18 16.8 C 24 %
391 26-03-2021 17:02:18 15.7 C 25 %
392 26-03-2021 17:12:18 15.7 C 25 %
393 26-03-2021 17:22:18 15.6 C 25 %
394 26-03-2021 17:32:17 15.4 C 25 %
395 26-03-2021 17:42:17 15.7 C 25 %
396 26-03-2021 17:52:18 15.7 C 25 %
397 26-03-2021 18:02:17 15.3 C 25 %
398 26-03-2021 18:12:17 15.1 C 25 %
399 26-03-2021 18:22:18 14.8 C 26 %
400 26-03-2021 18:32:18 14.6 C 26 %
Sensor: Nr:Datum:Temp:Feuchte:
Aussen-T/F 401 26-03-2021 18:42:18 13.5 C 28 %
402 26-03-2021 18:52:17 12.7 C 30 %
403 26-03-2021 19:02:17 12 C 30 %
404 26-03-2021 19:12:17 11.9 C 32 %
405 26-03-2021 19:22:18 11.7 C 32 %
406 26-03-2021 19:32:17 11.8 C 32 %
407 26-03-2021 19:42:18 11.3 C 31 %
408 26-03-2021 19:52:18 11.4 C 31 %
409 26-03-2021 20:02:17 11.2 C 32 %
410 26-03-2021 20:12:17 11.4 C 31 %
411 26-03-2021 20:22:17 11 C 31 %
412 26-03-2021 20:32:17 11.1 C 31 %
413 26-03-2021 20:42:18 10.5 C 32 %
414 26-03-2021 20:52:17 10.3 C 32 %
415 26-03-2021 21:02:18 10.2 C 32 %
416 26-03-2021 21:12:18 10 C 32 %
417 26-03-2021 21:22:18 9.5 C 34 %
418 26-03-2021 21:32:17 9.2 C 35 %
419 26-03-2021 21:42:17 9.3 C 35 %
420 26-03-2021 21:52:17 9.2 C 35 %
421 26-03-2021 22:02:17 8.8 C 35 %
422 26-03-2021 22:12:17 8.6 C 36 %
423 26-03-2021 22:22:18 8.7 C 35 %
424 26-03-2021 22:32:18 8.5 C 36 %
425 26-03-2021 22:42:18 8.7 C 36 %
Sensor: Nr:Datum:Temp:Feuchte:
Aussen-T/F 426 26-03-2021 22:52:18 8.4 C 36 %
427 26-03-2021 23:02:18 8.9 C 35 %
428 26-03-2021 23:12:18 8.8 C 36 %
429 26-03-2021 23:22:17 8.5 C 35 %
430 26-03-2021 23:32:17 7.8 C 36 %
431 26-03-2021 23:42:17 7.6 C 37 %
432 26-03-2021 23:52:18 7.5 C 37 %
433 27-03-2021 00:02:18 7.4 C 37 %
434 27-03-2021 00:12:18 7.4 C 37 %
435 27-03-2021 00:22:18 7.7 C 38 %
436 27-03-2021 00:32:17 9 C 35 %
437 27-03-2021 00:42:17 9.2 C 35 %
438 27-03-2021 00:52:18 9.3 C 35 %
439 27-03-2021 01:02:18 9 C 36 %
440 27-03-2021 01:12:18 8.7 C 39 %
441 27-03-2021 01:22:17 9.5 C 36 %
442 27-03-2021 01:32:17 10.1 C 35 %
443 27-03-2021 01:42:18 10.3 C 35 %
444 27-03-2021 01:52:18 10.2 C 35 %
445 27-03-2021 02:02:18 9.6 C 36 %
446 27-03-2021 02:12:18 9.5 C 36 %
447 27-03-2021 02:22:17 10.3 C 35 %
448 27-03-2021 02:32:17 10.2 C 35 %
449 27-03-2021 02:42:17 9.9 C 36 %
450 27-03-2021 02:52:17 8.6 C 36 %
Sensor: Nr:Datum:Temp:Feuchte:
Aussen-T/F 451 27-03-2021 03:02:18 8.4 C 35 %
452 27-03-2021 03:12:18 7.5 C 36 %
453 27-03-2021 03:22:17 7.1 C 37 %
454 27-03-2021 03:32:18 7 C 36 %
455 27-03-2021 03:42:18 6.7 C 37 %
456 27-03-2021 03:52:17 7 C 36 %
457 27-03-2021 04:02:18 7 C 36 %
458 27-03-2021 04:12:18 6.9 C 37 %
459 27-03-2021 04:22:17 6.8 C 37 %
460 27-03-2021 04:32:17 6.9 C 36 %
461 27-03-2021 04:42:17 6.9 C 36 %
462 27-03-2021 04:52:17 6.7 C 37 %
463 27-03-2021 05:02:18 6.6 C 36 %
464 27-03-2021 05:12:18 6.6 C 36 %
465 27-03-2021 05:22:17 6.4 C 36 %
466 27-03-2021 05:32:17 6.2 C 36 %
467 27-03-2021 05:42:18 6 C 36 %
468 27-03-2021 05:52:17 5.8 C 36 %
469 27-03-2021 06:02:17 5.3 C 37 %
470 27-03-2021 06:12:17 5.3 C 37 %
471 27-03-2021 06:22:18 5.4 C 37 %
472 27-03-2021 06:32:17 5.4 C 37 %
473 27-03-2021 06:42:18 5.1 C 37 %
474 27-03-2021 06:52:18 5.3 C 37 %
475 27-03-2021 07:02:17 5.3 C 37 %
Sensor: Nr:Datum:Temp:Feuchte:
Aussen-T/F 476 27-03-2021 07:12:17 5.6 C 37 %
477 27-03-2021 07:22:18 5.4 C 37 %
478 27-03-2021 07:32:17 5.8 C 37 %
479 27-03-2021 07:42:17 6 C 36 %
480 27-03-2021 07:52:17 6.2 C 36 %
481 27-03-2021 08:02:18 6.2 C 36 %
482 27-03-2021 08:12:18 6.1 C 36 %
483 27-03-2021 08:22:17 6.7 C 36 %
484 27-03-2021 08:32:17 6.9 C 36 %
485 27-03-2021 08:42:17 7.1 C 35 %
486 27-03-2021 08:52:18 6.9 C 36 %
487 27-03-2021 09:02:17 5.8 C 39 %
488 27-03-2021 09:12:17 6.9 C 37 %
489 27-03-2021 09:22:18 7.4 C 35 %
490 27-03-2021 09:32:18 7.6 C 35 %
491 27-03-2021 09:42:18 8 C 35 %
492 27-03-2021 09:52:18 7.9 C 35 %
493 27-03-2021 10:02:17 8.4 C 34 %
494 27-03-2021 10:12:17 7.9 C 34 %
495 27-03-2021 10:22:18 7.3 C 35 %
496 27-03-2021 10:32:18 4.7 C 40 %
497 27-03-2021 10:42:18 4.1 C 42 %
498 27-03-2021 10:52:17 4.5 C 42 %
499 27-03-2021 11:02:17 5.5 C 40 %
500 27-03-2021 11:12:17 6 C 39 %
Sensor: Nr:Datum:Temp:Feuchte:
Aussen-T/F 501 27-03-2021 11:22:17 7 C 38 %
502 27-03-2021 11:32:17 7.5 C 37 %
503 27-03-2021 11:42:17 7.9 C 37 %
504 27-03-2021 11:52:17 7.7 C 35 %
505 27-03-2021 12:02:18 5.7 C 40 %
506 27-03-2021 12:12:18 7 C 39 %
507 27-03-2021 12:22:17 9.1 C 36 %
508 27-03-2021 12:32:17 9.2 C 35 %
509 27-03-2021 12:42:17 9.2 C 35 %
510 27-03-2021 12:52:18 8.8 C 36 %
511 27-03-2021 13:02:18 7.8 C 36 %
512 27-03-2021 13:12:18 6.3 C 39 %
513 27-03-2021 13:22:17 6.8 C 39 %
514 27-03-2021 13:32:18 7.9 C 37 %
515 27-03-2021 13:42:18 7 C 36 %
516 27-03-2021 13:52:18 6.6 C 37 %
517 27-03-2021 14:02:18 6.5 C 37 %
518 27-03-2021 14:12:18 7.1 C 36 %
519 27-03-2021 14:22:18 10.1 C 32 %
520 27-03-2021 14:32:18 11.1 C 30 %
521 27-03-2021 14:42:18 12.8 C 30 %
522 27-03-2021 14:52:18 11.4 C 29 %
523 27-03-2021 15:02:18 8.9 C 31 %
524 27-03-2021 15:12:18 9.1 C 31 %
525 27-03-2021 15:22:17 9.2 C 30 %
Sensor: Nr:Datum:Temp:Feuchte:
Aussen-T/F 526 27-03-2021 15:32:17 9.5 C 30 %
527 27-03-2021 15:42:17 9.4 C 30 %
528 27-03-2021 15:52:17 9.8 C 30 %
529 27-03-2021 16:02:17 9.8 C 30 %
530 27-03-2021 16:12:17 10 C 30 %
531 27-03-2021 16:22:18 9.6 C 31 %
532 27-03-2021 16:32:18 9.5 C 31 %
533 27-03-2021 16:42:18 9.6 C 31 %
534 27-03-2021 16:52:18 9.5 C 31 %
535 27-03-2021 17:02:18 9.2 C 32 %
536 27-03-2021 17:12:18 9.3 C 32 %
537 27-03-2021 17:22:17 9 C 32 %
538 27-03-2021 17:32:18 9 C 33 %
539 27-03-2021 17:42:18 8.2 C 33 %
540 27-03-2021 17:52:19 7.9 C 35 %
541 27-03-2021 18:02:18 6.9 C 37 %
542 27-03-2021 18:12:18 5.7 C 38 %
543 27-03-2021 18:22:17 5.3 C 42 %
544 27-03-2021 18:32:18 5.1 C 42 %
545 27-03-2021 18:42:18 4.7 C 43 %
546 27-03-2021 18:52:18 4.5 C 44 %
547 27-03-2021 19:02:18 4.3 C 45 %
548 27-03-2021 19:12:18 4.3 C 45 %
549 27-03-2021 19:22:18 4.9 C 42 %
550 27-03-2021 19:32:18 4.6 C 43 %
Sensor: Nr:Datum:Temp:Feuchte:
Aussen-T/F 551 27-03-2021 19:42:18 4.8 C 42 %
552 27-03-2021 19:52:17 4.8 C 42 %
553 27-03-2021 20:02:18 4.6 C 42 %
554 27-03-2021 20:12:18 4.1 C 43 %
555 27-03-2021 20:22:17 4.2 C 43 %
556 27-03-2021 20:32:17 4.2 C 43 %
557 27-03-2021 20:42:17 4.9 C 42 %
558 27-03-2021 20:52:17 4.9 C 42 %
559 27-03-2021 21:02:17 4.9 C 42 %
560 27-03-2021 21:12:17 5.3 C 41 %
561 27-03-2021 21:22:18 4.9 C 42 %
562 27-03-2021 21:32:18 5 C 41 %
563 27-03-2021 21:42:18 4.3 C 42 %
564 27-03-2021 21:52:18 4.1 C 43 %
565 27-03-2021 22:02:17 3.7 C 44 %
566 27-03-2021 22:12:17 3.9 C 45 %
567 27-03-2021 22:22:18 3.7 C 44 %
568 27-03-2021 22:32:17 4.3 C 42 %
569 27-03-2021 22:42:17 3.9 C 43 %
570 27-03-2021 22:52:17 4.1 C 42 %
571 27-03-2021 23:02:18 3.5 C 43 %
572 27-03-2021 23:12:18 3.2 C 45 %
573 27-03-2021 23:22:18 3.1 C 46 %
574 27-03-2021 23:32:17 3.1 C 46 %
575 27-03-2021 23:42:17 3.6 C 44 %
Sensor: Nr:Datum:Temp:Feuchte:
Aussen-T/F 576 27-03-2021 23:52:18 3.7 C 44 %
577 28-03-2021 00:02:17 3.5 C 44 %
578 28-03-2021 00:12:17 3.3 C 44 %
579 28-03-2021 00:22:17 3.8 C 44 %
580 28-03-2021 00:32:17 3.7 C 44 %
581 28-03-2021 00:42:17 3.5 C 44 %
582 28-03-2021 00:52:18 3 C 45 %
583 28-03-2021 01:02:17 3.4 C 45 %
584 28-03-2021 01:12:17 3.5 C 45 %
585 28-03-2021 01:22:17 4.1 C 44 %
586 28-03-2021 01:32:17 4.1 C 44 %
587 28-03-2021 01:42:17 4.2 C 43 %
588 28-03-2021 01:52:17 4.4 C 43 %
589 28-03-2021 02:02:17 4.4 C 43 %
590 28-03-2021 02:12:17 4.4 C 42 %
591 28-03-2021 02:22:17 4.4 C 43 %
592 28-03-2021 02:32:17 4.6 C 43 %
593 28-03-2021 02:42:18 4.7 C 42 %
594 28-03-2021 02:52:18 4.6 C 43 %
595 28-03-2021 04:02:18 4.7 C 43 %
596 28-03-2021 04:12:18 4.8 C 43 %
597 28-03-2021 04:22:18 4.8 C 43 %
598 28-03-2021 04:32:17 4.8 C 43 %
599 28-03-2021 04:42:17 4.8 C 43 %
600 28-03-2021 04:52:18 4.8 C 43 %
Sensor: Nr:Datum:Temp:Feuchte:
Aussen-T/F 601 28-03-2021 05:02:17 4.6 C 43 %
602 28-03-2021 05:12:17 4.3 C 43 %
603 28-03-2021 05:22:17 4.5 C 43 %
604 28-03-2021 05:32:18 4.2 C 43 %
605 28-03-2021 05:42:18 4 C 43 %
606 28-03-2021 05:52:18 3.9 C 45 %
607 28-03-2021 06:02:17 3.8 C 45 %
608 28-03-2021 06:12:18 3.8 C 45 %
609 28-03-2021 06:22:17 3.8 C 45 %
610 28-03-2021 06:32:17 3.7 C 45 %
611 28-03-2021 06:42:17 3.9 C 45 %
612 28-03-2021 06:52:17 3.9 C 45 %
613 28-03-2021 07:02:18 4.1 C 43 %
614 28-03-2021 07:12:18 4.3 C 43 %
615 28-03-2021 07:22:17 4.7 C 42 %
616 28-03-2021 07:32:18 4.8 C 42 %
617 28-03-2021 07:42:18 5.3 C 41 %
618 28-03-2021 07:52:18 5.3 C 41 %
619 28-03-2021 08:02:17 5.4 C 41 %
620 28-03-2021 08:12:18 5.4 C 41 %
621 28-03-2021 08:22:17 5.6 C 41 %
622 28-03-2021 08:32:18 5.7 C 41 %
623 28-03-2021 08:42:18 6 C 40 %
624 28-03-2021 08:52:18 5.8 C 41 %
625 28-03-2021 09:02:17 6 C 40 %
Sensor: Nr:Datum:Temp:Feuchte:
Aussen-T/F 626 28-03-2021 09:12:17 6.4 C 40 %
627 28-03-2021 09:22:18 6.7 C 40 %
628 28-03-2021 09:32:18 7.1 C 39 %
629 28-03-2021 09:42:18 7.2 C 39 %
630 28-03-2021 09:52:18 7.5 C 39 %
631 28-03-2021 10:02:17 7.6 C 38 %
632 28-03-2021 10:12:18 7 C 39 %
633 28-03-2021 10:22:18 7 C 40 %
634 28-03-2021 10:32:17 8.5 C 37 %
635 28-03-2021 10:42:17 10.3 C 35 %
636 28-03-2021 10:52:17 10.8 C 35 %
637 28-03-2021 11:02:17 10.8 C 34 %
638 28-03-2021 11:12:17 11.4 C 33 %
639 28-03-2021 11:22:17 11.2 C 33 %
640 28-03-2021 11:32:17 11.8 C 33 %
641 28-03-2021 11:42:17 12.5 C 32 %
642 28-03-2021 11:52:17 12.2 C 31 %
643 28-03-2021 12:02:18 13.1 C 30 %
644 28-03-2021 12:12:18 13 C 29 %
645 28-03-2021 12:22:18 13.2 C 28 %
646 28-03-2021 12:32:18 14.4 C 27 %
647 28-03-2021 12:42:18 13.1 C 27 %
648 28-03-2021 12:52:17 13.7 C 28 %
649 28-03-2021 13:02:17 13.8 C 27 %
650 28-03-2021 13:12:17 14.4 C 26 %
Sensor: Nr:Datum:Temp:Feuchte:
Aussen-T/F 651 28-03-2021 13:22:18 13.4 C 26 %
652 28-03-2021 13:32:18 14.8 C 26 %
653 28-03-2021 13:42:18 14 C 26 %
654 28-03-2021 13:52:18 14.4 C 26 %
655 28-03-2021 14:02:18 14.7 C 26 %
656 28-03-2021 14:12:18 15.6 C 25 %
657 28-03-2021 14:22:18 16.2 C 25 %
658 28-03-2021 14:32:18 16.3 C 25 %
659 28-03-2021 14:42:18 15.3 C 25 %
660 28-03-2021 14:52:18 16.5 C 25 %
661 28-03-2021 15:02:18 15.9 C 25 %
662 28-03-2021 15:12:18 17.3 C 24 %
663 28-03-2021 15:22:18 18.1 C 22 %
664 28-03-2021 15:32:18 18.2 C 22 %
665 28-03-2021 15:42:18 17.2 C 22 %
666 28-03-2021 15:52:18 16.6 C 22 %
667 28-03-2021 16:02:18 18.1 C 21 %
668 28-03-2021 16:12:18 17.2 C 22 %
669 28-03-2021 16:22:18 17.6 C 22 %
670 28-03-2021 16:32:17 17.6 C 22 %
671 28-03-2021 16:42:18 17.1 C 22 %
672 28-03-2021 16:52:17 16.7 C 22 %
673 28-03-2021 17:02:18 16.7 C 22 %
674 28-03-2021 17:12:18 15.8 C 23 %
675 28-03-2021 17:22:18 15.6 C 23 %
Sensor: Nr:Datum:Temp:Feuchte:
Aussen-T/F 676 28-03-2021 17:32:18 15.7 C 23 %
677 28-03-2021 17:42:18 15.8 C 24 %
678 28-03-2021 17:52:18 16 C 23 %
679 28-03-2021 18:02:17 15.8 C 23 %
680 28-03-2021 18:12:17 15.8 C 24 %
681 28-03-2021 18:22:17 15.6 C 23 %
682 28-03-2021 18:32:17 15.7 C 23 %
683 28-03-2021 18:42:17 15.1 C 23 %
684 28-03-2021 18:52:17 14.7 C 25 %
685 28-03-2021 19:02:18 14.4 C 25 %
686 28-03-2021 19:12:18 14.1 C 25 %
687 28-03-2021 19:22:18 13.5 C 26 %
688 28-03-2021 19:32:18 13.5 C 26 %
689 28-03-2021 19:42:18 12.6 C 28 %
690 28-03-2021 19:52:18 12.4 C 27 %
691 28-03-2021 20:02:18 12.7 C 27 %
692 28-03-2021 20:12:18 12.4 C 27 %
693 28-03-2021 20:22:17 12 C 28 %
694 28-03-2021 20:32:18 12 C 27 %
695 28-03-2021 20:42:18 11.3 C 30 %
696 28-03-2021 20:52:17 10.3 C 31 %
697 28-03-2021 21:02:18 10 C 31 %
698 28-03-2021 21:12:18 9.9 C 32 %
699 28-03-2021 21:22:17 9.6 C 32 %
700 28-03-2021 21:32:17 9.2 C 33 %
Sensor: Nr:Datum:Temp:Feuchte:
Aussen-T/F 701 28-03-2021 21:42:17 8.9 C 34 %
702 28-03-2021 21:52:18 8.6 C 34 %
703 28-03-2021 22:02:17 8.6 C 35 %
704 28-03-2021 22:12:18 8.4 C 35 %
705 28-03-2021 22:22:18 8.4 C 35 %
706 28-03-2021 22:32:18 8.4 C 35 %
707 28-03-2021 22:42:18 8.4 C 35 %
708 28-03-2021 22:52:18 8.4 C 35 %
709 28-03-2021 23:02:18 8.2 C 35 %
710 28-03-2021 23:12:18 8.2 C 35 %
711 28-03-2021 23:22:18 8 C 35 %
712 28-03-2021 23:32:18 8 C 35 %
713 28-03-2021 23:42:18 7.7 C 36 %
714 28-03-2021 23:52:17 7.7 C 36 %
715 29-03-2021 00:02:17 7.6 C 36 %
716 29-03-2021 00:12:17 7.4 C 36 %
717 29-03-2021 00:22:17 7.2 C 37 %
718 29-03-2021 00:32:17 7.3 C 36 %
719 29-03-2021 00:42:17 6.7 C 37 %
720 29-03-2021 00:52:17 6.8 C 37 %
721 29-03-2021 01:02:17 6.6 C 37 %
722 29-03-2021 01:12:18 6.3 C 38 %
723 29-03-2021 01:22:17 6.1 C 38 %
724 29-03-2021 01:32:17 5.4 C 39 %
725 29-03-2021 01:42:17 5 C 40 %
Sensor: Nr:Datum:Temp:Feuchte:
Aussen-T/F 726 29-03-2021 01:52:18 4.8 C 40 %
727 29-03-2021 02:02:17 5.1 C 40 %
728 29-03-2021 02:12:17 5.1 C 40 %
729 29-03-2021 02:22:17 5 C 40 %
730 29-03-2021 02:32:17 4.7 C 41 %
731 29-03-2021 02:42:17 4.5 C 41 %
732 29-03-2021 02:52:17 4.1 C 42 %
733 29-03-2021 03:02:18 4 C 42 %
734 29-03-2021 03:12:18 4 C 42 %
735 29-03-2021 03:22:17 3.7 C 43 %
736 29-03-2021 03:32:17 3.6 C 44 %
737 29-03-2021 03:42:17 3.7 C 44 %
738 29-03-2021 03:52:17 3.8 C 45 %
739 29-03-2021 04:02:17 3.9 C 44 %
740 29-03-2021 04:12:18 3.5 C 44 %
741 29-03-2021 04:22:17 3.7 C 44 %
742 29-03-2021 04:32:17 3.5 C 44 %
743 29-03-2021 04:42:18 3.4 C 44 %
744 29-03-2021 04:52:17 3.2 C 44 %
745 29-03-2021 05:02:17 3 C 45 %
746 29-03-2021 05:12:18 2.9 C 46 %
747 29-03-2021 05:22:18 2.8 C 46 %
748 29-03-2021 05:32:17 3.1 C 45 %
749 29-03-2021 05:42:18 3 C 45 %
750 29-03-2021 05:52:17 3 C 45 %
Sensor: Nr:Datum:Temp:Feuchte:
Aussen-T/F 751 29-03-2021 06:02:17 3.1 C 45 %
752 29-03-2021 06:12:17 3.1 C 45 %
753 29-03-2021 06:22:17 3.1 C 45 %
754 29-03-2021 06:32:18 3 C 45 %
755 29-03-2021 06:42:18 3 C 45 %
756 29-03-2021 06:52:18 2.7 C 46 %
757 29-03-2021 07:02:18 2.7 C 46 %
758 29-03-2021 07:12:18 2.6 C 46 %
759 29-03-2021 07:22:18 2.6 C 47 %
760 29-03-2021 07:32:18 2.7 C 47 %
761 29-03-2021 07:42:18 2.8 C 47 %
762 29-03-2021 07:52:18 2.7 C 47 %
763 29-03-2021 08:02:18 3.1 C 46 %
764 29-03-2021 08:12:18 3.5 C 45 %
765 29-03-2021 08:22:18 3.5 C 45 %
766 29-03-2021 08:32:18 3.3 C 45 %
767 29-03-2021 08:42:18 3.4 C 45 %
768 29-03-2021 08:52:18 3.4 C 45 %
769 29-03-2021 09:02:18 3.5 C 45 %
770 29-03-2021 09:12:18 3.9 C 45 %
771 29-03-2021 09:22:17 4.4 C 44 %
772 29-03-2021 09:32:18 4.7 C 43 %
773 29-03-2021 09:42:18 5.4 C 42 %
774 29-03-2021 09:52:18 6.2 C 40 %
775 29-03-2021 10:02:17 6.6 C 40 %
Sensor: Nr:Datum:Temp:Feuchte:
Aussen-T/F 776 29-03-2021 10:12:17 7.4 C 38 %
777 29-03-2021 10:22:17 8 C 37 %
778 29-03-2021 10:32:17 8.7 C 37 %
779 29-03-2021 10:42:18 10.4 C 35 %
780 29-03-2021 10:52:18 11.6 C 33 %
781 29-03-2021 11:02:18 12.8 C 31 %
782 29-03-2021 11:12:18 13.8 C 29 %
783 29-03-2021 11:22:18 14.6 C 28 %
784 29-03-2021 11:32:18 15.1 C 26 %
785 29-03-2021 11:42:18 15.4 C 26 %
786 29-03-2021 11:52:18 17.3 C 25 %
787 29-03-2021 12:02:18 17.7 C 25 %
788 29-03-2021 12:12:18 17.5 C 24 %
789 29-03-2021 12:22:18 18.4 C 23 %
790 29-03-2021 12:32:17 18.8 C 22 %
791 29-03-2021 12:42:17 17.9 C 23 %
792 29-03-2021 12:52:18 18.2 C 22 %
793 29-03-2021 13:02:18 19.4 C 21 %
794 29-03-2021 13:12:18 19.3 C 21 %
795 29-03-2021 13:22:17 18.9 C 21 %
796 29-03-2021 13:32:17 19.3 C 21 %
797 29-03-2021 13:42:17 19.1 C 20 %
798 29-03-2021 13:52:17 19.5 C 21 %
799 29-03-2021 14:02:18 20.4 C 20 %
800 29-03-2021 14:12:18 20.7 C 20 %
Sensor: Nr:Datum:Temp:Feuchte:
Aussen-T/F 801 29-03-2021 14:22:17 22 C 20 %
802 29-03-2021 14:32:18 23 C 20 %
803 29-03-2021 14:42:18 23.2 C 20 %
804 29-03-2021 14:52:18 24.4 C 20 %
805 29-03-2021 15:02:17 23 C 20 %
806 29-03-2021 15:12:17 24.1 C 20 %
807 29-03-2021 15:22:17 24.5 C 20 %
808 29-03-2021 15:32:18 24.1 C 20 %
809 29-03-2021 15:42:18 26.5 C 20 %
810 29-03-2021 15:52:18 24.8 C 20 %
811 29-03-2021 16:02:18 25.1 C 20 %
812 29-03-2021 16:12:18 25.8 C 20 %
813 29-03-2021 16:22:18 24.9 C 20 %
814 29-03-2021 16:32:17 24.8 C 20 %
815 29-03-2021 16:42:17 25.2 C 20 %
816 29-03-2021 16:52:18 25.9 C 20 %
817 29-03-2021 17:02:17 25.7 C 20 %
818 29-03-2021 17:12:17 23.8 C 20 %
819 29-03-2021 17:22:18 25.5 C 20 %
820 29-03-2021 17:32:17 25.9 C 20 %
821 29-03-2021 17:42:17 25 C 20 %
822 29-03-2021 17:52:18 23.7 C 20 %
823 29-03-2021 18:02:17 22.5 C 20 %
824 29-03-2021 18:12:17 22 C 20 %
825 29-03-2021 18:22:18 21.6 C 20 %
Sensor: Nr:Datum:Temp:Feuchte:
Aussen-T/F 826 29-03-2021 18:32:18 21.7 C 20 %
827 29-03-2021 18:42:18 21.3 C 20 %
828 29-03-2021 18:52:18 20.9 C 20 %
829 29-03-2021 19:02:18 20.1 C 20 %
830 29-03-2021 19:12:18 18.8 C 21 %
831 29-03-2021 19:22:17 18.1 C 21 %
832 29-03-2021 19:32:17 17.3 C 22 %
833 29-03-2021 19:42:18 16.5 C 23 %
834 29-03-2021 19:52:18 16.1 C 23 %
835 29-03-2021 20:02:18 15.3 C 25 %
836 29-03-2021 20:12:18 15 C 25 %
837 29-03-2021 20:22:17 14.4 C 26 %
838 29-03-2021 20:32:17 14.5 C 26 %
839 29-03-2021 20:42:18 14.1 C 27 %
840 29-03-2021 20:52:17 13.8 C 27 %
841 29-03-2021 21:02:18 13.3 C 27 %
842 29-03-2021 21:12:18 13.4 C 27 %
843 29-03-2021 21:22:17 13.1 C 28 %
844 29-03-2021 21:32:17 12.5 C 30 %
845 29-03-2021 21:42:17 11.7 C 31 %
846 29-03-2021 21:52:17 11.6 C 31 %
847 29-03-2021 22:02:18 11.2 C 31 %
848 29-03-2021 22:12:18 10.1 C 32 %
849 29-03-2021 22:22:18 9.6 C 34 %
850 29-03-2021 22:32:18 8.9 C 35 %
Sensor: Nr:Datum:Temp:Feuchte:
Aussen-T/F 851 29-03-2021 22:42:18 8.9 C 35 %
852 29-03-2021 22:52:18 8.6 C 35 %
853 29-03-2021 23:02:18 8.2 C 35 %
854 29-03-2021 23:12:18 8.1 C 35 %
855 29-03-2021 23:22:18 8 C 35 %
856 29-03-2021 23:32:17 7.8 C 36 %
857 29-03-2021 23:42:17 7.7 C 36 %
858 29-03-2021 23:52:18 7.9 C 36 %
859 30-03-2021 00:02:17 7.3 C 36 %
860 30-03-2021 00:12:17 6.8 C 38 %
861 30-03-2021 00:22:17 6.8 C 38 %
862 30-03-2021 00:32:17 6.6 C 38 %
863 30-03-2021 00:42:17 6.3 C 38 %
864 30-03-2021 00:52:17 6.1 C 39 %
865 30-03-2021 01:02:18 5.8 C 39 %
866 30-03-2021 01:12:18 5.7 C 40 %
867 30-03-2021 01:22:17 5.6 C 40 %
868 30-03-2021 01:32:17 5.4 C 40 %
869 30-03-2021 01:42:17 5.3 C 40 %
870 30-03-2021 01:52:18 5.3 C 40 %
871 30-03-2021 02:02:18 5.2 C 40 %
872 30-03-2021 02:12:18 5 C 40 %
873 30-03-2021 02:22:18 4.8 C 41 %
874 30-03-2021 02:32:17 4.6 C 41 %
875 30-03-2021 02:42:17 4.5 C 42 %
Sensor: Nr:Datum:Temp:Feuchte:
Aussen-T/F 876 30-03-2021 02:52:17 4.4 C 41 %
877 30-03-2021 03:02:17 4.2 C 42 %
878 30-03-2021 03:12:17 4.4 C 42 %
879 30-03-2021 03:22:17 4.3 C 42 %
880 30-03-2021 03:32:18 3.8 C 43 %
881 30-03-2021 03:42:18 3.5 C 43 %
882 30-03-2021 03:52:17 3.5 C 44 %
883 30-03-2021 04:02:17 3.3 C 44 %
884 30-03-2021 04:12:17 3.2 C 44 %
885 30-03-2021 04:22:17 2.8 C 45 %
886 30-03-2021 04:32:17 2.5 C 45 %
887 30-03-2021 04:42:17 2.6 C 46 %
888 30-03-2021 04:52:17 2.7 C 46 %
889 30-03-2021 05:02:17 2.5 C 46 %
890 30-03-2021 05:12:17 2.4 C 46 %
891 30-03-2021 05:22:17 1.9 C 47 %
892 30-03-2021 05:32:18 1.8 C 47 %
893 30-03-2021 05:42:18 1.8 C 48 %
894 30-03-2021 05:52:17 1.7 C 48 %
895 30-03-2021 06:02:18 1.5 C 47 %
896 30-03-2021 06:12:18 1.5 C 49 %
897 30-03-2021 06:22:18 2 C 48 %
898 30-03-2021 06:32:17 2.1 C 48 %
899 30-03-2021 06:42:17 2.1 C 47 %
900 30-03-2021 06:52:18 2.2 C 47 %
Sensor: Nr:Datum:Temp:Feuchte:
Aussen-T/F 901 30-03-2021 07:02:17 1.4 C 47 %
902 30-03-2021 07:12:17 1.6 C 49 %
903 30-03-2021 07:22:18 1.5 C 48 %
904 30-03-2021 07:32:18 1.4 C 48 %
905 30-03-2021 07:42:18 1.3 C 48 %
906 30-03-2021 07:52:17 1.2 C 48 %
907 30-03-2021 08:02:17 1.1 C 48 %
908 30-03-2021 08:12:17 1.1 C 49 %
909 30-03-2021 08:22:18 1.6 C 50 %
910 30-03-2021 08:32:18 1.5 C 49 %
911 30-03-2021 08:42:18 1.7 C 49 %
912 30-03-2021 08:52:17 2.1 C 49 %
913 30-03-2021 09:02:17 2.1 C 48 %
914 30-03-2021 09:12:17 2.5 C 47 %
915 30-03-2021 09:22:17 2.7 C 47 %
916 30-03-2021 09:32:17 2.8 C 46 %
917 30-03-2021 09:42:17 3.2 C 47 %
918 30-03-2021 09:52:18 3.5 C 46 %
919 30-03-2021 10:02:18 4.1 C 45 %
920 30-03-2021 10:12:18 4.5 C 44 %
921 30-03-2021 10:22:17 4.9 C 44 %
922 30-03-2021 10:32:18 5.7 C 43 %
923 30-03-2021 10:42:18 6.5 C 41 %
924 30-03-2021 10:52:17 7.4 C 40 %
925 30-03-2021 11:02:17 8.7 C 39 %
Sensor: Nr:Datum:Temp:Feuchte:
Aussen-T/F 926 30-03-2021 11:12:17 9.7 C 38 %
927 30-03-2021 11:22:18 11.3 C 35 %
928 30-03-2021 11:32:17 13 C 31 %
929 30-03-2021 11:42:17 13.5 C 30 %
930 30-03-2021 11:52:17 15.4 C 30 %
931 30-03-2021 12:02:17 17.2 C 27 %
932 30-03-2021 12:12:17 17.8 C 25 %
933 30-03-2021 12:22:18 18 C 25 %
934 30-03-2021 12:32:17 21.1 C 22 %
935 30-03-2021 12:42:17 19.5 C 23 %
936 30-03-2021 12:52:17 18.1 C 25 %
937 30-03-2021 13:02:17 19.8 C 23 %
938 30-03-2021 13:12:17 19.4 C 23 %
939 30-03-2021 13:22:17 19.5 C 23 %
940 30-03-2021 13:32:17 19.7 C 23 %
941 30-03-2021 13:42:17 20.2 C 21 %
942 30-03-2021 13:52:17 20.5 C 21 %
943 30-03-2021 14:02:17 22 C 20 %
944 30-03-2021 14:12:17 22.1 C 20 %
945 30-03-2021 14:22:18 24.1 C 20 %
946 30-03-2021 14:32:18 26.3 C 20 %
947 30-03-2021 14:42:18 27.1 C 20 %
948 30-03-2021 14:52:18 26.8 C 20 %
949 30-03-2021 15:02:18 27.8 C 20 %
950 30-03-2021 15:12:18 28.3 C 20 %
Sensor: Nr:Datum:Temp:Feuchte:
Aussen-T/F 951 30-03-2021 15:22:18 29.7 C 20 %
952 30-03-2021 15:32:18 28.1 C 20 %
953 30-03-2021 15:42:18 29.3 C 20 %
954 30-03-2021 15:52:17 30.2 C 20 %
955 30-03-2021 16:02:18 30.1 C 20 %
956 30-03-2021 16:12:18 31.2 C 20 %
957 30-03-2021 16:22:18 31.2 C 20 %
958 30-03-2021 16:32:18 32.2 C 20 %
959 30-03-2021 16:42:18 30.2 C 20 %
960 30-03-2021 16:52:17 29.8 C 20 %
961 30-03-2021 17:02:17 28.8 C 20 %
962 30-03-2021 17:12:18 28.4 C 20 %
963 30-03-2021 17:22:17 29.2 C 20 %
964 30-03-2021 17:32:17 26.6 C 20 %
965 30-03-2021 17:42:17 28.5 C 20 %
966 30-03-2021 17:52:17 26.6 C 20 %
967 30-03-2021 18:02:17 24.6 C 20 %
968 30-03-2021 18:12:17 24.6 C 20 %
969 30-03-2021 18:22:17 24.1 C 20 %
970 30-03-2021 18:32:17 24.1 C 20 %
971 30-03-2021 18:42:17 23.7 C 20 %
972 30-03-2021 18:52:17 22.5 C 20 %
973 30-03-2021 19:02:18 21.6 C 20 %
974 30-03-2021 19:12:18 20.5 C 20 %
975 30-03-2021 19:22:18 19.1 C 20 %
Sensor: Nr:Datum:Temp:Feuchte:
Aussen-T/F 976 30-03-2021 19:32:17 18.4 C 20 %
977 30-03-2021 19:42:18 17.9 C 20 %
978 30-03-2021 19:52:17 17.1 C 20 %
979 30-03-2021 20:02:17 16.6 C 20 %
980 30-03-2021 20:12:17 16 C 20 %
981 30-03-2021 20:22:18 16 C 20 %
982 30-03-2021 20:32:18 15.8 C 21 %
983 30-03-2021 20:42:18 15.4 C 21 %
984 30-03-2021 20:52:17 14.8 C 23 %
985 30-03-2021 21:02:18 14.6 C 23 %
986 30-03-2021 21:12:18 13.8 C 25 %
987 30-03-2021 21:22:18 13.3 C 25 %
988 30-03-2021 21:32:18 12 C 27 %
989 30-03-2021 21:42:18 11.2 C 29 %
990 30-03-2021 21:52:17 11.1 C 30 %
991 30-03-2021 22:02:17 10.4 C 31 %
992 30-03-2021 22:12:17 10.5 C 31 %
993 30-03-2021 22:22:18 10.5 C 31 %
994 30-03-2021 22:32:17 9.9 C 31 %
995 30-03-2021 22:42:17 9.6 C 31 %
996 30-03-2021 22:52:17 9 C 33 %
997 30-03-2021 23:02:18 9 C 32 %
998 30-03-2021 23:12:18 8.5 C 33 %
999 30-03-2021 23:22:18 8.5 C 34 %
1000 30-03-2021 23:32:18 8.2 C 34 %
Sensor: Nr:Datum:Temp:Feuchte:
Aussen-T/F 1001 30-03-2021 23:42:18 8 C 34 %
1002 30-03-2021 23:52:18 7.8 C 35 %
1003 31-03-2021 00:02:17 8 C 34 %
1004 31-03-2021 00:12:17 7.6 C 35 %
1005 31-03-2021 00:22:17 7.6 C 35 %
1006 31-03-2021 00:32:17 7.7 C 35 %
1007 31-03-2021 00:42:17 7.2 C 35 %
1008 31-03-2021 00:52:17 7.2 C 35 %
1009 31-03-2021 01:02:17 6.7 C 36 %
1010 31-03-2021 01:12:17 6.8 C 36 %
1011 31-03-2021 01:22:17 6.4 C 37 %
1012 31-03-2021 01:32:18 6.2 C 37 %
1013 31-03-2021 01:42:18 6.2 C 37 %
1014 31-03-2021 01:52:17 6.1 C 37 %
1015 31-03-2021 02:02:17 5.9 C 38 %
1016 31-03-2021 02:12:17 5.6 C 39 %
1017 31-03-2021 02:22:17 5.5 C 39 %
1018 31-03-2021 02:32:17 5.4 C 39 %
1019 31-03-2021 02:42:17 5.2 C 40 %
1020 31-03-2021 02:52:17 5.7 C 39 %
1021 31-03-2021 03:02:17 5.1 C 40 %
1022 31-03-2021 03:12:17 4.9 C 40 %
1023 31-03-2021 03:22:17 4.8 C 41 %
1024 31-03-2021 03:32:18 4.3 C 41 %
1025 31-03-2021 03:42:18 4.5 C 41 %
Sensor: Nr:Datum:Temp:Feuchte:
Aussen-T/F 1026 31-03-2021 03:52:17 4.6 C 41 %
1027 31-03-2021 04:02:17 4.3 C 41 %
1028 31-03-2021 04:12:17 4.2 C 41 %
1029 31-03-2021 04:22:17 4.1 C 41 %
1030 31-03-2021 04:32:17 4 C 42 %
1031 31-03-2021 04:42:18 3.6 C 43 %
1032 31-03-2021 04:52:17 3.5 C 43 %
1033 31-03-2021 05:02:17 3.3 C 44 %
1034 31-03-2021 05:12:17 3.2 C 44 %
1035 31-03-2021 05:22:18 3 C 44 %
1036 31-03-2021 05:32:18 3.3 C 44 %
1037 31-03-2021 05:42:18 3.3 C 44 %
1038 31-03-2021 05:52:17 3.2 C 44 %
1039 31-03-2021 06:02:17 3.3 C 45 %
1040 31-03-2021 06:12:17 2.9 C 45 %
1041 31-03-2021 06:22:17 2.7 C 45 %
1042 31-03-2021 06:32:17 2.4 C 45 %
1043 31-03-2021 06:42:17 2.2 C 45 %
1044 31-03-2021 06:52:18 2.4 C 46 %
1045 31-03-2021 07:02:17 2.5 C 46 %
1046 31-03-2021 07:12:17 2.2 C 46 %
1047 31-03-2021 07:22:18 2.3 C 46 %
1048 31-03-2021 07:32:18 2.5 C 46 %
1049 31-03-2021 07:42:18 2.7 C 46 %
1050 31-03-2021 07:52:18 2.7 C 46 %
Sensor: Nr:Datum:Temp:Feuchte:
Aussen-T/F 1051 31-03-2021 08:02:17 2.8 C 46 %
1052 31-03-2021 08:12:17 3.3 C 46 %
1053 31-03-2021 08:22:18 3.1 C 45 %
1054 31-03-2021 08:32:18 3.4 C 45 %
1055 31-03-2021 08:42:18 3.6 C 45 %
1056 31-03-2021 08:52:18 3.8 C 45 %
1057 31-03-2021 09:02:17 4 C 43 %
1058 31-03-2021 09:12:18 4.3 C 43 %
1059 31-03-2021 09:22:18 4.7 C 43 %
1060 31-03-2021 09:32:17 5.1 C 42 %
1061 31-03-2021 09:42:18 5.6 C 41 %
1062 31-03-2021 09:52:18 5.7 C 41 %
1063 31-03-2021 10:02:18 6 C 40 %
1064 31-03-2021 10:12:18 6.8 C 40 %
1065 31-03-2021 10:22:18 7 C 39 %
1066 31-03-2021 10:32:18 7.6 C 39 %
1067 31-03-2021 10:42:18 8.3 C 38 %
1068 31-03-2021 10:52:18 9.7 C 37 %
1069 31-03-2021 11:02:18 11.2 C 35 %
1070 31-03-2021 11:12:18 12 C 33 %
1071 31-03-2021 11:22:18 13.4 C 31 %
1072 31-03-2021 11:32:18 15.2 C 30 %
1073 31-03-2021 11:42:18 16.1 C 28 %
1074 31-03-2021 11:52:18 17.1 C 27 %
1075 31-03-2021 12:02:17 19.6 C 25 %
Sensor: Nr:Datum:Temp:Feuchte:
Aussen-T/F 1076 31-03-2021 12:12:17 21.6 C 22 %
1077 31-03-2021 12:22:17 22.4 C 22 %
1078 31-03-2021 12:32:17 24 C 20 %
1079 31-03-2021 12:42:17 24.6 C 20 %
1080 31-03-2021 12:52:18 20.8 C 20 %
1081 31-03-2021 13:02:17 22.7 C 20 %
1082 31-03-2021 13:12:17 23.3 C 20 %
1083 31-03-2021 13:22:17 22.4 C 20 %
1084 31-03-2021 13:32:18 22.2 C 20 %
1085 31-03-2021 13:42:18 23.1 C 20 %
1086 31-03-2021 13:52:18 23.2 C 20 %
1087 31-03-2021 14:02:18 23.5 C 20 %
1088 31-03-2021 14:12:18 24.1 C 20 %
1089 31-03-2021 14:22:17 26.4 C 20 %
1090 31-03-2021 14:32:17 28.3 C 20 %
1091 31-03-2021 14:42:18 30.2 C 20 %
1092 31-03-2021 14:52:17 30 C 20 %
1093 31-03-2021 15:02:17 29.6 C 20 %
1094 31-03-2021 15:12:18 29.2 C 20 %
1095 31-03-2021 15:22:17 29.5 C 20 %
1096 31-03-2021 15:32:18 32.4 C 20 %
1097 31-03-2021 15:42:18 31.4 C 20 %
1098 31-03-2021 15:52:17 30.4 C 20 %
1099 31-03-2021 16:02:17 31 C 20 %
1100 31-03-2021 16:12:18 31.1 C 20 %
Sensor: Nr:Datum:Temp:Feuchte:
Aussen-T/F 1101 31-03-2021 16:22:17 31.5 C 20 %
1102 31-03-2021 16:32:18 29.8 C 20 %
1103 31-03-2021 16:42:18 30.7 C 20 %
1104 31-03-2021 16:52:18 30 C 20 %
1105 31-03-2021 17:02:17 30.1 C 20 %
1106 31-03-2021 17:12:18 30.8 C 20 %
1107 31-03-2021 17:22:17 30.7 C 20 %
1108 31-03-2021 17:32:18 29.7 C 20 %
1109 31-03-2021 17:42:18 30.6 C 20 %
1110 31-03-2021 17:52:18 27.6 C 20 %
1111 31-03-2021 18:02:18 26.7 C 20 %
1112 31-03-2021 18:12:18 26.1 C 20 %
1113 31-03-2021 18:22:18 26.1 C 20 %
1114 31-03-2021 18:32:18 25.5 C 20 %
1115 31-03-2021 18:42:18 25.2 C 20 %
1116 31-03-2021 18:52:17 24.8 C 20 %
1117 31-03-2021 19:02:17 24.1 C 20 %
1118 31-03-2021 19:12:17 24 C 20 %
1119 31-03-2021 19:22:18 23.2 C 20 %
1120 31-03-2021 19:32:17 21.8 C 20 %
1121 31-03-2021 19:42:17 20.7 C 20 %
1122 31-03-2021 19:52:18 19.5 C 21 %
1123 31-03-2021 20:02:17 18.6 C 22 %
1124 31-03-2021 20:12:18 18.6 C 22 %
1125 31-03-2021 20:22:17 18.1 C 22 %
Sensor: Nr:Datum:Temp:Feuchte:
Aussen-T/F 1126 31-03-2021 20:32:18 17.9 C 23 %
1127 31-03-2021 20:42:18 17 C 24 %
1128 31-03-2021 20:52:18 16.8 C 25 %
1129 31-03-2021 21:02:18 16.3 C 25 %
1130 31-03-2021 21:12:18 15.2 C 26 %
1131 31-03-2021 21:22:17 15 C 27 %
1132 31-03-2021 21:32:17 14.6 C 28 %
1133 31-03-2021 21:42:18 14.1 C 28 %
1134 31-03-2021 21:52:18 13.8 C 29 %
1135 31-03-2021 22:02:18 13.1 C 30 %
1136 31-03-2021 22:12:18 13.2 C 30 %
1137 31-03-2021 22:22:18 13.1 C 30 %
1138 31-03-2021 22:32:17 13.1 C 30 %
1139 31-03-2021 22:42:17 15.1 C 27 %
1140 31-03-2021 22:52:18 13.8 C 29 %
1141 31-03-2021 23:02:18 12.5 C 31 %
1142 31-03-2021 23:12:18 12 C 31 %
1143 31-03-2021 23:22:17 11.9 C 32 %
1144 31-03-2021 23:32:18 12 C 31 %
1145 31-03-2021 23:42:18 11.3 C 32 %
1146 31-03-2021 23:52:18 11.1 C 32 %
1147 01-04-2021 00:02:17 11.1 C 32 %
1148 01-04-2021 00:12:18 11.2 C 32 %
1149 01-04-2021 00:22:17 10.9 C 33 %
1150 01-04-2021 00:32:17 10.7 C 34 %
Sensor: Nr:Datum:Temp:Feuchte:
Aussen-T/F 1151 01-04-2021 00:42:17 10.7 C 34 %
1152 01-04-2021 00:52:18 10 C 34 %
1153 01-04-2021 01:02:17 9.9 C 35 %
1154 01-04-2021 01:12:17 9.5 C 35 %
1155 01-04-2021 01:22:17 9 C 36 %
1156 01-04-2021 01:32:18 8.9 C 37 %
1157 01-04-2021 01:42:18 8.6 C 37 %
1158 01-04-2021 01:52:17 8.2 C 38 %
1159 01-04-2021 02:02:17 7.9 C 39 %
1160 01-04-2021 02:12:17 7.5 C 39 %
1161 01-04-2021 02:22:17 7.7 C 40 %
1162 01-04-2021 02:32:18 7.9 C 40 %
1163 01-04-2021 02:42:18 8.2 C 39 %
1164 01-04-2021 02:52:17 8.3 C 38 %
1165 01-04-2021 03:02:17 7.8 C 39 %
1166 01-04-2021 03:12:17 7.2 C 39 %
1167 01-04-2021 03:22:18 7.5 C 40 %
1168 01-04-2021 03:32:17 7.3 C 40 %
1169 01-04-2021 03:42:18 7.1 C 40 %
1170 01-04-2021 03:52:17 7.1 C 40 %
1171 01-04-2021 04:02:18 7 C 40 %
1172 01-04-2021 04:12:18 6.7 C 41 %
1173 01-04-2021 04:22:18 6.7 C 41 %
1174 01-04-2021 04:32:18 7.1 C 41 %
1175 01-04-2021 04:42:18 7.2 C 40 %
Sensor: Nr:Datum:Temp:Feuchte:
Aussen-T/F 1176 01-04-2021 04:52:17 6.8 C 41 %
1177 01-04-2021 05:02:17 6.5 C 41 %
1178 01-04-2021 05:12:17 6.5 C 41 %
1179 01-04-2021 05:22:17 6.3 C 42 %
1180 01-04-2021 05:32:17 6.7 C 42 %
1181 01-04-2021 05:42:18 6.9 C 41 %
1182 01-04-2021 05:52:17 6.8 C 41 %
1183 01-04-2021 06:02:17 6.8 C 41 %
1184 01-04-2021 06:12:17 6.6 C 41 %
1185 01-04-2021 06:22:17 6.5 C 42 %
1186 01-04-2021 06:32:18 6.4 C 42 %
1187 01-04-2021 06:42:18 6.2 C 42 %
1188 01-04-2021 06:52:18 6.3 C 43 %
1189 01-04-2021 07:02:18 6 C 42 %
1190 01-04-2021 07:12:18 6.1 C 42 %
1191 01-04-2021 07:22:18 6 C 42 %
1192 01-04-2021 07:32:17 6.6 C 42 %
1193 01-04-2021 07:42:18 6.8 C 42 %
1194 01-04-2021 07:52:17 6.8 C 41 %
1195 01-04-2021 08:02:17 6.8 C 42 %
1196 01-04-2021 08:12:18 7.1 C 41 %
1197 01-04-2021 08:22:17 7.5 C 41 %
1198 01-04-2021 08:32:17 7.9 C 40 %
1199 01-04-2021 08:42:18 8 C 40 %
1200 01-04-2021 08:52:18 8.5 C 39 %
Sensor: Nr:Datum:Temp:Feuchte:
Aussen-T/F 1201 01-04-2021 09:02:17 9 C 38 %
1202 01-04-2021 09:12:17 9.1 C 37 %
1203 01-04-2021 09:22:18 9.3 C 37 %
1204 01-04-2021 09:32:18 9.6 C 37 %
1205 01-04-2021 09:42:18 9.7 C 37 %
1206 01-04-2021 09:52:17 10.3 C 36 %
1207 01-04-2021 10:02:18 10.8 C 36 %
1208 01-04-2021 10:12:18 11.3 C 35 %
1209 01-04-2021 10:22:18 11.2 C 35 %
1210 01-04-2021 10:32:17 11.3 C 35 %
1211 01-04-2021 10:42:18 11.8 C 35 %
1212 01-04-2021 10:52:17 12.5 C 34 %
1213 01-04-2021 11:02:17 13 C 32 %
1214 01-04-2021 11:12:18 14.1 C 31 %
1215 01-04-2021 11:22:17 14.7 C 31 %
1216 01-04-2021 11:32:17 15.7 C 30 %
1217 01-04-2021 11:42:17 16.3 C 30 %
1218 01-04-2021 11:52:17 17.5 C 29 %
1219 01-04-2021 12:02:18 18.4 C 28 %
1220 01-04-2021 12:12:18 20.2 C 25 %
1221 01-04-2021 12:22:18 21.9 C 24 %
1222 01-04-2021 12:32:18 23.7 C 21 %
1223 01-04-2021 12:42:18 23.5 C 20 %
1224 01-04-2021 12:52:17 20.8 C 23 %
1225 01-04-2021 13:02:18 21.6 C 22 %
Sensor: Nr:Datum:Temp:Feuchte:
Aussen-T/F 1226 01-04-2021 13:12:18 21.4 C 21 %
1227 01-04-2021 13:22:17 21.9 C 21 %
1228 01-04-2021 13:32:18 21.2 C 21 %
1229 01-04-2021 13:42:18 22.1 C 20 %
1230 01-04-2021 13:52:17 22.1 C 20 %
1231 01-04-2021 14:02:18 22.7 C 20 %
1232 01-04-2021 14:12:18 23.3 C 20 %
1233 01-04-2021 14:22:18 24.4 C 20 %
1234 01-04-2021 14:32:17 24.5 C 20 %
1235 01-04-2021 14:42:18 26.3 C 20 %
1236 01-04-2021 14:52:17 26.5 C 20 %
1237 01-04-2021 15:02:17 25 C 20 %
1238 01-04-2021 15:12:18 27.5 C 20 %
1239 01-04-2021 15:22:17 27.4 C 20 %
1240 01-04-2021 15:32:17 26.4 C 20 %
1241 01-04-2021 15:42:17 27.1 C 20 %
1242 01-04-2021 15:52:17 27.5 C 20 %
1243 01-04-2021 16:02:17 26.8 C 20 %
1244 01-04-2021 16:12:18 27.4 C 20 %
1245 01-04-2021 16:22:18 26.4 C 20 %
1246 01-04-2021 16:32:18 26.3 C 20 %
1247 01-04-2021 16:42:18 27.2 C 20 %
1248 01-04-2021 16:52:17 24.3 C 20 %
1249 01-04-2021 17:02:17 26.6 C 20 %
1250 01-04-2021 17:12:18 24.3 C 20 %
Sensor: Nr:Datum:Temp:Feuchte:
Aussen-T/F 1251 01-04-2021 17:22:18 24.8 C 20 %
1252 01-04-2021 17:32:17 24.4 C 20 %
1253 01-04-2021 17:42:18 24.2 C 20 %
1254 01-04-2021 17:52:18 23.3 C 20 %
1255 01-04-2021 18:02:17 22 C 20 %
1256 01-04-2021 18:12:18 21.5 C 20 %
1257 01-04-2021 18:22:17 21.4 C 20 %
1258 01-04-2021 18:32:18 20.4 C 21 %
1259 01-04-2021 18:42:18 20.3 C 21 %
1260 01-04-2021 18:52:17 19.9 C 23 %
1261 01-04-2021 19:02:17 19.5 C 24 %
1262 01-04-2021 19:12:17 19.1 C 25 %
1263 01-04-2021 19:22:18 18.5 C 25 %
1264 01-04-2021 19:32:18 18.1 C 25 %
1265 01-04-2021 19:42:18 17.6 C 26 %
1266 01-04-2021 19:52:17 17.2 C 25 %
1267 01-04-2021 20:02:17 16.9 C 26 %
1268 01-04-2021 20:12:18 16.4 C 26 %
1269 01-04-2021 20:22:17 16.3 C 26 %
1270 01-04-2021 20:32:18 15.9 C 26 %
1271 01-04-2021 20:42:18 15.9 C 27 %
1272 01-04-2021 20:52:17 15.6 C 27 %
1273 01-04-2021 21:02:18 15.4 C 27 %
1274 01-04-2021 21:12:18 15 C 28 %
1275 01-04-2021 21:22:18 14.8 C 29 %
Sensor: Nr:Datum:Temp:Feuchte:
Aussen-T/F 1276 01-04-2021 21:32:17 14.6 C 29 %
1277 01-04-2021 21:42:18 14.5 C 29 %
1278 01-04-2021 21:52:17 14.2 C 30 %
1279 01-04-2021 22:02:17 14 C 30 %
1280 01-04-2021 22:12:18 13.5 C 30 %
1281 01-04-2021 22:22:18 13 C 31 %
1282 01-04-2021 22:32:18 13 C 31 %
1283 01-04-2021 22:42:18 12.5 C 31 %
1284 01-04-2021 22:52:18 12.1 C 32 %
1285 01-04-2021 23:02:18 12.1 C 31 %
1286 01-04-2021 23:12:18 11.7 C 32 %
1287 01-04-2021 23:22:18 11.4 C 32 %
1288 01-04-2021 23:32:18 11.1 C 32 %
1289 01-04-2021 23:42:18 9.8 C 35 %
1290 01-04-2021 23:52:18 9.2 C 35 %
1291 02-04-2021 00:02:17 8.6 C 35 %
1292 02-04-2021 00:12:18 9.7 C 33 %
1293 02-04-2021 00:22:17 10.1 C 32 %
1294 02-04-2021 00:32:17 10 C 31 %
1295 02-04-2021 00:42:17 9.8 C 32 %
1296 02-04-2021 00:52:17 8.9 C 33 %
1297 02-04-2021 01:02:17 7.1 C 36 %
1298 02-04-2021 01:12:18 6.8 C 36 %
1299 02-04-2021 01:22:17 7.6 C 35 %
1300 02-04-2021 01:32:17 8.2 C 34 %
Sensor: Nr:Datum:Temp:Feuchte:
Aussen-T/F 1301 02-04-2021 01:42:17 7.2 C 35 %
1302 02-04-2021 01:52:17 6.6 C 36 %
1303 02-04-2021 02:02:17 6 C 36 %
1304 02-04-2021 02:12:17 5.9 C 37 %
1305 02-04-2021 02:22:17 5.5 C 38 %
1306 02-04-2021 02:32:17 5.1 C 39 %
1307 02-04-2021 02:42:17 5 C 39 %
1308 02-04-2021 02:52:18 4.9 C 40 %
1309 02-04-2021 03:02:17 4.8 C 40 %
1310 02-04-2021 03:12:17 4.6 C 40 %
1311 02-04-2021 03:22:17 4.7 C 40 %
1312 02-04-2021 03:32:17 4.7 C 40 %
1313 02-04-2021 03:42:17 4.6 C 40 %
1314 02-04-2021 03:52:17 4.6 C 40 %
1315 02-04-2021 04:02:17 4.5 C 40 %
1316 02-04-2021 04:12:17 4.3 C 40 %
1317 02-04-2021 04:22:17 4.5 C 40 %
1318 02-04-2021 04:32:17 4.5 C 40 %
1319 02-04-2021 04:42:17 4.2 C 40 %
1320 02-04-2021 04:52:17 4 C 41 %
1321 02-04-2021 05:02:17 4 C 41 %
1322 02-04-2021 05:12:17 3.4 C 42 %
1323 02-04-2021 05:22:18 3.4 C 43 %
1324 02-04-2021 05:32:17 3.1 C 43 %
1325 02-04-2021 05:42:18 3.4 C 44 %
Sensor: Nr:Datum:Temp:Feuchte:
Aussen-T/F 1326 02-04-2021 05:52:18 3.7 C 44 %
1327 02-04-2021 06:02:17 3.2 C 44 %
1328 02-04-2021 06:12:17 3.4 C 43 %
1329 02-04-2021 06:22:17 3.4 C 45 %
1330 02-04-2021 06:32:17 3.8 C 43 %
1331 02-04-2021 06:42:17 3.6 C 44 %
1332 02-04-2021 06:52:17 3.3 C 44 %
1333 02-04-2021 07:02:17 3.9 C 44 %
1334 02-04-2021 07:12:18 4.2 C 43 %
1335 02-04-2021 07:22:18 4.7 C 42 %
1336 02-04-2021 07:32:18 4.8 C 41 %
1337 02-04-2021 07:42:18 4.7 C 42 %
1338 02-04-2021 07:52:17 4.9 C 41 %
1339 02-04-2021 08:02:18 5 C 41 %
1340 02-04-2021 08:12:18 5.1 C 41 %
1341 02-04-2021 08:22:17 5.4 C 41 %
1342 02-04-2021 08:32:18 5.6 C 40 %
1343 02-04-2021 08:42:18 5.8 C 40 %
1344 02-04-2021 08:52:17 5.9 C 40 %
1345 02-04-2021 09:02:17 6 C 40 %
1346 02-04-2021 09:12:18 6.2 C 39 %
1347 02-04-2021 09:22:17 6.4 C 39 %
1348 02-04-2021 09:32:17 6.5 C 39 %
1349 02-04-2021 09:42:18 6.5 C 39 %
1350 02-04-2021 09:52:17 7 C 37 %
Sensor: Nr:Datum:Temp:Feuchte:
Aussen-T/F 1351 02-04-2021 10:02:18 7.3 C 37 %
1352 02-04-2021 10:12:18 7.5 C 37 %
1353 02-04-2021 10:22:17 7.6 C 36 %
1354 02-04-2021 10:32:18 7.8 C 36 %
1355 02-04-2021 10:42:18 7.4 C 35 %
1356 02-04-2021 10:52:17 7.9 C 35 %
1357 02-04-2021 11:02:17 8.2 C 34 %
1358 02-04-2021 11:12:17 8.4 C 34 %
1359 02-04-2021 11:22:18 8.9 C 33 %
1360 02-04-2021 11:32:17 9.3 C 32 %
1361 02-04-2021 11:42:18 9.2 C 32 %
1362 02-04-2021 11:52:18 9.1 C 32 %
1363 02-04-2021 12:02:18 10.3 C 31 %
1364 02-04-2021 12:12:18 10.6 C 31 %
1365 02-04-2021 12:22:17 10.4 C 30 %
1366 02-04-2021 12:32:18 9.3 C 31 %
1367 02-04-2021 12:42:18 9.6 C 31 %
1368 02-04-2021 12:52:17 10 C 30 %
1369 02-04-2021 13:02:17 10.6 C 30 %
1370 02-04-2021 13:12:18 10.7 C 30 %
1371 02-04-2021 13:22:17 11.6 C 30 %
1372 02-04-2021 13:32:17 10.8 C 30 %
1373 02-04-2021 13:42:18 11.2 C 30 %
1374 02-04-2021 13:52:17 11.2 C 30 %
1375 02-04-2021 14:02:18 11.2 C 30 %
Sensor: Nr:Datum:Temp:Feuchte:
Aussen-T/F 1376 02-04-2021 14:12:18 10.8 C 30 %
1377 02-04-2021 14:22:18 13 C 27 %
1378 02-04-2021 14:32:17 13.2 C 26 %
1379 02-04-2021 14:42:18 14 C 25 %
1380 02-04-2021 14:52:17 14.5 C 25 %
1381 02-04-2021 15:02:18 14.8 C 25 %
1382 02-04-2021 15:12:18 14.1 C 25 %
1383 02-04-2021 15:22:18 13.4 C 25 %
1384 02-04-2021 15:32:17 14 C 25 %
1385 02-04-2021 15:42:18 13.3 C 25 %
1386 02-04-2021 15:52:17 15.4 C 23 %
1387 02-04-2021 16:02:17 13.4 C 25 %
1388 02-04-2021 16:12:17 15 C 22 %
1389 02-04-2021 16:22:17 13.4 C 25 %
1390 02-04-2021 16:32:18 14.5 C 25 %
1391 02-04-2021 16:42:18 11.4 C 27 %
1392 02-04-2021 16:52:17 14.2 C 25 %
1393 02-04-2021 17:02:18 13.4 C 25 %
1394 02-04-2021 17:12:18 13.2 C 25 %
1395 02-04-2021 17:22:18 13.7 C 25 %
1396 02-04-2021 17:32:17 12.1 C 26 %
1397 02-04-2021 17:42:18 11.2 C 27 %
1398 02-04-2021 17:52:18 11 C 28 %
1399 02-04-2021 18:02:18 9.9 C 30 %
1400 02-04-2021 18:12:18 10 C 30 %
Sensor: Nr:Datum:Temp:Feuchte:
Aussen-T/F 1401 02-04-2021 18:22:18 9.4 C 30 %
1402 02-04-2021 18:32:17 9.1 C 30 %
1403 02-04-2021 18:42:18 8.6 C 30 %
1404 02-04-2021 18:52:18 8.2 C 30 %
1405 02-04-2021 19:02:17 8 C 31 %
1406 02-04-2021 19:12:17 7.8 C 31 %
1407 02-04-2021 19:22:17 7.7 C 31 %
1408 02-04-2021 19:32:17 7.7 C 31 %
1409 02-04-2021 19:42:17 7.5 C 31 %
1410 02-04-2021 19:52:17 7.5 C 31 %
1411 02-04-2021 20:02:17 7.3 C 31 %
1412 02-04-2021 20:12:18 6.8 C 32 %
1413 02-04-2021 20:22:17 6.6 C 32 %
1414 02-04-2021 20:32:18 6.6 C 33 %
1415 02-04-2021 20:42:18 6.6 C 33 %
1416 02-04-2021 20:52:18 6.7 C 33 %
1417 02-04-2021 21:02:17 6.8 C 33 %
1418 02-04-2021 21:12:18 7 C 32 %
1419 02-04-2021 21:22:17 7 C 32 %
1420 02-04-2021 21:32:18 7.2 C 32 %
1421 02-04-2021 21:42:18 7.1 C 32 %
1422 02-04-2021 21:52:17 7.1 C 32 %
1423 02-04-2021 22:02:18 7.1 C 31 %
1424 02-04-2021 22:12:18 7 C 31 %
1425 02-04-2021 22:22:18 7 C 31 %
Sensor: Nr:Datum:Temp:Feuchte:
Aussen-T/F 1426 02-04-2021 22:32:17 6.9 C 32 %
1427 02-04-2021 22:42:17 6.9 C 32 %
1428 02-04-2021 22:52:17 6.9 C 32 %
1429 02-04-2021 23:02:18 6.9 C 32 %
1430 02-04-2021 23:12:18 6.8 C 32 %
1431 02-04-2021 23:22:18 6.7 C 32 %
1432 02-04-2021 23:32:18 6.7 C 32 %
1433 02-04-2021 23:42:18 6.7 C 32 %
1434 02-04-2021 23:52:18 6.6 C 32 %
1435 03-04-2021 00:02:17 6.5 C 32 %
1436 03-04-2021 00:12:17 6.4 C 32 %
1437 03-04-2021 00:22:17 6.4 C 32 %
1438 03-04-2021 00:32:17 6.5 C 32 %
1439 03-04-2021 00:42:17 6.4 C 32 %
1440 03-04-2021 00:52:17 6.4 C 33 %
1441 03-04-2021 01:02:17 6.4 C 32 %
1442 03-04-2021 01:12:17 6.4 C 32 %
1443 03-04-2021 01:22:17 6.4 C 33 %
1444 03-04-2021 01:32:17 6.3 C 33 %
1445 03-04-2021 01:42:17 6.3 C 34 %
1446 03-04-2021 01:52:17 6.3 C 34 %
1447 03-04-2021 02:02:18 6.3 C 34 %
1448 03-04-2021 02:12:18 6.3 C 33 %
1449 03-04-2021 02:22:18 6.3 C 33 %
1450 03-04-2021 02:32:17 6.3 C 34 %
Sensor: Nr:Datum:Temp:Feuchte:
Aussen-T/F 1451 03-04-2021 02:42:17 6.3 C 35 %
1452 03-04-2021 02:52:17 6.2 C 34 %
1453 03-04-2021 03:02:17 6.2 C 35 %
1454 03-04-2021 03:12:17 6.2 C 35 %
1455 03-04-2021 03:22:17 6.1 C 35 %
1456 03-04-2021 03:32:17 6.1 C 35 %
1457 03-04-2021 03:42:17 6 C 35 %
1458 03-04-2021 03:52:17 6 C 35 %
1459 03-04-2021 04:02:17 6 C 36 %
1460 03-04-2021 04:12:17 6 C 36 %
1461 03-04-2021 04:22:17 5.9 C 37 %
1462 03-04-2021 04:32:17 6 C 37 %
1463 03-04-2021 04:42:18 5.9 C 37 %
1464 03-04-2021 04:52:17 5.9 C 36 %
1465 03-04-2021 05:02:17 5.9 C 36 %
1466 03-04-2021 05:12:18 5.9 C 36 %
1467 03-04-2021 05:22:17 5.8 C 36 %
1468 03-04-2021 05:32:17 5.8 C 36 %
1469 03-04-2021 05:42:17 5.7 C 35 %
1470 03-04-2021 05:52:17 5.6 C 35 %
1471 03-04-2021 06:02:17 5.6 C 35 %
1472 03-04-2021 06:12:17 5.5 C 35 %
1473 03-04-2021 06:22:17 5.4 C 36 %
1474 03-04-2021 06:32:17 5.5 C 36 %
1475 03-04-2021 06:42:17 5.5 C 36 %
Sensor: Nr:Datum:Temp:Feuchte:
Aussen-T/F 1476 03-04-2021 06:52:18 5.5 C 36 %
1477 03-04-2021 07:02:17 5.3 C 36 %
1478 03-04-2021 07:12:18 5.2 C 36 %
1479 03-04-2021 07:22:18 5.3 C 36 %
1480 03-04-2021 07:32:18 5.3 C 36 %
1481 03-04-2021 07:42:18 4 C 41 %
1482 03-04-2021 07:52:18 3.9 C 44 %
1483 03-04-2021 08:02:18 4 C 43 %
1484 03-04-2021 08:12:18 4.2 C 42 %
1485 03-04-2021 08:22:18 4.4 C 40 %
1486 03-04-2021 08:32:18 4.5 C 40 %
1487 03-04-2021 08:42:18 4.4 C 40 %
1488 03-04-2021 08:52:17 4.3 C 39 %
1489 03-04-2021 09:02:17 4.3 C 39 %
1490 03-04-2021 09:12:18 4.6 C 38 %
1491 03-04-2021 09:22:17 4.5 C 38 %
1492 03-04-2021 09:32:17 4.7 C 37 %
1493 03-04-2021 09:42:17 4.9 C 37 %
1494 03-04-2021 09:52:17 4.9 C 36 %
1495 03-04-2021 10:02:17 4.9 C 36 %
1496 03-04-2021 10:12:17 5 C 35 %
1497 03-04-2021 10:22:17 5.3 C 35 %
1498 03-04-2021 10:32:17 5.8 C 34 %
1499 03-04-2021 10:42:17 6.4 C 34 %
1500 03-04-2021 10:52:18 6.7 C 33 %
Sensor: Nr:Datum:Temp:Feuchte:
Aussen-T/F 1501 03-04-2021 11:02:17 7.1 C 32 %
1502 03-04-2021 11:12:17 8.7 C 31 %
1503 03-04-2021 11:22:18 8.4 C 31 %
1504 03-04-2021 11:32:18 8.8 C 31 %
1505 03-04-2021 11:42:18 9.1 C 30 %
1506 03-04-2021 11:52:18 9.8 C 30 %
1507 03-04-2021 12:02:17 11.2 C 28 %
1508 03-04-2021 12:12:18 10.4 C 28 %
1509 03-04-2021 12:22:18 10.5 C 29 %
1510 03-04-2021 12:32:18 11.2 C 28 %
1511 03-04-2021 12:42:18 10.8 C 28 %
1512 03-04-2021 12:52:18 10.7 C 28 %
1513 03-04-2021 13:02:18 11.3 C 27 %
1514 03-04-2021 13:12:18 11.2 C 27 %
1515 03-04-2021 13:22:17 10.5 C 28 %
1516 03-04-2021 13:32:18 10.7 C 28 %
1517 03-04-2021 13:42:18 12.3 C 26 %
1518 03-04-2021 13:52:17 11.5 C 27 %
1519 03-04-2021 14:02:17 11.4 C 26 %
1520 03-04-2021 14:12:18 13.1 C 24 %
1521 03-04-2021 14:22:17 14 C 20 %
1522 03-04-2021 14:32:17 11.8 C 25 %
1523 03-04-2021 14:42:18 15.2 C 20 %
1524 03-04-2021 14:52:17 13.9 C 20 %
1525 03-04-2021 15:02:17 13.2 C 20 %
Sensor: Nr:Datum:Temp:Feuchte:
Aussen-T/F 1526 03-04-2021 15:12:17 16.2 C 20 %
1527 03-04-2021 15:22:18 12.9 C 20 %
1528 03-04-2021 15:32:18 16.4 C 20 %
1529 03-04-2021 15:42:18 18.3 C 20 %
1530 03-04-2021 15:52:18 14.9 C 20 %
1531 03-04-2021 16:02:18 16.3 C 20 %
1532 03-04-2021 16:12:18 14.5 C 20 %
1533 03-04-2021 16:22:17 14.1 C 20 %
1534 03-04-2021 16:32:17 13.9 C 20 %
1535 03-04-2021 16:42:18 13.7 C 20 %
1536 03-04-2021 16:52:17 13.9 C 20 %
1537 03-04-2021 17:02:18 13.8 C 20 %
1538 03-04-2021 17:12:18 14.6 C 20 %
1539 03-04-2021 17:22:18 16.1 C 20 %
1540 03-04-2021 17:32:17 14.5 C 20 %
1541 03-04-2021 17:42:18 13.9 C 20 %
1542 03-04-2021 17:52:18 13.5 C 20 %
1543 03-04-2021 18:02:17 12.4 C 20 %
1544 03-04-2021 18:12:17 12.3 C 20 %
1545 03-04-2021 18:22:17 12.8 C 20 %
1546 03-04-2021 18:32:17 12.5 C 20 %
1547 03-04-2021 18:42:17 12.6 C 20 %
1548 03-04-2021 18:52:18 12.1 C 20 %
1549 03-04-2021 19:02:17 11.5 C 21 %
1550 03-04-2021 19:12:17 11.4 C 21 %
Sensor: Nr:Datum:Temp:Feuchte:
Aussen-T/F 1551 03-04-2021 19:22:17 11.2 C 22 %
1552 03-04-2021 19:32:17 10.9 C 22 %
1553 03-04-2021 19:42:17 10.7 C 21 %
1554 03-04-2021 19:52:18 10.2 C 22 %
1555 03-04-2021 20:02:17 9.5 C 25 %
1556 03-04-2021 20:12:17 9.2 C 25 %
1557 03-04-2021 20:22:17 7.8 C 27 %
1558 03-04-2021 20:32:17 7 C 30 %
1559 03-04-2021 20:42:17 6.7 C 31 %
1560 03-04-2021 20:52:18 6.8 C 30 %
1561 03-04-2021 21:02:17 6.8 C 30 %
1562 03-04-2021 21:12:17 6.7 C 31 %
1563 03-04-2021 21:22:17 6.7 C 30 %
1564 03-04-2021 21:32:18 6.5 C 31 %
1565 03-04-2021 21:42:18 6.3 C 31 %
1566 03-04-2021 21:52:17 6 C 31 %
1567 03-04-2021 22:02:17 6 C 31 %
1568 03-04-2021 22:12:17 5.7 C 32 %
1569 03-04-2021 22:22:17 5.7 C 32 %
1570 03-04-2021 22:32:17 5.7 C 32 %
1571 03-04-2021 22:42:17 5.4 C 32 %
1572 03-04-2021 22:52:18 5.2 C 32 %
1573 03-04-2021 23:02:17 4.6 C 35 %
1574 03-04-2021 23:12:17 4.4 C 34 %
1575 03-04-2021 23:22:17 3.3 C 37 %
Sensor: Nr:Datum:Temp:Feuchte:
Aussen-T/F 1576 03-04-2021 23:32:17 2.8 C 39 %
1577 03-04-2021 23:42:17 2.6 C 39 %
1578 03-04-2021 23:52:17 2.4 C 40 %
1579 04-04-2021 00:02:17 2.6 C 39 %
1580 04-04-2021 00:12:17 2.4 C 39 %
1581 04-04-2021 00:22:17 2.3 C 40 %
1582 04-04-2021 00:32:17 2.2 C 40 %
1583 04-04-2021 00:42:17 2.1 C 40 %
1584 04-04-2021 00:52:18 2 C 41 %
1585 04-04-2021 01:02:17 1.8 C 42 %
1586 04-04-2021 01:12:17 1.8 C 42 %
1587 04-04-2021 01:22:17 1.5 C 42 %
1588 04-04-2021 01:32:17 1.3 C 43 %
1589 04-04-2021 01:42:17 1.4 C 43 %
1590 04-04-2021 01:52:18 1.4 C 44 %
1591 04-04-2021 02:02:17 1.9 C 44 %
1592 04-04-2021 02:12:17 1.7 C 44 %
1593 04-04-2021 02:22:17 1.6 C 45 %
1594 04-04-2021 02:32:17 2.7 C 45 %
1595 04-04-2021 02:42:17 3.8 C 41 %
1596 04-04-2021 02:52:17 4.1 C 40 %
1597 04-04-2021 03:02:17 3.9 C 41 %
1598 04-04-2021 03:12:17 3.2 C 41 %
1599 04-04-2021 03:22:17 3.6 C 42 %
1600 04-04-2021 03:32:17 3.2 C 42 %
Sensor: Nr:Datum:Temp:Feuchte:
Aussen-T/F 1601 04-04-2021 03:42:17 3.2 C 42 %
1602 04-04-2021 03:52:17 3.3 C 42 %
1603 04-04-2021 04:02:18 2.8 C 43 %
1604 04-04-2021 04:12:18 2.6 C 43 %
1605 04-04-2021 04:22:17 2.4 C 44 %
1606 04-04-2021 04:32:17 2.5 C 44 %
1607 04-04-2021 04:42:17 2.6 C 44 %
1608 04-04-2021 04:52:17 3 C 43 %
1609 04-04-2021 05:02:17 2.8 C 44 %
1610 04-04-2021 05:12:17 2.4 C 45 %
1611 04-04-2021 05:22:17 2.2 C 44 %
1612 04-04-2021 05:32:17 2.1 C 45 %
1613 04-04-2021 05:42:17 1.5 C 46 %
1614 04-04-2021 05:52:17 1.6 C 48 %
1615 04-04-2021 06:02:18 1.2 C 46 %
1616 04-04-2021 06:12:18 1.3 C 48 %
1617 04-04-2021 06:22:17 0.6 C 48 %
1618 04-04-2021 06:32:18 0.3 C 49 %
1619 04-04-2021 06:42:18 0.3 C 49 %
1620 04-04-2021 06:52:17 0 C 50 %
1621 04-04-2021 07:02:17 -0.1 C 50 %
1622 04-04-2021 07:12:17 0.1 C 51 %
1623 04-04-2021 07:22:17 0.2 C 50 %
1624 04-04-2021 07:32:17 0.1 C 50 %
1625 04-04-2021 07:42:17 0 C 50 %
Sensor: Nr:Datum:Temp:Feuchte:
Aussen-T/F 1626 04-04-2021 07:52:18 0.1 C 50 %
1627 04-04-2021 08:02:17 0.3 C 50 %
1628 04-04-2021 08:12:17 0.5 C 50 %
1629 04-04-2021 08:22:17 0.9 C 50 %
1630 04-04-2021 08:32:17 1.4 C 48 %
1631 04-04-2021 08:42:17 1.5 C 47 %
1632 04-04-2021 08:52:17 1.7 C 47 %
1633 04-04-2021 09:02:17 2.8 C 47 %
1634 04-04-2021 09:12:17 3.4 C 43 %
1635 04-04-2021 09:22:17 3.9 C 42 %
1636 04-04-2021 09:32:17 4.3 C 41 %
1637 04-04-2021 09:42:17 5 C 40 %
1638 04-04-2021 09:52:17 5.6 C 38 %
1639 04-04-2021 10:02:17 5.7 C 38 %
1640 04-04-2021 10:12:18 5.9 C 37 %
1641 04-04-2021 10:22:17 6.7 C 36 %
1642 04-04-2021 10:32:17 6.6 C 36 %
1643 04-04-2021 10:42:17 7 C 35 %
1644 04-04-2021 10:52:18 7.1 C 35 %
1645 04-04-2021 11:02:17 7 C 34 %
1646 04-04-2021 11:12:17 7.6 C 34 %
1647 04-04-2021 11:22:17 7.5 C 33 %
1648 04-04-2021 11:32:17 7.5 C 33 %
1649 04-04-2021 11:42:17 7 C 33 %
1650 04-04-2021 11:52:17 7.5 C 33 %
Sensor: Nr:Datum:Temp:Feuchte:
Aussen-T/F 1651 04-04-2021 12:02:17 7.3 C 33 %
1652 04-04-2021 12:12:17 7.7 C 32 %
1653 04-04-2021 12:22:17 7.4 C 32 %
1654 04-04-2021 12:32:18 8.1 C 32 %
1655 04-04-2021 12:42:18 7.8 C 33 %
1656 04-04-2021 12:52:17 8.1 C 32 %
1657 04-04-2021 13:02:17 8.2 C 32 %
1658 04-04-2021 13:12:17 8 C 31 %
1659 04-04-2021 13:22:17 8.3 C 31 %
1660 04-04-2021 13:32:17 8.3 C 31 %
1661 04-04-2021 13:42:17 8.7 C 31 %
1662 04-04-2021 13:52:17 8.5 C 31 %
1663 04-04-2021 14:02:18 9.4 C 30 %
1664 04-04-2021 14:12:18 10.6 C 30 %
1665 04-04-2021 14:22:17 10.2 C 29 %
1666 04-04-2021 14:32:17 12.2 C 26 %
1667 04-04-2021 14:42:17 12.1 C 26 %
1668 04-04-2021 14:52:17 11.2 C 27 %
1669 04-04-2021 15:02:17 11.3 C 27 %
1670 04-04-2021 15:12:17 11.7 C 26 %
1671 04-04-2021 15:22:17 13.6 C 25 %
1672 04-04-2021 15:32:17 15.1 C 22 %
1673 04-04-2021 15:42:17 15.4 C 21 %
1674 04-04-2021 15:52:17 14.7 C 23 %
1675 04-04-2021 16:02:17 12.6 C 25 %
Sensor: Nr:Datum:Temp:Feuchte:
Aussen-T/F 1676 04-04-2021 16:12:17 12 C 25 %
1677 04-04-2021 16:22:17 15 C 22 %
1678 04-04-2021 16:32:17 14.2 C 22 %
1679 04-04-2021 16:42:17 15.4 C 21 %
1680 04-04-2021 16:52:17 15.1 C 21 %
1681 04-04-2021 17:02:17 12.4 C 25 %
1682 04-04-2021 17:12:17 11.6 C 26 %
1683 04-04-2021 17:22:17 12.9 C 25 %
1684 04-04-2021 17:32:17 12.2 C 25 %
1685 04-04-2021 17:42:18 12.7 C 26 %
1686 04-04-2021 17:52:17 11.5 C 26 %
1687 04-04-2021 18:02:17 9.6 C 30 %
1688 04-04-2021 18:12:17 9.9 C 30 %
1689 04-04-2021 18:22:17 9.3 C 30 %
1690 04-04-2021 18:32:17 8.7 C 30 %
1691 04-04-2021 18:42:17 8.9 C 31 %
1692 04-04-2021 18:52:18 8.9 C 31 %
1693 04-04-2021 19:02:17 8.5 C 31 %
1694 04-04-2021 19:12:18 7.9 C 31 %
1695 04-04-2021 19:22:17 7.6 C 32 %
1696 04-04-2021 19:32:17 7.4 C 32 %
1697 04-04-2021 19:42:17 7 C 32 %
1698 04-04-2021 19:52:17 6.6 C 34 %
1699 04-04-2021 20:02:17 6.4 C 35 %
1700 04-04-2021 20:12:17 5.8 C 35 %
Sensor: Nr:Datum:Temp:Feuchte:
Aussen-T/F 1701 04-04-2021 20:22:17 4.6 C 37 %
1702 04-04-2021 20:32:17 4.4 C 38 %
1703 04-04-2021 20:42:17 4.5 C 38 %
1704 04-04-2021 20:52:17 4.5 C 38 %
1705 04-04-2021 21:02:17 4.5 C 38 %
1706 04-04-2021 21:12:17 4.5 C 38 %
1707 04-04-2021 21:22:17 4.2 C 38 %
1708 04-04-2021 21:32:18 3.5 C 40 %
1709 04-04-2021 21:42:18 3.4 C 40 %
1710 04-04-2021 21:52:17 3.4 C 40 %
1711 04-04-2021 22:02:17 2.7 C 41 %
1712 04-04-2021 22:12:17 2 C 43 %
1713 04-04-2021 22:22:17 2.3 C 44 %
1714 04-04-2021 22:32:17 1.6 C 45 %
1715 04-04-2021 22:42:17 1.4 C 46 %
1716 04-04-2021 22:52:17 1.3 C 46 %
1717 04-04-2021 23:02:18 1.1 C 46 %
1718 04-04-2021 23:12:18 1 C 46 %
1719 04-04-2021 23:22:18 1.1 C 46 %
1720 04-04-2021 23:32:17 0.6 C 47 %
1721 04-04-2021 23:42:17 0.5 C 48 %
1722 04-04-2021 23:52:17 0.5 C 48 %
1723 05-04-2021 00:02:17 0.7 C 48 %
1724 05-04-2021 00:12:17 0.5 C 48 %
1725 05-04-2021 00:22:17 0.2 C 48 %
Sensor: Nr:Datum:Temp:Feuchte:
Aussen-T/F 1726 05-04-2021 00:32:17 0.2 C 49 %
1727 05-04-2021 00:42:17 0.3 C 50 %
1728 05-04-2021 00:52:17 0.1 C 48 %
1729 05-04-2021 01:02:17 0.1 C 49 %
1730 05-04-2021 01:12:17 0 C 49 %
1731 05-04-2021 01:22:17 0.1 C 49 %
1732 05-04-2021 01:32:17 0.1 C 50 %
1733 05-04-2021 01:42:17 0.1 C 50 %
1734 05-04-2021 01:52:17 -0.2 C 49 %
1735 05-04-2021 02:02:17 -0.3 C 49 %
1736 05-04-2021 02:12:17 -0.5 C 49 %
1737 05-04-2021 02:22:17 -0.6 C 50 %
1738 05-04-2021 02:32:17 -0.7 C 49 %
1739 05-04-2021 02:42:17 -0.8 C 50 %
1740 05-04-2021 02:52:18 -0.4 C 51 %
1741 05-04-2021 03:02:17 -0.2 C 51 %
1742 05-04-2021 03:12:17 -0.1 C 50 %
1743 05-04-2021 03:22:17 0 C 50 %
1744 05-04-2021 03:32:17 -0.1 C 50 %
1745 05-04-2021 03:42:17 0.2 C 50 %
1746 05-04-2021 03:52:17 0.1 C 50 %
1747 05-04-2021 04:02:17 0.2 C 50 %
1748 05-04-2021 04:12:17 0.3 C 49 %
1749 05-04-2021 04:22:17 0.5 C 50 %
1750 05-04-2021 04:32:18 0.6 C 50 %
Sensor: Nr:Datum:Temp:Feuchte:
Aussen-T/F 1751 05-04-2021 04:42:18 1.1 C 49 %
1752 05-04-2021 04:52:17 1.6 C 49 %
1753 05-04-2021 05:02:17 2.8 C 45 %
1754 05-04-2021 05:12:17 3.8 C 42 %
1755 05-04-2021 05:22:17 3.8 C 41 %
1756 05-04-2021 05:32:17 4.2 C 40 %
1757 05-04-2021 05:42:17 4 C 40 %
1758 05-04-2021 05:52:18 4 C 41 %
1759 05-04-2021 06:02:17 4.4 C 40 %
1760 05-04-2021 06:12:17 4.6 C 40 %
1761 05-04-2021 06:22:17 4.6 C 40 %
1762 05-04-2021 06:32:17 4.6 C 40 %
1763 05-04-2021 06:42:17 4.7 C 40 %
1764 05-04-2021 06:52:18 4.7 C 40 %
1765 05-04-2021 07:02:17 5 C 39 %
1766 05-04-2021 07:12:17 5 C 39 %
1767 05-04-2021 07:22:17 5 C 39 %
1768 05-04-2021 07:32:18 4.9 C 40 %
1769 05-04-2021 07:42:18 4.8 C 40 %
1770 05-04-2021 07:52:17 4.8 C 40 %
1771 05-04-2021 08:02:17 4.9 C 40 %
1772 05-04-2021 08:12:17 5.1 C 39 %
1773 05-04-2021 08:22:17 5.1 C 39 %
1774 05-04-2021 08:32:17 5.3 C 39 %
1775 05-04-2021 08:42:18 5.5 C 39 %
Sensor: Nr:Datum:Temp:Feuchte:
Aussen-T/F 1776 05-04-2021 08:52:17 5.7 C 39 %
1777 05-04-2021 09:02:17 5.8 C 39 %
1778 05-04-2021 09:12:17 6 C 38 %
1779 05-04-2021 09:22:17 6 C 38 %
1780 05-04-2021 09:32:17 6 C 38 %
1781 05-04-2021 09:42:17 6 C 38 %
1782 05-04-2021 09:52:18 6.2 C 38 %
1783 05-04-2021 10:02:17 6.3 C 38 %
1784 05-04-2021 10:12:17 6.5 C 38 %
1785 05-04-2021 10:22:17 6.4 C 38 %
1786 05-04-2021 10:32:17 6.3 C 38 %
1787 05-04-2021 10:42:17 6.3 C 39 %
1788 05-04-2021 10:52:18 6.2 C 39 %
1789 05-04-2021 11:02:17 6 C 40 %
1790 05-04-2021 11:12:17 6 C 40 %
1791 05-04-2021 11:22:17 6.3 C 40 %
1792 05-04-2021 11:32:17 6 C 41 %
1793 05-04-2021 11:42:17 5.6 C 43 %
1794 05-04-2021 11:52:17 5.5 C 43 %
1795 05-04-2021 12:02:17 5.6 C 43 %
1796 05-04-2021 12:12:17 5.5 C 43 %
1797 05-04-2021 12:22:17 5.2 C 44 %
1798 05-04-2021 12:32:17 4.2 C 44 %
1799 05-04-2021 12:42:17 3.8 C 45 %
1800 05-04-2021 12:52:17 3.8 C 45 %
Sensor: Nr:Datum:Temp:Feuchte:
Aussen-T/F 1801 05-04-2021 13:02:17 3.9 C 45 %
1802 05-04-2021 13:12:17 4.1 C 43 %
1803 05-04-2021 13:22:17 4.1 C 43 %
1804 05-04-2021 13:32:17 3.6 C 44 %
1805 05-04-2021 13:42:17 3.2 C 45 %
1806 05-04-2021 13:52:17 2.9 C 45 %
1807 05-04-2021 14:02:17 2.6 C 45 %
1808 05-04-2021 14:12:17 2.5 C 45 %
1809 05-04-2021 14:22:17 2.8 C 45 %
1810 05-04-2021 14:32:17 3.5 C 44 %
1811 05-04-2021 14:42:18 3.8 C 42 %
1812 05-04-2021 14:52:17 4.2 C 40 %
1813 05-04-2021 15:02:17 1.2 C 44 %
1814 05-04-2021 15:12:17 1.3 C 43 %
1815 05-04-2021 15:22:17 2 C 42 %
1816 05-04-2021 15:32:17 2.6 C 41 %
1817 05-04-2021 15:42:17 3.8 C 40 %
1818 05-04-2021 15:52:18 3.3 C 40 %
1819 05-04-2021 16:02:17 3.4 C 40 %
1820 05-04-2021 16:12:17 4.7 C 37 %
1821 05-04-2021 16:22:17 4.5 C 37 %
1822 05-04-2021 16:32:17 4.9 C 36 %
1823 05-04-2021 16:42:17 3.7 C 37 %
1824 05-04-2021 16:52:17 4.9 C 35 %
1825 05-04-2021 17:02:17 7.5 C 30 %
Sensor: Nr:Datum:Temp:Feuchte:
Aussen-T/F 1826 05-04-2021 17:12:17 4.3 C 36 %
1827 05-04-2021 17:22:17 3.4 C 36 %
1828 05-04-2021 17:32:17 5.2 C 33 %
1829 05-04-2021 17:42:17 7.6 C 31 %
1830 05-04-2021 17:52:17 5.2 C 33 %
1831 05-04-2021 18:02:17 4.6 C 35 %
1832 05-04-2021 18:12:17 5 C 33 %
1833 05-04-2021 18:22:17 4.7 C 32 %
1834 05-04-2021 18:32:17 4.8 C 31 %
1835 05-04-2021 18:42:17 4.9 C 30 %
1836 05-04-2021 18:52:17 4.7 C 30 %
1837 05-04-2021 19:02:17 4.3 C 30 %
1838 05-04-2021 19:12:17 4.3 C 30 %
1839 05-04-2021 19:22:17 4 C 30 %
1840 05-04-2021 19:32:17 3.8 C 31 %
1841 05-04-2021 19:42:17 3.1 C 32 %
1842 05-04-2021 19:52:18 2.7 C 33 %
1843 05-04-2021 20:02:17 2.2 C 33 %
1844 05-04-2021 20:12:17 1.8 C 34 %
1845 05-04-2021 20:22:17 1.7 C 34 %
1846 05-04-2021 20:32:17 1.1 C 36 %
1847 05-04-2021 20:42:17 1.1 C 36 %
1848 05-04-2021 20:52:17 1.1 C 36 %
1849 05-04-2021 21:02:17 1.2 C 36 %
1850 05-04-2021 21:12:17 1.5 C 36 %
Sensor: Nr:Datum:Temp:Feuchte:
Aussen-T/F 1851 05-04-2021 21:22:17 1.5 C 36 %
1852 05-04-2021 21:32:17 1.5 C 36 %
1853 05-04-2021 21:42:17 1.5 C 37 %
1854 05-04-2021 21:52:17 1.3 C 38 %
1855 05-04-2021 22:02:18 1 C 38 %
1856 05-04-2021 22:12:18 0.7 C 40 %
1857 05-04-2021 22:22:17 0.8 C 40 %
1858 05-04-2021 22:32:17 1 C 38 %
1859 05-04-2021 22:42:17 1 C 38 %
1860 05-04-2021 22:52:17 0.9 C 39 %
1861 05-04-2021 23:02:17 1.1 C 38 %
1862 05-04-2021 23:12:17 1.1 C 37 %
1863 05-04-2021 23:22:17 1.2 C 37 %
1864 05-04-2021 23:32:17 0.6 C 39 %
1865 05-04-2021 23:42:17 0.5 C 39 %
1866 05-04-2021 23:52:18 0.5 C 39 %
1867 06-04-2021 00:02:17 0.4 C 40 %
1868 06-04-2021 00:12:17 0.5 C 39 %
1869 06-04-2021 00:22:17 0.5 C 39 %
1870 06-04-2021 00:32:17 0.6 C 39 %
1871 06-04-2021 00:42:17 0.3 C 40 %
1872 06-04-2021 00:52:17 0.4 C 39 %
1873 06-04-2021 01:02:18 0.2 C 39 %
1874 06-04-2021 01:12:18 0.2 C 40 %
1875 06-04-2021 01:22:17 0.3 C 39 %
Sensor: Nr:Datum:Temp:Feuchte:
Aussen-T/F 1876 06-04-2021 01:32:18 0.3 C 39 %
1877 06-04-2021 01:42:18 0.5 C 39 %
1878 06-04-2021 01:52:17 0.7 C 40 %
1879 06-04-2021 02:02:17 0.4 C 40 %
1880 06-04-2021 02:12:17 0.5 C 41 %
1881 06-04-2021 02:22:17 0.6 C 41 %
1882 06-04-2021 02:32:17 0.7 C 41 %
1883 06-04-2021 02:42:17 0.8 C 41 %
1884 06-04-2021 02:52:17 0.8 C 42 %
1885 06-04-2021 03:02:17 0.5 C 43 %
1886 06-04-2021 03:12:17 0.5 C 43 %
1887 06-04-2021 03:22:17 0.9 C 42 %
1888 06-04-2021 03:32:17 0.9 C 42 %
1889 06-04-2021 03:42:17 1 C 41 %
1890 06-04-2021 03:52:17 1.1 C 41 %
1891 06-04-2021 04:02:17 1.3 C 41 %
1892 06-04-2021 04:12:17 1.3 C 41 %
1893 06-04-2021 04:22:17 1.4 C 41 %
1894 06-04-2021 04:32:17 1.8 C 40 %
1895 06-04-2021 04:42:18 1.9 C 40 %
1896 06-04-2021 04:52:17 1.8 C 40 %
1897 06-04-2021 05:02:18 1.8 C 40 %
1898 06-04-2021 05:12:18 2.1 C 39 %
1899 06-04-2021 05:22:18 2.2 C 39 %
1900 06-04-2021 05:32:17 2.2 C 39 %
Sensor: Nr:Datum:Temp:Feuchte:
Aussen-T/F 1901 06-04-2021 05:42:17 2 C 39 %
1902 06-04-2021 05:52:17 2.1 C 39 %
1903 06-04-2021 06:02:17 2 C 40 %
1904 06-04-2021 06:12:17 1.4 C 42 %
1905 06-04-2021 06:22:17 0.8 C 46 %
1906 06-04-2021 06:32:17 1 C 45 %
1907 06-04-2021 06:42:17 0.8 C 45 %
1908 06-04-2021 06:52:17 1.3 C 43 %
1909 06-04-2021 07:02:17 1.1 C 44 %
1910 06-04-2021 07:12:17 0.9 C 46 %
1911 06-04-2021 07:22:17 0.8 C 46 %
1912 06-04-2021 07:32:17 0.9 C 46 %
1913 06-04-2021 07:42:17 1.1 C 45 %
1914 06-04-2021 07:52:18 1.1 C 45 %
1915 06-04-2021 08:02:17 1.3 C 43 %
1916 06-04-2021 08:12:17 1.4 C 43 %
1917 06-04-2021 08:22:17 1.9 C 41 %
1918 06-04-2021 08:32:17 2.1 C 40 %
1919 06-04-2021 08:42:17 2.3 C 40 %
1920 06-04-2021 08:52:17 2.7 C 39 %
1921 06-04-2021 09:02:17 2.9 C 38 %
1922 06-04-2021 09:12:17 2.7 C 39 %
1923 06-04-2021 09:22:18 2.9 C 39 %
1924 06-04-2021 09:32:17 2.8 C 38 %
1925 06-04-2021 09:42:17 3 C 37 %
Sensor: Nr:Datum:Temp:Feuchte:
Aussen-T/F 1926 06-04-2021 09:52:17 3 C 37 %
1927 06-04-2021 10:02:17 3.2 C 37 %
1928 06-04-2021 10:12:17 3.8 C 37 %
1929 06-04-2021 10:22:17 3.6 C 36 %
1930 06-04-2021 10:32:17 4.2 C 35 %
1931 06-04-2021 10:42:17 3.7 C 36 %
1932 06-04-2021 10:52:17 4 C 35 %
1933 06-04-2021 11:02:17 4.4 C 35 %
1934 06-04-2021 11:12:17 4.5 C 33 %
1935 06-04-2021 11:22:17 4.5 C 33 %
1936 06-04-2021 11:32:17 4.5 C 34 %
1937 06-04-2021 11:42:17 5 C 33 %
1938 06-04-2021 11:52:17 5.4 C 32 %
1939 06-04-2021 12:02:18 4.5 C 34 %
1940 06-04-2021 12:12:18 3.2 C 38 %
1941 06-04-2021 12:22:17 2.4 C 40 %
1942 06-04-2021 12:32:17 2.4 C 41 %
1943 06-04-2021 12:42:17 2.6 C 40 %
1944 06-04-2021 12:52:17 4.9 C 36 %
1945 06-04-2021 13:03:17 4.5 C 35 %
1946 06-04-2021 13:12:17 5.5 C 33 %
1947 06-04-2021 13:23:17 6.4 C 31 %
1948 06-04-2021 13:32:18 7.3 C 29 %
1949 06-04-2021 13:42:18 8.2 C 28 %
1950 06-04-2021 13:52:17 7.2 C 28 %
Sensor: Nr:Datum:Temp:Feuchte:
Aussen-T/F 1951 06-04-2021 14:02:17 6.7 C 28 %
1952 06-04-2021 14:12:17 6.7 C 28 %
1953 06-04-2021 14:23:17 6.7 C 28 %
1954 06-04-2021 14:32:18 6.7 C 28 %
1955 06-04-2021 14:42:18 10.6 C 22 %
1956 06-04-2021 14:52:17 11 C 22 %
1957 06-04-2021 15:02:17 10.3 C 20 %
1958 06-04-2021 15:12:17 6.4 C 23 %
1959 06-04-2021 15:22:17 7.5 C 23 %
1960 06-04-2021 15:32:17 7 C 23 %
1961 06-04-2021 15:42:17 5.6 C 31 %
1962 06-04-2021 15:53:17 5.9 C 30 %
1963 06-04-2021 16:03:17 6.7 C 28 %
1964 06-04-2021 16:13:17 6 C 30 %
1965 06-04-2021 16:23:17 6.8 C 26 %
1966 06-04-2021 16:32:17 7.2 C 25 %
1967 06-04-2021 16:42:18 8.1 C 28 %
1968 06-04-2021 16:53:17 9.5 C 26 %
1969 06-04-2021 17:03:17 6.7 C 29 %
1970 06-04-2021 17:13:17 5.5 C 31 %
1971 06-04-2021 17:23:17 6.7 C 28 %
1972 06-04-2021 17:33:17 5.8 C 29 %
1973 06-04-2021 17:43:17 8.5 C 25 %
1974 06-04-2021 17:52:17 6.7 C 26 %
1975 06-04-2021 18:03:17 5.6 C 28 %
Sensor: Nr:Datum:Temp:Feuchte:
Aussen-T/F 1976 06-04-2021 18:13:17 5.1 C 28 %
1977 06-04-2021 18:23:17 5.2 C 28 %
1978 06-04-2021 18:33:17 5 C 27 %
1979 06-04-2021 18:43:17 4 C 32 %
1980 06-04-2021 18:52:17 3.3 C 35 %
1981 06-04-2021 19:03:17 2.1 C 40 %
1982 06-04-2021 19:13:17 0.6 C 49 %
1983 06-04-2021 19:23:17 0.6 C 49 %
1984 06-04-2021 19:32:18 1 C 46 %
1985 06-04-2021 19:42:18 1 C 46 %
1986 06-04-2021 19:53:17 1.1 C 45 %
1987 06-04-2021 20:03:17 1.1 C 46 %
1988 06-04-2021 20:13:17 0.9 C 47 %
1989 06-04-2021 20:23:17 0.6 C 47 %
1990 06-04-2021 20:32:18 0.6 C 46 %
1991 06-04-2021 20:42:18 0.8 C 45 %
1992 06-04-2021 20:53:17 1 C 42 %
1993 06-04-2021 21:03:17 1 C 42 %
1994 06-04-2021 21:13:17 0.9 C 43 %
1995 06-04-2021 21:23:17 1.1 C 42 %
1996 06-04-2021 21:32:18 1 C 42 %
1997 06-04-2021 21:42:18 1 C 42 %
1998 06-04-2021 21:53:17 1 C 42 %
1999 06-04-2021 22:03:17 1.1 C 42 %
2000 06-04-2021 22:13:17 1.1 C 42 %
Sensor: Nr:Datum:Temp:Feuchte:
Aussen-T/F 2001 06-04-2021 22:23:17 1.2 C 41 %
2002 06-04-2021 22:33:17 1.2 C 40 %
2003 06-04-2021 22:43:17 1.2 C 40 %
2004 06-04-2021 22:53:17 1.2 C 40 %
2005 06-04-2021 23:03:17 1.2 C 41 %
2006 06-04-2021 23:13:17 1 C 41 %
2007 06-04-2021 23:23:17 0.7 C 43 %
2008 06-04-2021 23:32:18 0.9 C 42 %
2009 06-04-2021 23:42:18 0.7 C 42 %
2010 06-04-2021 23:53:18 0.7 C 42 %
2011 07-04-2021 00:03:17 0.9 C 42 %
2012 07-04-2021 00:13:17 1 C 41 %
2013 07-04-2021 00:23:17 1 C 41 %
2014 07-04-2021 00:33:17 1 C 41 %
2015 07-04-2021 00:43:17 1 C 41 %
2016 07-04-2021 00:53:17 1 C 41 %
2017 07-04-2021 01:03:17 1 C 41 %
2018 07-04-2021 01:13:18 0.9 C 41 %
2019 07-04-2021 01:23:17 0.8 C 41 %
2020 07-04-2021 01:33:17 0.5 C 42 %
2021 07-04-2021 01:43:17 0.8 C 42 %
2022 07-04-2021 01:53:18 0.9 C 42 %
2023 07-04-2021 02:03:17 0.9 C 42 %
2024 07-04-2021 02:13:17 0.9 C 42 %
2025 07-04-2021 02:23:17 0.8 C 42 %
Sensor: Nr:Datum:Temp:Feuchte:
Aussen-T/F 2026 07-04-2021 02:33:17 0.8 C 42 %
2027 07-04-2021 02:43:17 0.6 C 42 %
2028 07-04-2021 02:53:18 0.6 C 42 %
2029 07-04-2021 03:03:17 0.4 C 42 %
2030 07-04-2021 03:13:17 0.1 C 42 %
2031 07-04-2021 03:23:17 0 C 42 %
2032 07-04-2021 03:33:17 0 C 42 %
2033 07-04-2021 03:43:17 -0.2 C 42 %
2034 07-04-2021 03:53:17 -0.2 C 42 %
2035 07-04-2021 04:03:17 -0.4 C 42 %
2036 07-04-2021 04:13:17 -0.4 C 42 %
2037 07-04-2021 04:23:17 -0.9 C 43 %
2038 07-04-2021 04:33:17 -0.9 C 44 %
2039 07-04-2021 04:43:17 -0.7 C 43 %
2040 07-04-2021 04:53:17 -0.5 C 43 %
2041 07-04-2021 05:03:18 0 C 42 %
2042 07-04-2021 05:13:18 0 C 42 %
2043 07-04-2021 05:23:17 0.1 C 42 %
2044 07-04-2021 05:33:17 -0.1 C 42 %
2045 07-04-2021 05:43:17 -0.5 C 42 %
2046 07-04-2021 05:53:18 -0.8 C 43 %
2047 07-04-2021 06:03:17 -0.6 C 42 %
2048 07-04-2021 06:13:17 -0.7 C 43 %
2049 07-04-2021 06:23:17 -0.4 C 42 %
2050 07-04-2021 06:33:17 -0.2 C 42 %
Sensor: Nr:Datum:Temp:Feuchte:
Aussen-T/F 2051 07-04-2021 06:43:17 -0.1 C 42 %
2052 07-04-2021 06:53:17 0 C 42 %
2053 07-04-2021 07:03:17 -0.2 C 43 %
2054 07-04-2021 07:13:18 -0.1 C 43 %
2055 07-04-2021 07:23:17 -0.2 C 44 %
2056 07-04-2021 07:33:17 -0.1 C 44 %
2057 07-04-2021 07:43:17 0 C 44 %
2058 07-04-2021 07:53:17 0.3 C 44 %
2059 07-04-2021 08:03:17 0.4 C 43 %
2060 07-04-2021 08:13:17 0.2 C 44 %
2061 07-04-2021 08:23:17 0.7 C 43 %
2062 07-04-2021 08:33:17 1 C 42 %
2063 07-04-2021 08:43:17 1.4 C 41 %
2064 07-04-2021 08:53:17 1.5 C 41 %
2065 07-04-2021 09:03:17 1.5 C 41 %
2066 07-04-2021 09:13:17 1.5 C 41 %
2067 07-04-2021 09:23:17 1.6 C 42 %
2068 07-04-2021 09:33:17 2.1 C 40 %
2069 07-04-2021 09:43:17 2.1 C 40 %
2070 07-04-2021 09:53:17 2.4 C 40 %
2071 07-04-2021 10:03:17 2.6 C 39 %
2072 07-04-2021 10:13:17 2.6 C 39 %
2073 07-04-2021 10:23:17 3 C 37 %
2074 07-04-2021 10:33:17 3.2 C 37 %
2075 07-04-2021 10:43:17 3.1 C 37 %
Sensor: Nr:Datum:Temp:Feuchte:
Aussen-T/F 2076 07-04-2021 10:53:17 2.3 C 39 %
2077 07-04-2021 11:03:16 2.2 C 39 %
2078 07-04-2021 11:13:16 1.5 C 42 %
2079 07-04-2021 11:23:17 1.6 C 41 %
2080 07-04-2021 11:33:17 1.7 C 41 %
2081 07-04-2021 11:43:17 2.3 C 40 %
2082 07-04-2021 11:53:16 2.8 C 39 %
2083 07-04-2021 12:03:17 3 C 38 %
2084 07-04-2021 12:13:17 3.1 C 37 %
2085 07-04-2021 12:23:17 2.6 C 39 %
2086 07-04-2021 12:33:16 3.1 C 38 %
2087 07-04-2021 12:43:16 3.1 C 38 %
2088 07-04-2021 12:53:16 2.7 C 41 %
2089 07-04-2021 13:03:17 2.4 C 40 %
2090 07-04-2021 13:13:17 2.1 C 41 %
2091 07-04-2021 13:23:17 1.2 C 45 %
2092 07-04-2021 13:33:17 0.8 C 48 %
2093 07-04-2021 13:43:17 0.9 C 49 %
2094 07-04-2021 13:53:16 0.8 C 50 %
2095 07-04-2021 14:03:17 0.9 C 50 %
2096 07-04-2021 14:13:17 1 C 48 %
2097 07-04-2021 14:23:16 0.8 C 50 %
2098 07-04-2021 14:33:17 0.9 C 51 %
2099 07-04-2021 14:43:17 1.1 C 50 %
2100 07-04-2021 14:53:17 1.4 C 50 %
Sensor: Nr:Datum:Temp:Feuchte:
Aussen-T/F 2101 07-04-2021 15:03:16 1.7 C 49 %
2102 07-04-2021 15:13:16 2.1 C 49 %
2103 07-04-2021 15:23:17 2.5 C 48 %
2104 07-04-2021 15:33:17 3 C 45 %
2105 07-04-2021 15:43:17 3.4 C 43 %
2106 07-04-2021 15:53:16 3.7 C 43 %
2107 07-04-2021 16:03:17 4.1 C 40 %
2108 07-04-2021 16:13:17 4.4 C 41 %
2109 07-04-2021 16:23:16 4.5 C 40 %
2110 07-04-2021 16:33:16 4.5 C 40 %
2111 07-04-2021 16:43:16 4.8 C 39 %
2112 07-04-2021 16:53:16 5.1 C 38 %
2113 07-04-2021 17:03:17 5.2 C 38 %
2114 07-04-2021 17:13:17 5.2 C 37 %
2115 07-04-2021 17:23:17 5 C 37 %
2116 07-04-2021 17:33:16 5 C 37 %
2117 07-04-2021 17:43:16 5 C 37 %
2118 07-04-2021 17:53:17 5 C 37 %
2119 07-04-2021 18:03:16 5.2 C 36 %
2120 07-04-2021 18:13:16 5 C 36 %
2121 07-04-2021 18:23:17 4.9 C 37 %
2122 07-04-2021 18:33:16 4.8 C 37 %
2123 07-04-2021 18:43:16 4.7 C 37 %
2124 07-04-2021 18:53:16 4.5 C 37 %
2125 07-04-2021 19:03:17 4.4 C 37 %
Sensor: Nr:Datum:Temp:Feuchte:
Aussen-T/F 2126 07-04-2021 19:13:17 4.5 C 36 %
2127 07-04-2021 19:23:16 4.5 C 36 %
2128 07-04-2021 19:33:16 4.3 C 36 %
2129 07-04-2021 19:43:16 4.3 C 36 %
2130 07-04-2021 19:53:16 4.2 C 36 %
2131 07-04-2021 20:03:16 4.1 C 36 %
2132 07-04-2021 20:13:16 4 C 36 %
2133 07-04-2021 20:23:16 3.7 C 37 %
2134 07-04-2021 20:33:16 3.7 C 37 %
2135 07-04-2021 20:43:16 3.8 C 36 %
2136 07-04-2021 20:53:16 3.8 C 36 %
2137 07-04-2021 21:03:16 3.5 C 36 %
2138 07-04-2021 21:13:16 3.5 C 36 %
2139 07-04-2021 21:23:16 3.4 C 36 %
2140 07-04-2021 21:33:16 3 C 36 %
2141 07-04-2021 21:43:16 2.9 C 36 %
2142 07-04-2021 21:53:16 2.7 C 36 %
2143 07-04-2021 22:03:16 2.6 C 36 %
2144 07-04-2021 22:13:16 1.8 C 37 %
2145 07-04-2021 22:23:16 1.8 C 39 %
2146 07-04-2021 22:33:16 2.1 C 37 %
2147 07-04-2021 22:43:16 2.2 C 36 %
2148 07-04-2021 22:53:17 2 C 37 %
2149 07-04-2021 23:03:16 2 C 36 %
2150 07-04-2021 23:13:16 2.1 C 35 %
Sensor: Nr:Datum:Temp:Feuchte:
Aussen-T/F 2151 07-04-2021 23:23:16 2 C 36 %
2152 07-04-2021 23:33:16 2.1 C 36 %
2153 07-04-2021 23:43:16 2 C 35 %
2154 07-04-2021 23:53:16 2 C 36 %
2155 08-04-2021 00:03:16 2 C 36 %
2156 08-04-2021 00:13:16 2 C 36 %
2157 08-04-2021 00:23:16 2 C 36 %
2158 08-04-2021 00:33:16 2.1 C 36 %
2159 08-04-2021 00:43:16 2.1 C 36 %
2160 08-04-2021 00:53:16 2.1 C 36 %
2161 08-04-2021 01:03:16 2.1 C 36 %
2162 08-04-2021 01:13:16 2.1 C 36 %
2163 08-04-2021 01:23:16 2.1 C 36 %
2164 08-04-2021 01:33:16 1.9 C 37 %
2165 08-04-2021 01:43:17 2 C 36 %
2166 08-04-2021 01:53:16 2 C 36 %
2167 08-04-2021 02:03:16 1.9 C 37 %
2168 08-04-2021 02:13:16 1.8 C 37 %
2169 08-04-2021 02:23:16 1.7 C 38 %
2170 08-04-2021 02:33:15 1.7 C 38 %
2171 08-04-2021 02:43:15 1.9 C 38 %
2172 08-04-2021 02:53:17 1.8 C 38 %
2173 08-04-2021 03:03:17 1.7 C 39 %
2174 08-04-2021 03:13:17 1.7 C 38 %
2175 08-04-2021 03:23:17 1.6 C 39 %
Sensor: Nr:Datum:Temp:Feuchte:
Aussen-T/F 2176 08-04-2021 03:33:18 1.3 C 39 %
2177 08-04-2021 03:43:18 1 C 40 %
2178 08-04-2021 03:53:17 1.1 C 40 %
2179 08-04-2021 04:03:17 1 C 40 %
2180 08-04-2021 04:13:17 1.2 C 40 %
2181 08-04-2021 04:23:17 1.1 C 40 %
2182 08-04-2021 04:33:17 1.2 C 40 %
2183 08-04-2021 04:43:17 1.2 C 40 %
2184 08-04-2021 04:53:17 1.4 C 40 %
2185 08-04-2021 05:03:18 1.2 C 40 %
2186 08-04-2021 05:13:18 1.1 C 40 %
2187 08-04-2021 05:23:17 0.9 C 41 %
2188 08-04-2021 05:33:17 0.8 C 42 %
2189 08-04-2021 05:43:17 0.7 C 42 %
2190 08-04-2021 05:53:18 0.8 C 42 %
2191 08-04-2021 06:03:17 0.7 C 43 %
2192 08-04-2021 06:13:17 1 C 41 %
2193 08-04-2021 06:23:17 1 C 41 %
2194 08-04-2021 06:33:17 0.8 C 42 %
2195 08-04-2021 06:43:17 0.8 C 43 %
2196 08-04-2021 06:53:18 1.1 C 40 %
2197 08-04-2021 07:03:17 1.1 C 41 %
2198 08-04-2021 07:13:17 1.1 C 41 %
2199 08-04-2021 07:23:17 1 C 41 %
2200 08-04-2021 07:33:17 0.9 C 42 %
Sensor: Nr:Datum:Temp:Feuchte:
Aussen-T/F 2201 08-04-2021 07:43:17 1.1 C 41 %
2202 08-04-2021 07:53:17 1.4 C 40 %
2203 08-04-2021 08:03:18 1.6 C 40 %
2204 08-04-2021 08:13:18 1.9 C 40 %
2205 08-04-2021 08:23:18 2.2 C 39 %
2206 08-04-2021 08:33:17 2.3 C 38 %
2207 08-04-2021 08:43:17 2.4 C 38 %
2208 08-04-2021 08:53:17 2.9 C 38 %
2209 08-04-2021 09:03:17 2.8 C 38 %
2210 08-04-2021 09:13:17 2.8 C 38 %
2211 08-04-2021 09:23:17 2.9 C 38 %
2212 08-04-2021 09:33:18 3.5 C 37 %
2213 08-04-2021 09:43:18 3.8 C 37 %
2214 08-04-2021 09:53:17 3.5 C 36 %
2215 08-04-2021 10:03:17 3.4 C 36 %
2216 08-04-2021 10:13:17 3.6 C 36 %
2217 08-04-2021 10:23:17 3.7 C 36 %
2218 08-04-2021 10:33:17 4.2 C 35 %
2219 08-04-2021 10:43:17 4.5 C 35 %
2220 08-04-2021 10:53:17 5.6 C 33 %
2221 08-04-2021 11:03:17 5.7 C 32 %
2222 08-04-2021 11:13:17 6.4 C 32 %
2223 08-04-2021 11:23:17 6.5 C 30 %
2224 08-04-2021 11:33:17 5.9 C 30 %
2225 08-04-2021 11:43:17 7.2 C 28 %
Sensor: Nr:Datum:Temp:Feuchte:
Aussen-T/F 2226 08-04-2021 11:53:17 5.8 C 27 %
2227 08-04-2021 12:03:17 9.1 C 25 %
2228 08-04-2021 12:13:17 9.3 C 20 %
2229 08-04-2021 12:23:17 9.1 C 20 %
2230 08-04-2021 12:33:17 7.1 C 25 %
2231 08-04-2021 12:43:17 9.2 C 25 %
2232 08-04-2021 12:53:17 8.9 C 25 %
2233 08-04-2021 13:03:17 8.3 C 25 %
2234 08-04-2021 13:13:17 9.3 C 25 %
2235 08-04-2021 13:23:17 9 C 21 %
2236 08-04-2021 13:33:17 8.5 C 25 %
2237 08-04-2021 13:43:17 9.3 C 23 %
2238 08-04-2021 13:53:17 9 C 25 %
2239 08-04-2021 14:03:17 9.4 C 25 %
2240 08-04-2021 14:13:17 8.1 C 23 %
2241 08-04-2021 14:23:17 8.2 C 23 %
2242 08-04-2021 14:33:17 11.3 C 20 %
2243 08-04-2021 14:43:17 11.7 C 20 %
2244 08-04-2021 14:53:17 15.3 C 20 %
2245 08-04-2021 15:03:17 11.8 C 20 %
2246 08-04-2021 15:13:17 12.2 C 20 %
2247 08-04-2021 15:23:17 12.5 C 20 %
2248 08-04-2021 15:33:17 12.3 C 20 %
2249 08-04-2021 15:43:18 14.4 C 20 %
2250 08-04-2021 15:53:17 13.8 C 20 %
Sensor: Nr:Datum:Temp:Feuchte:
Aussen-T/F 2251 08-04-2021 16:03:17 13.7 C 20 %
2252 08-04-2021 16:13:17 13.7 C 20 %
2253 08-04-2021 16:23:17 12.3 C 20 %
2254 08-04-2021 16:33:17 13 C 20 %
2255 08-04-2021 16:43:17 14.6 C 20 %
2256 08-04-2021 16:53:18 14.2 C 20 %
2257 08-04-2021 17:03:17 14.8 C 20 %
2258 08-04-2021 17:13:18 14.4 C 20 %
2259 08-04-2021 17:23:17 13.5 C 20 %
2260 08-04-2021 17:33:17 14.7 C 20 %
2261 08-04-2021 17:43:17 13.3 C 20 %
2262 08-04-2021 17:53:17 12.7 C 20 %
2263 08-04-2021 18:03:17 10.5 C 20 %
2264 08-04-2021 18:13:17 10.4 C 20 %
2265 08-04-2021 18:23:17 9.9 C 20 %
2266 08-04-2021 18:33:17 9.8 C 21 %
2267 08-04-2021 18:43:17 10 C 20 %
2268 08-04-2021 18:53:17 9.8 C 20 %
2269 08-04-2021 19:03:17 9.3 C 20 %
2270 08-04-2021 19:13:17 9.3 C 20 %
2271 08-04-2021 19:23:17 9 C 20 %
2272 08-04-2021 19:33:17 8.9 C 23 %
2273 08-04-2021 19:43:17 8.3 C 26 %
2274 08-04-2021 19:53:17 7.2 C 27 %
2275 08-04-2021 20:03:17 6.4 C 30 %
Sensor: Nr:Datum:Temp:Feuchte:
Aussen-T/F 2276 08-04-2021 20:13:17 5.8 C 31 %
2277 08-04-2021 20:23:17 5.3 C 32 %
2278 08-04-2021 20:33:17 5.1 C 32 %
2279 08-04-2021 20:43:17 4.8 C 32 %
2280 08-04-2021 20:53:18 4.7 C 33 %
2281 08-04-2021 21:03:17 4.6 C 33 %
2282 08-04-2021 21:13:17 4.6 C 32 %
2283 08-04-2021 21:23:17 4.1 C 34 %
2284 08-04-2021 21:33:17 3.6 C 36 %
2285 08-04-2021 21:43:17 3.1 C 37 %
2286 08-04-2021 21:53:17 2.6 C 38 %
2287 08-04-2021 22:03:18 2.2 C 39 %
2288 08-04-2021 22:13:18 2.1 C 40 %
2289 08-04-2021 22:23:17 2.1 C 39 %
2290 08-04-2021 22:33:17 1.8 C 41 %
2291 08-04-2021 22:43:17 1.5 C 41 %
2292 08-04-2021 22:53:18 1.3 C 41 %
2293 08-04-2021 23:03:17 1.1 C 41 %
2294 08-04-2021 23:13:17 0.7 C 42 %
2295 08-04-2021 23:23:17 0.6 C 43 %
2296 08-04-2021 23:33:18 0.5 C 43 %
2297 08-04-2021 23:43:18 0.4 C 43 %
2298 08-04-2021 23:53:17 0.2 C 44 %
2299 09-04-2021 00:03:17 0.4 C 45 %
2300 09-04-2021 00:13:17 0.4 C 45 %
Sensor: Nr:Datum:Temp:Feuchte:
Aussen-T/F 2301 09-04-2021 00:23:17 0.4 C 45 %
2302 09-04-2021 00:33:18 0.7 C 44 %
2303 09-04-2021 00:43:18 0.6 C 45 %
2304 09-04-2021 00:53:17 0.4 C 45 %
2305 09-04-2021 01:03:17 0.3 C 44 %
2306 09-04-2021 01:13:17 0.2 C 44 %
2307 09-04-2021 01:23:17 -0.1 C 44 %
2308 09-04-2021 01:33:17 -0.1 C 45 %
2309 09-04-2021 01:43:17 -0.4 C 45 %
2310 09-04-2021 01:53:18 -0.4 C 45 %
2311 09-04-2021 02:03:17 -0.5 C 45 %
2312 09-04-2021 02:13:17 -0.4 C 45 %
2313 09-04-2021 02:23:17 -0.8 C 44 %
2314 09-04-2021 02:33:17 -1 C 45 %
2315 09-04-2021 02:43:17 -1.1 C 46 %
2316 09-04-2021 02:53:18 -0.7 C 46 %
2317 09-04-2021 03:03:17 -1.2 C 46 %
2318 09-04-2021 03:13:17 -1.3 C 46 %
2319 09-04-2021 03:23:17 -1.1 C 47 %
2320 09-04-2021 03:33:17 -1.3 C 46 %
2321 09-04-2021 03:43:17 -1.2 C 47 %
2322 09-04-2021 03:53:18 -1.5 C 46 %
2323 09-04-2021 04:03:17 -1.5 C 47 %
2324 09-04-2021 04:13:17 -1.8 C 46 %
2325 09-04-2021 04:23:17 -1.5 C 47 %
Sensor: Nr:Datum:Temp:Feuchte:
Aussen-T/F 2326 09-04-2021 04:33:17 -1.7 C 46 %
2327 09-04-2021 04:43:17 -1.9 C 47 %
2328 09-04-2021 04:53:17 -1.8 C 47 %
2329 09-04-2021 05:03:18 -1.7 C 47 %
2330 09-04-2021 05:13:18 -1.4 C 47 %
2331 09-04-2021 05:23:17 -1.7 C 47 %
2332 09-04-2021 05:33:17 -1.5 C 47 %
2333 09-04-2021 05:43:17 -2 C 46 %
2334 09-04-2021 05:53:17 -2 C 47 %
2335 09-04-2021 06:03:18 -1.7 C 48 %
2336 09-04-2021 06:13:18 -1.5 C 48 %
2337 09-04-2021 06:23:17 -1.6 C 47 %
2338 09-04-2021 06:33:18 -1.9 C 47 %
2339 09-04-2021 06:43:18 -1.9 C 47 %
2340 09-04-2021 06:53:17 -1.9 C 47 %
2341 09-04-2021 07:03:17 -1.9 C 47 %
2342 09-04-2021 07:13:17 -1.5 C 47 %
2343 09-04-2021 07:23:17 -1.2 C 47 %
2344 09-04-2021 07:33:18 -1.1 C 47 %
2345 09-04-2021 07:43:18 -0.9 C 47 %
2346 09-04-2021 07:53:17 -0.6 C 47 %
2347 09-04-2021 08:03:17 -0.4 C 46 %
2348 09-04-2021 08:13:17 0 C 46 %
2349 09-04-2021 08:23:17 0.6 C 45 %
2350 09-04-2021 08:33:17 1.1 C 42 %
Sensor: Nr:Datum:Temp:Feuchte:
Aussen-T/F 2351 09-04-2021 08:43:17 1.4 C 42 %
2352 09-04-2021 08:53:17 1.9 C 42 %
2353 09-04-2021 09:03:17 2.4 C 40 %
2354 09-04-2021 09:13:17 3.2 C 40 %
2355 09-04-2021 09:23:17 4 C 37 %
2356 09-04-2021 09:33:17 4.4 C 37 %
2357 09-04-2021 09:43:17 4.5 C 36 %
2358 09-04-2021 09:53:18 4.8 C 36 %
2359 09-04-2021 10:03:17 5.2 C 35 %
2360 09-04-2021 10:13:17 5.6 C 35 %
2361 09-04-2021 10:23:17 6.2 C 35 %
2362 09-04-2021 10:33:17 7 C 34 %
2363 09-04-2021 10:43:17 8 C 32 %
2364 09-04-2021 10:53:17 8.7 C 31 %
2365 09-04-2021 11:03:17 9.6 C 30 %
2366 09-04-2021 11:13:17 10.8 C 27 %
2367 09-04-2021 11:23:17 11.3 C 26 %
2368 09-04-2021 11:33:18 11.4 C 25 %
2369 09-04-2021 11:43:18 12.8 C 24 %
2370 09-04-2021 11:53:17 12.8 C 23 %
2371 09-04-2021 12:03:17 12.8 C 21 %
2372 09-04-2021 12:13:17 13.5 C 21 %
2373 09-04-2021 12:23:17 13.9 C 20 %
2374 09-04-2021 12:33:17 14.7 C 20 %
2375 09-04-2021 12:43:17 13.8 C 20 %
Sensor: Nr:Datum:Temp:Feuchte:
Aussen-T/F 2376 09-04-2021 12:53:18 15.1 C 20 %
2377 09-04-2021 13:03:17 14.8 C 20 %
2378 09-04-2021 13:13:17 15 C 20 %
2379 09-04-2021 13:23:17 14.1 C 20 %
2380 09-04-2021 13:33:17 14.1 C 20 %
2381 09-04-2021 13:43:17 14.9 C 20 %
2382 09-04-2021 13:53:17 14.4 C 20 %
2383 09-04-2021 14:03:17 15.6 C 20 %
2384 09-04-2021 14:13:18 15.8 C 20 %
2385 09-04-2021 14:23:17 15 C 20 %
2386 09-04-2021 14:33:17 15.7 C 20 %
2387 09-04-2021 14:43:17 15.8 C 20 %
2388 09-04-2021 14:53:17 16.5 C 20 %
2389 09-04-2021 15:03:17 16.8 C 20 %
2390 09-04-2021 15:13:18 15.3 C 20 %
2391 09-04-2021 15:23:17 15.4 C 20 %
2392 09-04-2021 15:33:17 16.7 C 20 %
2393 09-04-2021 15:43:17 16.5 C 20 %
2394 09-04-2021 15:53:18 16.5 C 20 %
2395 09-04-2021 16:03:17 16.6 C 20 %
2396 09-04-2021 16:13:17 17 C 20 %
2397 09-04-2021 16:23:17 16.6 C 20 %
2398 09-04-2021 16:33:17 17.5 C 20 %
2399 09-04-2021 16:43:17 16.7 C 20 %
2400 09-04-2021 16:53:17 17.1 C 20 %
Sensor: Nr:Datum:Temp:Feuchte:
Aussen-T/F 2401 09-04-2021 17:03:17 17.3 C 20 %
2402 09-04-2021 17:13:17 18.2 C 20 %
2403 09-04-2021 17:23:17 17.6 C 20 %
2404 09-04-2021 17:33:18 17.7 C 20 %
2405 09-04-2021 17:43:18 17.8 C 20 %
2406 09-04-2021 17:53:17 16.1 C 20 %
2407 09-04-2021 18:03:17 16.2 C 20 %
2408 09-04-2021 18:13:17 16 C 20 %
2409 09-04-2021 18:23:18 16.2 C 20 %
2410 09-04-2021 18:33:17 16 C 20 %
2411 09-04-2021 18:43:17 16 C 20 %
2412 09-04-2021 18:53:17 16 C 20 %
2413 09-04-2021 19:03:17 15.5 C 20 %
2414 09-04-2021 19:13:17 14.6 C 20 %
2415 09-04-2021 19:23:17 13.5 C 22 %
2416 09-04-2021 19:33:17 13.2 C 20 %
2417 09-04-2021 19:43:17 13.1 C 21 %
2418 09-04-2021 19:53:18 12.7 C 23 %
2419 09-04-2021 20:03:17 12.5 C 23 %
2420 09-04-2021 20:13:17 12.1 C 25 %
2421 09-04-2021 20:23:17 12 C 25 %
2422 09-04-2021 20:33:17 12.3 C 21 %
2423 09-04-2021 20:43:17 13.2 C 21 %
2424 09-04-2021 20:53:17 13 C 23 %
2425 09-04-2021 21:03:17 13 C 23 %
Sensor: Nr:Datum:Temp:Feuchte:
Aussen-T/F 2426 09-04-2021 21:13:17 12.8 C 25 %
2427 09-04-2021 21:23:17 12.3 C 26 %
2428 09-04-2021 21:33:17 11.9 C 27 %
2429 09-04-2021 21:43:17 11.5 C 28 %
2430 09-04-2021 21:53:17 11.5 C 29 %
2431 09-04-2021 22:03:18 11.5 C 28 %
2432 09-04-2021 22:13:18 11.4 C 29 %
2433 09-04-2021 22:23:18 11.5 C 29 %
2434 09-04-2021 22:33:17 11.2 C 29 %
2435 09-04-2021 22:43:17 11 C 30 %
2436 09-04-2021 22:53:17 9.6 C 37 %
2437 09-04-2021 23:03:18 9.4 C 39 %
2438 09-04-2021 23:13:18 8.9 C 43 %
2439 09-04-2021 23:23:17 8.5 C 45 %
2440 09-04-2021 23:33:17 8.4 C 46 %
2441 09-04-2021 23:43:17 8.3 C 47 %
2442 09-04-2021 23:53:18 8.2 C 47 %
2443 10-04-2021 00:03:17 8.1 C 47 %
2444 10-04-2021 00:13:17 8.1 C 47 %
2445 10-04-2021 00:23:17 8.1 C 47 %
2446 10-04-2021 00:33:18 8.1 C 47 %
2447 10-04-2021 00:43:18 8.1 C 47 %
2448 10-04-2021 00:53:17 8 C 47 %
2449 10-04-2021 01:03:17 7.9 C 48 %
2450 10-04-2021 01:13:17 8 C 47 %
Sensor: Nr:Datum:Temp:Feuchte:
Aussen-T/F 2451 10-04-2021 01:23:17 8 C 47 %
2452 10-04-2021 01:33:17 8 C 47 %
2453 10-04-2021 01:43:17 8 C 47 %
2454 10-04-2021 01:53:18 8 C 47 %
2455 10-04-2021 02:03:17 8 C 47 %
2456 10-04-2021 02:13:17 8 C 47 %
2457 10-04-2021 02:23:17 8 C 47 %
2458 10-04-2021 02:33:17 8 C 47 %
2459 10-04-2021 02:43:17 7.9 C 47 %
2460 10-04-2021 02:53:17 7.9 C 47 %
2461 10-04-2021 03:03:17 7.9 C 47 %
2462 10-04-2021 03:13:17 7.9 C 47 %
2463 10-04-2021 03:23:17 7.9 C 47 %
2464 10-04-2021 03:33:17 7.9 C 47 %
2465 10-04-2021 03:43:17 7.6 C 47 %
2466 10-04-2021 03:53:17 7.7 C 47 %
2467 10-04-2021 04:03:17 7.7 C 47 %
2468 10-04-2021 04:13:17 7.7 C 47 %
2469 10-04-2021 04:23:17 7.7 C 47 %
2470 10-04-2021 04:33:17 7.7 C 47 %
2471 10-04-2021 04:43:17 7.6 C 47 %
2472 10-04-2021 04:53:17 7.6 C 47 %
2473 10-04-2021 05:03:17 7.6 C 47 %
2474 10-04-2021 05:13:17 7.6 C 47 %
2475 10-04-2021 05:23:17 7.5 C 47 %
Sensor: Nr:Datum:Temp:Feuchte:
Aussen-T/F 2476 10-04-2021 05:33:17 7.5 C 46 %
2477 10-04-2021 05:43:17 7.5 C 46 %
2478 10-04-2021 05:53:17 7.5 C 46 %
2479 10-04-2021 06:03:17 7.5 C 46 %
2480 10-04-2021 06:13:17 7.5 C 46 %
2481 10-04-2021 06:23:17 7.5 C 46 %
2482 10-04-2021 06:33:17 7.6 C 46 %
2483 10-04-2021 06:43:17 7.6 C 46 %
2484 10-04-2021 06:53:18 7.5 C 46 %
2485 10-04-2021 07:03:17 7.5 C 46 %
2486 10-04-2021 07:13:17 7.5 C 46 %
2487 10-04-2021 07:23:17 7.5 C 46 %
2488 10-04-2021 07:33:17 7.6 C 46 %
2489 10-04-2021 07:43:17 7.6 C 46 %
2490 10-04-2021 07:53:17 7.8 C 46 %
2491 10-04-2021 08:03:17 8.1 C 46 %
2492 10-04-2021 08:13:17 8.2 C 46 %
2493 10-04-2021 08:23:17 8.1 C 46 %
2494 10-04-2021 08:33:17 8.3 C 46 %
2495 10-04-2021 08:43:17 8.4 C 46 %
2496 10-04-2021 08:53:18 8.4 C 46 %
2497 10-04-2021 09:03:17 8.6 C 46 %
2498 10-04-2021 09:13:17 8.6 C 44 %
2499 10-04-2021 09:23:17 8.9 C 45 %
2500 10-04-2021 09:33:18 9.1 C 44 %
Sensor: Nr:Datum:Temp:Feuchte:
Aussen-T/F 2501 10-04-2021 09:43:18 9.5 C 43 %
2502 10-04-2021 09:53:17 9.2 C 43 %
2503 10-04-2021 10:03:17 9.3 C 44 %
2504 10-04-2021 10:13:17 9.5 C 44 %
2505 10-04-2021 10:23:17 9.6 C 44 %
2506 10-04-2021 10:33:17 9.8 C 43 %
2507 10-04-2021 10:43:17 9.8 C 44 %
2508 10-04-2021 10:53:17 9.5 C 42 %
2509 10-04-2021 11:03:17 9.2 C 42 %
2510 10-04-2021 11:13:17 9.5 C 42 %
2511 10-04-2021 11:23:17 9.7 C 42 %
2512 10-04-2021 11:33:17 9.4 C 41 %
2513 10-04-2021 11:43:17 9.5 C 42 %
2514 10-04-2021 11:53:17 9.7 C 41 %
2515 10-04-2021 12:03:17 9.5 C 42 %
2516 10-04-2021 12:13:17 9.8 C 42 %
2517 10-04-2021 12:23:17 10.1 C 41 %
2518 10-04-2021 12:33:17 10.2 C 41 %
2519 10-04-2021 12:43:17 10 C 41 %
2520 10-04-2021 12:53:17 10 C 40 %
2521 10-04-2021 13:03:17 10 C 41 %
2522 10-04-2021 13:13:17 9.7 C 42 %
2523 10-04-2021 13:23:17 9.8 C 42 %
2524 10-04-2021 13:33:18 9.8 C 42 %
2525 10-04-2021 13:43:18 10.1 C 42 %
Sensor: Nr:Datum:Temp:Feuchte:
Aussen-T/F 2526 10-04-2021 13:53:17 10.1 C 41 %
2527 10-04-2021 14:03:17 10 C 41 %
2528 10-04-2021 14:13:17 10.1 C 42 %
2529 10-04-2021 14:23:17 10.1 C 42 %
2530 10-04-2021 14:33:17 10.3 C 43 %
2531 10-04-2021 14:43:17 10.3 C 43 %
2532 10-04-2021 14:53:17 10.1 C 42 %
2533 10-04-2021 15:03:17 10.3 C 43 %
2534 10-04-2021 15:13:17 10 C 42 %
2535 10-04-2021 15:23:17 10.2 C 41 %
2536 10-04-2021 15:33:17 10.1 C 41 %
2537 10-04-2021 15:43:17 10.2 C 42 %
2538 10-04-2021 15:53:17 10.2 C 42 %
2539 10-04-2021 16:03:17 10.3 C 42 %
2540 10-04-2021 16:13:17 10.7 C 41 %
2541 10-04-2021 16:23:17 10.4 C 41 %
2542 10-04-2021 16:33:18 10.3 C 41 %
2543 10-04-2021 16:43:18 10.3 C 42 %
2544 10-04-2021 16:53:17 10.2 C 42 %
2545 10-04-2021 17:03:17 10.2 C 42 %
2546 10-04-2021 17:13:17 10.5 C 42 %
2547 10-04-2021 17:23:17 10.3 C 42 %
2548 10-04-2021 17:33:17 10.1 C 43 %
2549 10-04-2021 17:43:17 10.1 C 45 %
2550 10-04-2021 17:53:18 10 C 45 %
Sensor: Nr:Datum:Temp:Feuchte:
Aussen-T/F 2551 10-04-2021 18:03:17 10 C 45 %
2552 10-04-2021 18:13:17 9.9 C 45 %
2553 10-04-2021 18:23:17 9.8 C 46 %
2554 10-04-2021 18:33:17 9.9 C 46 %
2555 10-04-2021 18:43:17 9.6 C 45 %
2556 10-04-2021 18:53:17 9.6 C 46 %
2557 10-04-2021 19:03:17 9.5 C 46 %
2558 10-04-2021 19:13:17 9.3 C 46 %
2559 10-04-2021 19:23:17 9.2 C 46 %
2560 10-04-2021 19:33:17 9.1 C 47 %
2561 10-04-2021 19:43:18 9 C 47 %
2562 10-04-2021 19:53:17 9 C 47 %
2563 10-04-2021 20:03:17 8.9 C 48 %
2564 10-04-2021 20:13:17 8.9 C 48 %
2565 10-04-2021 20:23:17 8.8 C 48 %
2566 10-04-2021 20:33:17 8.7 C 47 %
2567 10-04-2021 20:43:17 8.7 C 47 %
2568 10-04-2021 20:53:18 8.6 C 47 %
2569 10-04-2021 21:03:17 8.6 C 47 %
2570 10-04-2021 21:13:17 8.6 C 47 %
2571 10-04-2021 21:23:17 8.5 C 47 %
2572 10-04-2021 21:33:17 8.5 C 47 %
2573 10-04-2021 21:43:17 8.5 C 47 %
2574 10-04-2021 21:53:18 8.5 C 47 %
2575 10-04-2021 22:03:18 8.4 C 47 %
Sensor: Nr:Datum:Temp:Feuchte:
Aussen-T/F 2576 10-04-2021 22:13:18 8.4 C 47 %
2577 10-04-2021 22:23:18 8.4 C 47 %
2578 10-04-2021 22:33:17 8.4 C 47 %
2579 10-04-2021 22:43:17 8.4 C 47 %
2580 10-04-2021 22:53:17 8.3 C 47 %
2581 10-04-2021 23:03:17 8.3 C 47 %
2582 10-04-2021 23:13:17 8.4 C 47 %
2583 10-04-2021 23:23:17 8.3 C 47 %
2584 10-04-2021 23:33:18 8.3 C 47 %
2585 10-04-2021 23:43:18 8.3 C 47 %
2586 10-04-2021 23:53:18 8.2 C 47 %
2587 11-04-2021 00:03:17 8.2 C 47 %
2588 11-04-2021 00:13:17 8.2 C 47 %
2589 11-04-2021 00:23:17 8.2 C 47 %
2590 11-04-2021 00:33:17 8.1 C 47 %
2591 11-04-2021 00:43:17 8.2 C 47 %
2592 11-04-2021 00:53:17 8.2 C 47 %
2593 11-04-2021 01:03:17 8.2 C 47 %
2594 11-04-2021 01:13:17 8.2 C 47 %
2595 11-04-2021 01:23:17 8.2 C 47 %
2596 11-04-2021 01:33:18 8.4 C 47 %
2597 11-04-2021 01:43:18 8.5 C 47 %
2598 11-04-2021 01:53:17 8.5 C 47 %
2599 11-04-2021 02:03:17 8.5 C 47 %
2600 11-04-2021 02:13:17 8.5 C 47 %
Sensor: Nr:Datum:Temp:Feuchte:
Aussen-T/F 2601 11-04-2021 02:23:17 8.6 C 47 %
2602 11-04-2021 02:33:17 8.6 C 47 %
2603 11-04-2021 02:43:17 8.9 C 47 %
2604 11-04-2021 02:53:18 8.7 C 47 %
2605 11-04-2021 03:03:17 8.7 C 47 %
2606 11-04-2021 03:13:17 8.6 C 46 %
2607 11-04-2021 03:23:17 8.6 C 46 %
2608 11-04-2021 03:33:17 8.6 C 46 %
2609 11-04-2021 03:43:17 8.5 C 46 %
2610 11-04-2021 03:53:17 8.5 C 46 %
2611 11-04-2021 04:03:17 8.5 C 46 %
2612 11-04-2021 04:13:17 8.3 C 46 %
2613 11-04-2021 04:23:17 8.5 C 46 %
2614 11-04-2021 04:33:18 8.4 C 46 %
2615 11-04-2021 04:43:18 8.4 C 46 %
2616 11-04-2021 04:53:17 8.3 C 46 %
2617 11-04-2021 05:03:17 8.3 C 46 %
2618 11-04-2021 05:13:17 8.2 C 46 %
2619 11-04-2021 05:23:17 8.4 C 46 %
2620 11-04-2021 05:33:17 8.6 C 46 %
2621 11-04-2021 05:43:17 8.5 C 46 %
2622 11-04-2021 05:53:18 8.5 C 46 %
2623 11-04-2021 06:03:17 8.6 C 46 %
2624 11-04-2021 06:13:17 8.6 C 46 %
2625 11-04-2021 06:23:17 8.6 C 46 %
Sensor: Nr:Datum:Temp:Feuchte:
Aussen-T/F 2626 11-04-2021 06:33:17 8.7 C 46 %
2627 11-04-2021 06:43:17 8.6 C 46 %
2628 11-04-2021 06:53:17 8.7 C 46 %
2629 11-04-2021 07:03:17 8.7 C 46 %
2630 11-04-2021 07:13:17 8.8 C 46 %
2631 11-04-2021 07:23:18 8.8 C 46 %
2632 11-04-2021 07:33:17 8.9 C 46 %
2633 11-04-2021 07:43:17 8.9 C 46 %
2634 11-04-2021 07:53:17 9 C 45 %
2635 11-04-2021 08:03:17 9.1 C 45 %
2636 11-04-2021 08:13:17 9.2 C 45 %
2637 11-04-2021 08:23:17 9.3 C 45 %
2638 11-04-2021 08:33:17 9.6 C 45 %
2639 11-04-2021 08:43:17 9.9 C 45 %
2640 11-04-2021 08:53:17 10.7 C 45 %
2641 11-04-2021 09:03:18 10.3 C 45 %
2642 11-04-2021 09:13:18 10.4 C 45 %
2643 11-04-2021 09:23:17 10.5 C 45 %
2644 11-04-2021 09:33:18 8.9 C 43 %
2645 11-04-2021 09:43:18 7.8 C 45 %
2646 11-04-2021 09:53:18 7.5 C 46 %
2647 11-04-2021 10:03:17 7 C 45 %
2648 11-04-2021 10:13:17 6.8 C 46 %
2649 11-04-2021 10:23:17 6.5 C 46 %
2650 11-04-2021 10:33:17 6.2 C 46 %
Sensor: Nr:Datum:Temp:Feuchte:
Aussen-T/F 2651 11-04-2021 10:43:17 5.7 C 46 %
2652 11-04-2021 10:53:18 5.6 C 47 %
2653 11-04-2021 11:03:17 5.5 C 46 %
2654 11-04-2021 11:13:17 5.3 C 46 %
2655 11-04-2021 11:23:17 5.1 C 45 %
2656 11-04-2021 11:33:17 5.3 C 46 %
2657 11-04-2021 11:43:17 5 C 45 %
2658 11-04-2021 11:53:18 5.2 C 45 %
2659 11-04-2021 12:03:17 5 C 45 %
2660 11-04-2021 12:13:17 4.8 C 45 %
2661 11-04-2021 12:23:17 4.8 C 45 %
2662 11-04-2021 12:33:17 5.1 C 45 %
2663 11-04-2021 12:43:17 5.1 C 45 %
2664 11-04-2021 12:53:18 4.8 C 45 %
2665 11-04-2021 13:03:18 4.7 C 45 %
2666 11-04-2021 13:13:18 4.7 C 45 %
2667 11-04-2021 13:23:18 4.7 C 46 %
2668 11-04-2021 13:33:18 4.6 C 46 %
2669 11-04-2021 13:43:18 4.5 C 45 %
2670 11-04-2021 13:53:17 4.4 C 45 %
2671 11-04-2021 14:03:17 4.3 C 44 %
2672 11-04-2021 14:13:17 4.3 C 45 %
2673 11-04-2021 14:23:17 4.2 C 45 %
2674 11-04-2021 14:33:18 4 C 45 %
2675 11-04-2021 14:43:18 4 C 44 %
Sensor: Nr:Datum:Temp:Feuchte:
Aussen-T/F 2676 11-04-2021 14:53:17 4.1 C 44 %
2677 11-04-2021 15:03:17 3.9 C 44 %
2678 11-04-2021 15:13:17 4.2 C 44 %
2679 11-04-2021 15:23:17 4.2 C 44 %
2680 11-04-2021 15:33:18 4.5 C 45 %
2681 11-04-2021 15:43:18 4.1 C 44 %
2682 11-04-2021 15:53:17 4.1 C 45 %
2683 11-04-2021 16:03:17 3.8 C 45 %
2684 11-04-2021 16:13:17 4 C 45 %
2685 11-04-2021 16:23:17 3.8 C 45 %
2686 11-04-2021 16:33:17 4 C 45 %
2687 11-04-2021 16:43:17 3.9 C 46 %
2688 11-04-2021 16:53:18 4 C 45 %
2689 11-04-2021 17:03:18 3.9 C 45 %
2690 11-04-2021 17:13:18 3.9 C 45 %
2691 11-04-2021 17:23:18 4.2 C 45 %
2692 11-04-2021 17:33:17 4.2 C 45 %
2693 11-04-2021 17:43:17 4.3 C 45 %
2694 11-04-2021 17:53:17 4.2 C 45 %
2695 11-04-2021 18:03:18 4.3 C 45 %
2696 11-04-2021 18:13:18 4.3 C 45 %
2697 11-04-2021 18:23:17 4.3 C 45 %
2698 11-04-2021 18:33:18 4.4 C 45 %
2699 11-04-2021 18:43:18 4.2 C 44 %
2700 11-04-2021 18:53:17 4.2 C 45 %
Sensor: Nr:Datum:Temp:Feuchte:
Aussen-T/F 2701 11-04-2021 19:03:17 4.2 C 45 %
2702 11-04-2021 19:13:17 4.1 C 45 %
2703 11-04-2021 19:23:17 4.1 C 46 %
2704 11-04-2021 19:33:17 3.9 C 46 %
2705 11-04-2021 19:43:17 4 C 46 %
2706 11-04-2021 19:53:18 4 C 47 %
2707 11-04-2021 20:03:17 3.7 C 47 %
2708 11-04-2021 20:13:17 3.7 C 47 %
2709 11-04-2021 20:23:17 3.6 C 47 %
2710 11-04-2021 20:33:17 3.4 C 47 %
2711 11-04-2021 20:43:17 3.4 C 47 %
2712 11-04-2021 20:53:18 3.3 C 47 %
2713 11-04-2021 21:03:18 3.3 C 47 %
2714 11-04-2021 21:13:18 3.3 C 47 %
2715 11-04-2021 21:23:17 3.3 C 48 %
2716 11-04-2021 21:33:17 3.1 C 46 %
2717 11-04-2021 21:43:17 3.1 C 48 %
2718 11-04-2021 21:53:17 3.1 C 48 %
2719 11-04-2021 22:03:18 3 C 49 %
2720 11-04-2021 22:13:18 2.9 C 50 %
2721 11-04-2021 22:23:18 2.9 C 51 %
2722 11-04-2021 22:33:18 2.9 C 51 %
2723 11-04-2021 22:43:18 2.9 C 51 %
2724 11-04-2021 22:53:17 3 C 50 %
2725 11-04-2021 23:03:17 3.2 C 50 %
Sensor: Nr:Datum:Temp:Feuchte:
Aussen-T/F 2726 11-04-2021 23:13:17 3.2 C 50 %
2727 11-04-2021 23:23:17 3.4 C 50 %
2728 11-04-2021 23:33:18 3.4 C 50 %
2729 11-04-2021 23:43:18 3.3 C 50 %
2730 11-04-2021 23:53:18 3.3 C 50 %
2731 12-04-2021 00:03:17 3.4 C 50 %
2732 12-04-2021 00:13:17 3.4 C 50 %
2733 12-04-2021 00:23:17 3.4 C 50 %
2734 12-04-2021 00:33:17 3.4 C 50 %
2735 12-04-2021 00:43:17 3.4 C 50 %
2736 12-04-2021 00:53:18 3.3 C 50 %
2737 12-04-2021 01:03:17 3.3 C 50 %
2738 12-04-2021 01:13:17 3.1 C 50 %
2739 12-04-2021 01:23:17 3.1 C 50 %
2740 12-04-2021 01:33:18 3 C 50 %
2741 12-04-2021 01:43:18 3.1 C 50 %
2742 12-04-2021 01:53:18 3 C 49 %
2743 12-04-2021 02:03:17 2.8 C 49 %
2744 12-04-2021 02:13:17 2.5 C 49 %
2745 12-04-2021 02:23:17 2.4 C 50 %
2746 12-04-2021 02:33:17 2.2 C 50 %
2747 12-04-2021 02:43:17 2.1 C 50 %
2748 12-04-2021 02:53:18 2.1 C 50 %
2749 12-04-2021 03:03:17 2.1 C 50 %
2750 12-04-2021 03:13:17 2 C 50 %
Sensor: Nr:Datum:Temp:Feuchte:
Aussen-T/F 2751 12-04-2021 03:23:17 2.2 C 50 %
2752 12-04-2021 03:33:17 2.1 C 50 %
2753 12-04-2021 03:43:17 2 C 48 %
2754 12-04-2021 03:53:17 1.9 C 48 %
2755 12-04-2021 04:03:17 1.8 C 48 %
2756 12-04-2021 04:13:17 1.8 C 47 %
2757 12-04-2021 04:23:18 1.7 C 48 %
2758 12-04-2021 04:33:17 1.3 C 48 %
2759 12-04-2021 04:43:17 1.1 C 49 %
2760 12-04-2021 04:53:17 1.3 C 50 %
2761 12-04-2021 05:03:17 1.2 C 49 %
2762 12-04-2021 05:13:17 1.1 C 49 %
2763 12-04-2021 05:23:18 1.1 C 49 %
2764 12-04-2021 05:33:17 1.2 C 49 %
2765 12-04-2021 05:43:17 1 C 49 %
2766 12-04-2021 05:53:17 1 C 50 %
2767 12-04-2021 06:03:17 1.1 C 50 %
2768 12-04-2021 06:13:17 1 C 50 %
2769 12-04-2021 06:23:18 1.1 C 50 %
2770 12-04-2021 06:33:17 1.3 C 50 %
2771 12-04-2021 06:43:17 1.3 C 49 %
2772 12-04-2021 06:53:18 1.3 C 49 %
2773 12-04-2021 07:03:17 1.4 C 49 %
2774 12-04-2021 07:13:17 1.4 C 49 %
2775 12-04-2021 07:23:17 1.6 C 50 %
Sensor: Nr:Datum:Temp:Feuchte:
Aussen-T/F 2776 12-04-2021 07:33:17 1.7 C 49 %
2777 12-04-2021 07:43:17 1.8 C 49 %
2778 12-04-2021 07:53:18 1.8 C 49 %
2779 12-04-2021 08:03:17 1.7 C 49 %
2780 12-04-2021 08:13:17 1.5 C 50 %
2781 12-04-2021 08:23:17 1.2 C 50 %
2782 12-04-2021 08:33:17 1.5 C 50 %
2783 12-04-2021 08:43:17 1.8 C 50 %
2784 12-04-2021 08:53:17 2.5 C 47 %
2785 12-04-2021 09:03:17 3 C 45 %
2786 12-04-2021 09:13:17 3.8 C 45 %
2787 12-04-2021 09:23:18 3.7 C 43 %
2788 12-04-2021 09:33:17 3.6 C 42 %
2789 12-04-2021 09:43:18 4.2 C 41 %
2790 12-04-2021 09:53:17 4.3 C 40 %
2791 12-04-2021 10:03:17 4.4 C 39 %
2792 12-04-2021 10:13:17 4.4 C 39 %
2793 12-04-2021 10:23:17 4.6 C 39 %
2794 12-04-2021 10:33:18 5.4 C 37 %
2795 12-04-2021 10:43:18 5.6 C 37 %
2796 12-04-2021 10:53:17 5.6 C 36 %
2797 12-04-2021 11:03:17 5.3 C 37 %
2798 12-04-2021 11:13:17 5.9 C 36 %
2799 12-04-2021 11:23:17 5.4 C 37 %
2800 12-04-2021 11:33:17 6.8 C 35 %
Sensor: Nr:Datum:Temp:Feuchte:
Aussen-T/F 2801 12-04-2021 11:43:17 5.8 C 35 %
2802 12-04-2021 11:53:17 7.1 C 35 %
2803 12-04-2021 12:03:17 9.2 C 31 %
2804 12-04-2021 12:13:17 9.2 C 31 %
2805 12-04-2021 12:23:17 9.5 C 30 %
2806 12-04-2021 12:33:17 8.7 C 30 %
2807 12-04-2021 12:43:17 9 C 30 %
2808 12-04-2021 12:53:17 6.2 C 35 %
2809 12-04-2021 13:03:17 4.1 C 41 %
2810 12-04-2021 13:13:17 4.6 C 41 %
2811 12-04-2021 13:23:17 6.4 C 39 %
2812 12-04-2021 13:33:18 5.8 C 40 %
2813 12-04-2021 13:43:18 4.8 C 40 %
2814 12-04-2021 13:53:17 3.9 C 41 %
2815 12-04-2021 14:03:17 4.6 C 40 %
2816 12-04-2021 14:13:17 5.4 C 39 %
2817 12-04-2021 14:23:17 7.2 C 34 %
2818 12-04-2021 14:33:18 11.3 C 29 %
2819 12-04-2021 14:43:18 13.1 C 27 %
2820 12-04-2021 14:53:18 13.7 C 27 %
2821 12-04-2021 15:03:17 14.1 C 25 %
2822 12-04-2021 15:13:17 8.7 C 31 %
2823 12-04-2021 15:23:17 7.5 C 32 %
2824 12-04-2021 15:33:17 5.8 C 38 %
2825 12-04-2021 15:43:17 7.2 C 36 %
Sensor: Nr:Datum:Temp:Feuchte:
Aussen-T/F 2826 12-04-2021 15:53:18 5.2 C 37 %
2827 12-04-2021 16:03:17 3.2 C 40 %
2828 12-04-2021 16:13:17 4.1 C 41 %
2829 12-04-2021 16:23:17 5.1 C 39 %
2830 12-04-2021 16:33:17 9.1 C 31 %
2831 12-04-2021 16:43:17 7.7 C 35 %
2832 12-04-2021 16:53:17 6.8 C 35 %
2833 12-04-2021 17:03:17 6.2 C 35 %
2834 12-04-2021 17:13:17 5.8 C 35 %
2835 12-04-2021 17:23:17 5.6 C 35 %
2836 12-04-2021 17:33:18 6.1 C 35 %
2837 12-04-2021 17:43:18 6.2 C 35 %
2838 12-04-2021 17:53:17 6.5 C 35 %
2839 12-04-2021 18:03:17 6.2 C 34 %
2840 12-04-2021 18:13:17 6.6 C 33 %
2841 12-04-2021 18:23:18 7 C 32 %
2842 12-04-2021 18:33:18 7 C 32 %
2843 12-04-2021 18:43:18 6.7 C 33 %
2844 12-04-2021 18:53:17 6.7 C 33 %
2845 12-04-2021 19:03:17 6.8 C 33 %
2846 12-04-2021 19:13:17 6.1 C 34 %
2847 12-04-2021 19:23:17 6 C 33 %
2848 12-04-2021 19:33:17 5.7 C 35 %
2849 12-04-2021 19:43:17 5.4 C 35 %
2850 12-04-2021 19:53:18 5.1 C 35 %
Sensor: Nr:Datum:Temp:Feuchte:
Aussen-T/F 2851 12-04-2021 20:03:17 4.5 C 37 %
2852 12-04-2021 20:13:17 3.5 C 40 %
2853 12-04-2021 20:23:17 3.6 C 41 %
2854 12-04-2021 20:33:17 3.2 C 41 %
2855 12-04-2021 20:43:17 3.2 C 42 %
2856 12-04-2021 20:53:17 2.7 C 43 %
2857 12-04-2021 21:03:17 2.5 C 43 %
2858 12-04-2021 21:13:17 2.2 C 43 %
2859 12-04-2021 21:23:17 2.4 C 43 %
2860 12-04-2021 21:33:17 2.4 C 43 %
2861 12-04-2021 21:43:17 2.2 C 43 %
2862 12-04-2021 21:53:18 2.1 C 43 %
2863 12-04-2021 22:03:17 2 C 43 %
2864 12-04-2021 22:13:17 1.4 C 46 %
2865 12-04-2021 22:23:17 0.9 C 47 %
2866 12-04-2021 22:33:17 0.9 C 50 %
2867 12-04-2021 22:43:17 1.5 C 46 %
2868 12-04-2021 22:53:17 1.3 C 46 %
2869 12-04-2021 23:03:17 1.1 C 47 %
2870 12-04-2021 23:13:17 0.8 C 48 %
2871 12-04-2021 23:23:17 0.2 C 50 %
2872 12-04-2021 23:33:18 0.1 C 50 %
2873 12-04-2021 23:43:18 -0.1 C 50 %
2874 12-04-2021 23:53:17 -0.5 C 50 %
2875 13-04-2021 00:03:18 -0.4 C 51 %
Sensor: Nr:Datum:Temp:Feuchte:
Aussen-T/F 2876 13-04-2021 00:13:18 -0.7 C 51 %
2877 13-04-2021 00:23:18 -0.9 C 51 %
2878 13-04-2021 00:33:17 -0.7 C 51 %
2879 13-04-2021 00:43:17 -0.8 C 51 %
2880 13-04-2021 00:53:18 -0.9 C 51 %
2881 13-04-2021 01:03:17 -0.9 C 51 %
2882 13-04-2021 01:13:17 -1.2 C 51 %
2883 13-04-2021 01:23:17 -1.2 C 51 %
2884 13-04-2021 01:33:17 -1.1 C 51 %
2885 13-04-2021 01:43:17 -1.4 C 51 %
2886 13-04-2021 01:53:17 -1.4 C 51 %
2887 13-04-2021 02:03:17 -1.3 C 51 %
2888 13-04-2021 02:13:18 -1.5 C 51 %
2889 13-04-2021 02:23:17 -1.6 C 51 %
2890 13-04-2021 02:33:17 -1.7 C 51 %
2891 13-04-2021 02:43:17 -1.7 C 51 %
2892 13-04-2021 02:53:17 -1.8 C 51 %
2893 13-04-2021 03:03:18 -1.8 C 51 %
2894 13-04-2021 03:13:18 -1.8 C 51 %
2895 13-04-2021 03:23:18 -2 C 51 %
2896 13-04-2021 03:33:17 -2.1 C 51 %
2897 13-04-2021 03:43:17 -2.2 C 50 %
2898 13-04-2021 03:53:17 -2.3 C 50 %
2899 13-04-2021 04:03:17 -2.3 C 50 %
2900 13-04-2021 04:13:17 -2.4 C 50 %
Sensor: Nr:Datum:Temp:Feuchte:
Aussen-T/F 2901 13-04-2021 04:23:18 -2.5 C 50 %
2902 13-04-2021 04:33:17 -2.4 C 50 %
2903 13-04-2021 04:43:17 -2.3 C 50 %
2904 13-04-2021 04:53:18 -2.4 C 50 %
2905 13-04-2021 05:03:17 -2.3 C 50 %
2906 13-04-2021 05:13:17 -2.2 C 50 %
2907 13-04-2021 05:23:17 -2.4 C 50 %
2908 13-04-2021 05:33:17 -2.4 C 50 %
2909 13-04-2021 05:43:17 -2.1 C 50 %
2910 13-04-2021 05:53:18 -2.3 C 50 %
2911 13-04-2021 06:03:17 -2.5 C 50 %
2912 13-04-2021 06:13:17 -2.2 C 50 %
2913 13-04-2021 06:23:17 -2 C 50 %
2914 13-04-2021 06:33:18 -2.4 C 50 %
2915 13-04-2021 06:43:18 -2.2 C 50 %
2916 13-04-2021 06:53:17 -2.6 C 50 %
2917 13-04-2021 07:03:17 -2.4 C 50 %
2918 13-04-2021 07:13:17 -2.2 C 50 %
2919 13-04-2021 07:23:17 -2.1 C 50 %
2920 13-04-2021 07:33:18 -1.9 C 50 %
2921 13-04-2021 07:43:18 -1.8 C 50 %
2922 13-04-2021 07:53:17 -1.5 C 50 %
2923 13-04-2021 08:03:17 -1.3 C 50 %
2924 13-04-2021 08:13:17 -0.9 C 50 %
2925 13-04-2021 08:23:17 -0.4 C 50 %
Sensor: Nr:Datum:Temp:Feuchte:
Aussen-T/F 2926 13-04-2021 08:33:18 -0.3 C 50 %
2927 13-04-2021 08:43:18 0.1 C 50 %
2928 13-04-2021 08:53:18 0.1 C 50 %
2929 13-04-2021 09:03:17 0.3 C 50 %
2930 13-04-2021 09:13:17 0.7 C 51 %
2931 13-04-2021 09:23:18 0.7 C 50 %
2932 13-04-2021 09:33:17 1.2 C 48 %
2933 13-04-2021 09:43:17 1.9 C 47 %
2934 13-04-2021 09:53:17 2.4 C 47 %
2935 13-04-2021 10:03:17 2.3 C 43 %
2936 13-04-2021 10:13:17 2.3 C 44 %
2937 13-04-2021 10:23:17 2.7 C 44 %
2938 13-04-2021 10:33:18 4 C 42 %
2939 13-04-2021 10:43:18 4 C 40 %
2940 13-04-2021 10:53:18 4.9 C 40 %
2941 13-04-2021 11:03:17 5.4 C 38 %
2942 13-04-2021 11:13:17 4.8 C 39 %
2943 13-04-2021 11:23:17 4.7 C 39 %
2944 13-04-2021 11:33:17 5.6 C 38 %
2945 13-04-2021 11:43:17 5.7 C 37 %
2946 13-04-2021 11:53:17 6.8 C 36 %
2947 13-04-2021 12:03:18 6.8 C 35 %
2948 13-04-2021 12:13:18 5.6 C 36 %
2949 13-04-2021 12:23:17 5.4 C 36 %
2950 13-04-2021 12:33:17 5.8 C 36 %
Sensor: Nr:Datum:Temp:Feuchte:
Aussen-T/F 2951 13-04-2021 12:43:17 6.7 C 35 %
2952 13-04-2021 12:53:17 6.8 C 35 %
2953 13-04-2021 13:03:17 6.7 C 35 %
2954 13-04-2021 13:13:17 8.1 C 33 %
2955 13-04-2021 13:23:17 6.9 C 34 %
2956 13-04-2021 13:33:18 6.8 C 33 %
2957 13-04-2021 13:43:18 7.4 C 32 %
2958 13-04-2021 13:53:18 7.9 C 30 %
2959 13-04-2021 14:03:17 7.9 C 31 %
2960 13-04-2021 14:13:17 7.7 C 31 %
2961 13-04-2021 14:23:17 9.6 C 29 %
2962 13-04-2021 14:33:29 8.9 C 30 %
2963 13-04-2021 14:43:29 10.6 C 28 %
2964 13-04-2021 14:53:17 10.5 C 26 %
2965 13-04-2021 15:03:18 8.9 C 27 %
2966 13-04-2021 15:13:18 9 C 28 %
2967 13-04-2021 15:23:18 11.9 C 25 %
2968 13-04-2021 15:33:17 12.6 C 25 %
2969 13-04-2021 15:43:17 13.2 C 21 %
2970 13-04-2021 15:53:17 14.6 C 20 %
2971 13-04-2021 16:03:17 14.2 C 20 %
2972 13-04-2021 16:13:17 13.5 C 20 %
2973 13-04-2021 16:23:17 15.1 C 20 %
2974 13-04-2021 16:33:17 11 C 22 %
2975 13-04-2021 16:43:17 13.8 C 20 %
Sensor: Nr:Datum:Temp:Feuchte:
Aussen-T/F 2976 13-04-2021 16:53:17 11.1 C 22 %
2977 13-04-2021 17:03:17 9.5 C 25 %
2978 13-04-2021 17:13:17 7.6 C 29 %
2979 13-04-2021 17:23:17 7.3 C 30 %
2980 13-04-2021 17:33:17 8.3 C 29 %
2981 13-04-2021 17:43:17 8.2 C 28 %
2982 13-04-2021 17:53:18 7.6 C 28 %
2983 13-04-2021 18:03:17 7.7 C 29 %
2984 13-04-2021 18:13:17 8.7 C 27 %
2985 13-04-2021 18:23:17 9 C 27 %
2986 13-04-2021 18:33:17 9.1 C 26 %
2987 13-04-2021 18:43:17 8.7 C 27 %
2988 13-04-2021 18:53:17 7.9 C 28 %
2989 13-04-2021 19:03:17 7.5 C 28 %
2990 13-04-2021 19:13:17 6.9 C 31 %
2991 13-04-2021 19:23:17 6.6 C 31 %
2992 13-04-2021 19:33:17 6.4 C 31 %
2993 13-04-2021 19:43:17 6 C 32 %
2994 13-04-2021 19:53:18 5.5 C 35 %
2995 13-04-2021 20:03:17 5.2 C 35 %
2996 13-04-2021 20:13:18 4.8 C 36 %
2997 13-04-2021 20:23:17 4.5 C 36 %
2998 13-04-2021 20:33:17 4.3 C 37 %
2999 13-04-2021 20:43:17 4.2 C 37 %
3000 13-04-2021 20:53:17 4.1 C 37 %
Sensor: Nr:Datum:Temp:Feuchte:
Aussen-T/F 3001 13-04-2021 21:03:17 3.8 C 39 %
3002 13-04-2021 21:13:17 3.5 C 39 %
3003 13-04-2021 21:23:17 3.4 C 40 %
3004 13-04-2021 21:33:17 3.4 C 39 %
3005 13-04-2021 21:43:17 4 C 38 %
3006 13-04-2021 21:53:18 3.9 C 40 %
3007 13-04-2021 22:03:17 3.7 C 40 %
3008 13-04-2021 22:13:17 3.6 C 40 %
3009 13-04-2021 22:23:17 3.3 C 40 %
3010 13-04-2021 22:33:17 3.2 C 40 %
3011 13-04-2021 22:43:17 2.5 C 41 %
3012 13-04-2021 22:53:17 2.4 C 42 %
3013 13-04-2021 23:03:17 1.4 C 45 %
3014 13-04-2021 23:13:17 2.1 C 43 %
3015 13-04-2021 23:23:17 1.7 C 44 %
3016 13-04-2021 23:33:18 1.1 C 44 %
3017 13-04-2021 23:43:18 0.9 C 47 %
3018 13-04-2021 23:53:17 0.4 C 47 %
3019 14-04-2021 00:03:17 0.2 C 48 %
3020 14-04-2021 00:13:17 0 C 49 %
3021 14-04-2021 00:23:17 -0.2 C 48 %
3022 14-04-2021 00:33:18 -0.5 C 49 %
3023 14-04-2021 00:43:18 -0.4 C 50 %
3024 14-04-2021 00:53:18 -0.8 C 49 %
3025 14-04-2021 01:03:17 -0.7 C 49 %
Sensor: Nr:Datum:Temp:Feuchte:
Aussen-T/F 3026 14-04-2021 01:13:17 -0.9 C 49 %
3027 14-04-2021 01:23:17 -1.1 C 50 %
3028 14-04-2021 01:33:17 -1.1 C 49 %
3029 14-04-2021 01:43:17 -1.1 C 49 %
3030 14-04-2021 01:53:17 -1.3 C 49 %
3031 14-04-2021 02:03:17 -1.2 C 50 %
3032 14-04-2021 02:13:17 -1.3 C 50 %
3033 14-04-2021 02:23:17 -1.5 C 50 %
3034 14-04-2021 02:33:17 -1.4 C 50 %
3035 14-04-2021 02:43:17 -1.6 C 50 %
3036 14-04-2021 02:53:17 -1.5 C 50 %
3037 14-04-2021 03:03:18 -1.7 C 50 %
3038 14-04-2021 03:13:18 -1.7 C 50 %
3039 14-04-2021 03:23:18 -1.8 C 50 %
3040 14-04-2021 03:33:17 -1.9 C 50 %
3041 14-04-2021 03:43:17 -2 C 50 %
3042 14-04-2021 03:53:17 -1.9 C 50 %
3043 14-04-2021 04:03:17 -1.9 C 51 %
3044 14-04-2021 04:13:17 -1.8 C 51 %
3045 14-04-2021 04:23:17 -2 C 50 %
3046 14-04-2021 04:33:18 -2.1 C 51 %
3047 14-04-2021 04:43:18 -1.9 C 51 %
3048 14-04-2021 04:53:17 -1.8 C 51 %
3049 14-04-2021 05:03:17 -2.1 C 50 %
3050 14-04-2021 05:13:17 -2.1 C 51 %
Sensor: Nr:Datum:Temp:Feuchte:
Aussen-T/F 3051 14-04-2021 05:23:17 -2.4 C 50 %
3052 14-04-2021 05:33:17 -2.4 C 50 %
3053 14-04-2021 05:43:17 -2.6 C 50 %
3054 14-04-2021 05:53:18 -2.6 C 50 %
3055 14-04-2021 06:03:17 -2.7 C 50 %
3056 14-04-2021 06:13:17 -2.7 C 50 %
3057 14-04-2021 06:23:17 -2.5 C 51 %
3058 14-04-2021 06:33:17 -2.7 C 50 %
3059 14-04-2021 06:43:17 -2.6 C 50 %
3060 14-04-2021 06:53:17 -2.8 C 50 %
3061 14-04-2021 07:03:17 -2.9 C 50 %
3062 14-04-2021 07:13:17 -2.8 C 50 %
3063 14-04-2021 07:23:17 -2.8 C 50 %
3064 14-04-2021 07:33:17 -2.6 C 50 %
3065 14-04-2021 07:43:18 -2.4 C 50 %
3066 14-04-2021 07:53:17 -2.3 C 50 %
3067 14-04-2021 08:03:17 -2.1 C 51 %
3068 14-04-2021 08:13:17 -2.1 C 50 %
3069 14-04-2021 08:23:17 -2.2 C 50 %
3070 14-04-2021 08:33:17 -1.8 C 51 %
3071 14-04-2021 08:43:17 -1.5 C 51 %
3072 14-04-2021 08:53:18 -1.4 C 51 %
3073 14-04-2021 09:03:17 -1.2 C 51 %
3074 14-04-2021 09:13:18 -0.9 C 51 %
3075 14-04-2021 09:23:17 -0.9 C 51 %
Sensor: Nr:Datum:Temp:Feuchte:
Aussen-T/F 3076 14-04-2021 09:33:17 -0.3 C 51 %
3077 14-04-2021 09:43:17 0.2 C 51 %
3078 14-04-2021 09:53:17 0.6 C 50 %
3079 14-04-2021 10:03:17 0.8 C 49 %
3080 14-04-2021 10:13:17 1.1 C 47 %
3081 14-04-2021 10:23:17 1.4 C 47 %
3082 14-04-2021 10:33:17 2.2 C 45 %
3083 14-04-2021 10:43:17 2.7 C 44 %
3084 14-04-2021 10:53:17 4 C 41 %
3085 14-04-2021 11:03:17 4.7 C 39 %
3086 14-04-2021 11:13:17 5.7 C 35 %
3087 14-04-2021 11:23:17 8.2 C 30 %
3088 14-04-2021 11:33:17 9.1 C 26 %
3089 14-04-2021 11:43:17 9.8 C 26 %
3090 14-04-2021 11:53:17 9.4 C 25 %
3091 14-04-2021 12:03:17 9.2 C 25 %
3092 14-04-2021 12:13:17 8 C 25 %
3093 14-04-2021 12:23:17 8.2 C 25 %
3094 14-04-2021 12:33:18 7.3 C 25 %
3095 14-04-2021 12:43:18 7.7 C 25 %
3096 14-04-2021 12:53:18 9.6 C 23 %
3097 14-04-2021 13:03:17 9.2 C 20 %
3098 14-04-2021 13:13:17 8.8 C 25 %
3099 14-04-2021 13:23:17 8.4 C 25 %
3100 14-04-2021 13:33:17 8.9 C 25 %
Sensor: Nr:Datum:Temp:Feuchte:
Aussen-T/F 3101 14-04-2021 13:43:17 7.6 C 23 %
3102 14-04-2021 13:53:18 7.9 C 26 %
3103 14-04-2021 14:03:17 7.2 C 25 %
3104 14-04-2021 14:13:17 9.6 C 26 %
3105 14-04-2021 14:23:17 9.3 C 26 %
3106 14-04-2021 14:33:17 8.5 C 27 %
3107 14-04-2021 14:43:17 11 C 25 %
3108 14-04-2021 14:53:17 10.1 C 26 %
3109 14-04-2021 15:03:17 12.5 C 22 %
3110 14-04-2021 15:13:18 13.8 C 20 %
3111 14-04-2021 15:23:17 9.3 C 25 %
3112 14-04-2021 15:33:17 11.4 C 22 %
3113 14-04-2021 15:43:17 11.2 C 20 %
3114 14-04-2021 15:53:18 8.7 C 25 %
3115 14-04-2021 16:03:17 11.6 C 20 %
3116 14-04-2021 16:13:17 12.9 C 20 %
3117 14-04-2021 16:23:17 14.1 C 20 %
3118 14-04-2021 16:33:17 12.8 C 20 %
3119 14-04-2021 16:43:17 14 C 20 %
3120 14-04-2021 16:53:17 10.9 C 20 %
3121 14-04-2021 17:03:17 7.8 C 30 %
3122 14-04-2021 17:13:17 8.9 C 30 %
3123 14-04-2021 17:23:17 7.5 C 30 %
3124 14-04-2021 17:33:17 7.2 C 31 %
3125 14-04-2021 17:43:17 7.9 C 30 %
Sensor: Nr:Datum:Temp:Feuchte:
Aussen-T/F 3126 14-04-2021 17:53:18 7.7 C 30 %
3127 14-04-2021 18:03:18 8.1 C 29 %
3128 14-04-2021 18:13:18 7.2 C 29 %
3129 14-04-2021 18:23:18 6.7 C 30 %
3130 14-04-2021 18:33:17 6.6 C 30 %
3131 14-04-2021 18:43:17 6.3 C 30 %
3132 14-04-2021 18:53:17 6.5 C 30 %
3133 14-04-2021 19:03:17 7.3 C 29 %
3134 14-04-2021 19:13:17 6.5 C 32 %
3135 14-04-2021 19:23:17 5.3 C 35 %
3136 14-04-2021 19:33:17 4.7 C 37 %
3137 14-04-2021 19:43:17 4.6 C 37 %
3138 14-04-2021 19:53:17 4.7 C 37 %
3139 14-04-2021 20:03:17 4.8 C 38 %
3140 14-04-2021 20:13:17 4.3 C 38 %
3141 14-04-2021 20:23:17 3.7 C 40 %
3142 14-04-2021 20:33:18 3.6 C 39 %
3143 14-04-2021 20:43:18 3.3 C 39 %
3144 14-04-2021 20:53:17 3.2 C 40 %
3145 14-04-2021 21:03:17 3 C 40 %
3146 14-04-2021 21:13:17 2.8 C 41 %
3147 14-04-2021 21:23:17 2.6 C 42 %
3148 14-04-2021 21:33:17 2.5 C 42 %
3149 14-04-2021 21:43:17 2.4 C 43 %
3150 14-04-2021 21:53:18 2.6 C 42 %
Sensor: Nr:Datum:Temp:Feuchte:
Aussen-T/F 3151 14-04-2021 22:03:17 3.2 C 41 %
3152 14-04-2021 22:13:18 3.1 C 41 %
3153 14-04-2021 22:23:17 2.9 C 43 %
3154 14-04-2021 22:33:17 2.7 C 43 %
3155 14-04-2021 22:43:17 2.3 C 43 %
3156 14-04-2021 22:53:18 2.3 C 43 %
3157 14-04-2021 23:03:17 2.2 C 43 %
3158 14-04-2021 23:13:17 1.6 C 45 %
3159 14-04-2021 23:23:17 1.3 C 45 %
3160 14-04-2021 23:33:17 1.3 C 45 %
3161 14-04-2021 23:43:17 1.4 C 46 %
3162 14-04-2021 23:53:17 1.1 C 45 %
3163 15-04-2021 00:03:17 0.9 C 48 %
3164 15-04-2021 00:13:17 1.7 C 46 %
3165 15-04-2021 00:23:17 1 C 46 %
3166 15-04-2021 00:33:18 0.2 C 47 %
3167 15-04-2021 00:43:18 0.5 C 49 %
3168 15-04-2021 00:53:18 -0.1 C 48 %
3169 15-04-2021 01:03:17 1 C 47 %
3170 15-04-2021 01:13:17 0.8 C 47 %
3171 15-04-2021 01:23:17 -0.4 C 47 %
3172 15-04-2021 01:33:18 -0.9 C 49 %
3173 15-04-2021 01:43:18 -0.4 C 51 %
3174 15-04-2021 01:53:17 -1 C 50 %
3175 15-04-2021 02:03:17 -1.1 C 50 %
Sensor: Nr:Datum:Temp:Feuchte:
Aussen-T/F 3176 15-04-2021 02:13:17 -1.1 C 51 %
3177 15-04-2021 02:23:17 -1.2 C 51 %
3178 15-04-2021 02:33:17 -1.3 C 51 %
3179 15-04-2021 02:43:17 -1.1 C 51 %
3180 15-04-2021 02:53:18 -1.2 C 51 %
3181 15-04-2021 03:03:17 -1.3 C 51 %
3182 15-04-2021 03:13:17 -1.3 C 51 %
3183 15-04-2021 03:23:17 -1.5 C 51 %
3184 15-04-2021 03:33:17 -1.7 C 51 %
3185 15-04-2021 03:43:17 -1.5 C 51 %
3186 15-04-2021 03:53:17 -1.7 C 51 %
3187 15-04-2021 04:03:17 -1.8 C 51 %
3188 15-04-2021 04:13:17 -1.8 C 51 %
3189 15-04-2021 04:23:17 -1.8 C 51 %
3190 15-04-2021 04:33:17 -1.7 C 51 %
3191 15-04-2021 04:43:17 -1.9 C 51 %
3192 15-04-2021 04:53:18 -1.4 C 51 %
3193 15-04-2021 05:03:17 -1.1 C 51 %
3194 15-04-2021 05:13:18 -1.3 C 50 %
3195 15-04-2021 05:23:17 -1.4 C 50 %
3196 15-04-2021 05:33:17 -1.8 C 50 %
3197 15-04-2021 05:43:17 -1.6 C 50 %
3198 15-04-2021 05:53:18 -1.5 C 50 %
3199 15-04-2021 06:03:17 -1.8 C 50 %
3200 15-04-2021 06:13:17 -1.9 C 50 %
Sensor: Nr:Datum:Temp:Feuchte:
Aussen-T/F 3201 15-04-2021 06:23:17 -1.8 C 50 %
3202 15-04-2021 06:33:18 -2.1 C 50 %
3203 15-04-2021 06:43:18 -2.1 C 50 %
3204 15-04-2021 06:53:17 -2.1 C 50 %
3205 15-04-2021 07:03:18 -1.9 C 50 %
3206 15-04-2021 07:13:18 -1.6 C 50 %
3207 15-04-2021 07:23:18 -1.6 C 50 %
3208 15-04-2021 07:33:17 -1.7 C 50 %
3209 15-04-2021 07:43:17 -1.6 C 50 %
3210 15-04-2021 07:53:17 -1.6 C 50 %
3211 15-04-2021 08:03:17 -1.4 C 50 %
3212 15-04-2021 08:13:17 -1.3 C 50 %
3213 15-04-2021 08:23:17 -1.2 C 50 %
3214 15-04-2021 08:33:17 -1.2 C 50 %
3215 15-04-2021 08:43:17 -0.8 C 51 %
3216 15-04-2021 08:53:17 -0.7 C 51 %
3217 15-04-2021 09:03:17 -0.6 C 51 %
3218 15-04-2021 09:13:17 0 C 51 %
3219 15-04-2021 09:23:17 0.4 C 51 %
3220 15-04-2021 09:33:17 0.6 C 51 %
3221 15-04-2021 09:43:17 0.8 C 51 %
3222 15-04-2021 09:53:18 1.2 C 50 %
3223 15-04-2021 10:03:17 1.6 C 49 %
3224 15-04-2021 10:13:17 1.8 C 49 %
3225 15-04-2021 10:23:17 2.5 C 46 %
Sensor: Nr:Datum:Temp:Feuchte:
Aussen-T/F 3226 15-04-2021 10:33:17 3.1 C 44 %
3227 15-04-2021 10:43:17 3.8 C 43 %
3228 15-04-2021 10:53:17 4.5 C 41 %
3229 15-04-2021 11:03:17 5.6 C 39 %
3230 15-04-2021 11:13:17 6.5 C 36 %
3231 15-04-2021 11:23:17 8.1 C 35 %
3232 15-04-2021 11:33:17 7.5 C 34 %
3233 15-04-2021 11:43:17 7.5 C 34 %
3234 15-04-2021 11:53:18 8.2 C 32 %
3235 15-04-2021 12:03:17 8.5 C 31 %
3236 15-04-2021 12:13:17 8.4 C 30 %
3237 15-04-2021 12:23:17 9.9 C 30 %
3238 15-04-2021 12:33:17 8.4 C 30 %
3239 15-04-2021 12:43:17 7.9 C 31 %
3240 15-04-2021 12:53:17 6.2 C 33 %
3241 15-04-2021 13:03:17 6.1 C 35 %
3242 15-04-2021 13:13:17 8.4 C 32 %
3243 15-04-2021 13:23:17 9.4 C 31 %
3244 15-04-2021 13:33:18 9.5 C 30 %
3245 15-04-2021 13:43:18 9.8 C 30 %
3246 15-04-2021 13:53:17 9.2 C 28 %
3247 15-04-2021 14:03:17 8.9 C 29 %
3248 15-04-2021 14:13:17 9.8 C 28 %
3249 15-04-2021 14:23:17 13.3 C 25 %
3250 15-04-2021 14:33:17 9.8 C 27 %
Sensor: Nr:Datum:Temp:Feuchte:
Aussen-T/F 3251 15-04-2021 14:43:17 8.2 C 29 %
3252 15-04-2021 14:53:17 8.2 C 30 %
3253 15-04-2021 15:03:17 10.2 C 27 %
3254 15-04-2021 15:13:17 11.8 C 27 %
3255 15-04-2021 15:23:17 13.6 C 24 %
3256 15-04-2021 15:33:18 11.4 C 25 %
3257 15-04-2021 15:43:18 10.2 C 26 %
3258 15-04-2021 15:53:17 12.7 C 25 %
3259 15-04-2021 16:03:17 8.4 C 30 %
3260 15-04-2021 16:13:17 6.4 C 34 %
3261 15-04-2021 16:23:17 5.9 C 40 %
3262 15-04-2021 16:33:17 5.6 C 39 %
3263 15-04-2021 16:43:17 6 C 38 %
3264 15-04-2021 16:53:17 8.2 C 34 %
3265 15-04-2021 17:03:18 10.4 C 32 %
3266 15-04-2021 17:13:18 8.5 C 30 %
3267 15-04-2021 17:23:18 9.2 C 31 %
3268 15-04-2021 17:33:17 7.9 C 32 %
3269 15-04-2021 17:43:17 8 C 32 %
3270 15-04-2021 17:53:17 8.2 C 31 %
3271 15-04-2021 18:03:17 9.4 C 30 %
3272 15-04-2021 18:13:17 10 C 29 %
3273 15-04-2021 18:23:17 8.9 C 30 %
3274 15-04-2021 18:33:18 8 C 30 %
3275 15-04-2021 18:43:18 7.9 C 31 %
Sensor: Nr:Datum:Temp:Feuchte:
Aussen-T/F 3276 15-04-2021 18:53:17 7.9 C 31 %
3277 15-04-2021 19:03:17 8.4 C 30 %
3278 15-04-2021 19:13:17 7.9 C 30 %
3279 15-04-2021 19:23:17 7.3 C 30 %
3280 15-04-2021 19:33:18 6.8 C 31 %
3281 15-04-2021 19:43:18 6.8 C 32 %
3282 15-04-2021 19:53:17 6.5 C 33 %
3283 15-04-2021 20:03:17 6 C 35 %
3284 15-04-2021 20:13:17 5.5 C 35 %
3285 15-04-2021 20:23:17 5.2 C 36 %
3286 15-04-2021 20:33:18 5.3 C 36 %
3287 15-04-2021 20:43:18 5.4 C 36 %
3288 15-04-2021 20:53:17 5.1 C 36 %
3289 15-04-2021 21:03:17 5 C 36 %
3290 15-04-2021 21:13:17 4.9 C 37 %
3291 15-04-2021 21:23:17 4.7 C 38 %
3292 15-04-2021 21:33:17 5 C 37 %
3293 15-04-2021 21:43:17 4.8 C 38 %
3294 15-04-2021 21:53:17 3.8 C 41 %
3295 15-04-2021 22:03:17 3.3 C 41 %
3296 15-04-2021 22:13:17 3.6 C 40 %
3297 15-04-2021 22:23:18 3.2 C 40 %
3298 15-04-2021 22:33:17 3 C 41 %
3299 15-04-2021 22:43:17 2.1 C 42 %
3300 15-04-2021 22:53:17 1.6 C 44 %
Sensor: Nr:Datum:Temp:Feuchte:
Aussen-T/F 3301 15-04-2021 23:03:17 1.5 C 44 %
3302 15-04-2021 23:13:17 1.1 C 44 %
3303 15-04-2021 23:23:17 1.3 C 45 %
3304 15-04-2021 23:33:17 1.7 C 43 %
3305 15-04-2021 23:43:17 0.7 C 45 %
3306 15-04-2021 23:53:17 0.4 C 45 %
3307 16-04-2021 00:03:17 0.5 C 46 %
3308 16-04-2021 00:13:17 0.8 C 45 %
3309 16-04-2021 00:23:17 0.5 C 45 %
3310 16-04-2021 00:33:17 0 C 46 %
3311 16-04-2021 00:43:17 -0.4 C 47 %
3312 16-04-2021 00:53:18 -0.4 C 47 %
3313 16-04-2021 01:03:17 -0.3 C 48 %
3314 16-04-2021 01:13:18 -0.2 C 48 %
3315 16-04-2021 01:23:17 -0.3 C 46 %
3316 16-04-2021 01:33:17 -0.5 C 47 %
3317 16-04-2021 01:43:17 -0.6 C 46 %
3318 16-04-2021 01:53:17 -0.6 C 47 %
3319 16-04-2021 02:03:17 -0.7 C 47 %
3320 16-04-2021 02:13:17 -0.6 C 48 %
3321 16-04-2021 02:23:17 -0.5 C 48 %
3322 16-04-2021 02:33:17 0 C 48 %
3323 16-04-2021 02:43:17 0.1 C 47 %
3324 16-04-2021 02:53:17 0.4 C 47 %
3325 16-04-2021 03:03:17 0.7 C 46 %
Sensor: Nr:Datum:Temp:Feuchte:
Aussen-T/F 3326 16-04-2021 03:13:17 0.7 C 46 %
3327 16-04-2021 03:23:17 0.7 C 46 %
3328 16-04-2021 03:33:17 0.7 C 46 %
3329 16-04-2021 03:43:17 1 C 45 %
3330 16-04-2021 03:53:18 1.1 C 45 %
3331 16-04-2021 04:03:17 1.1 C 45 %
3332 16-04-2021 04:13:17 1.1 C 44 %
3333 16-04-2021 04:23:17 1 C 44 %
3334 16-04-2021 04:33:17 1.1 C 45 %
3335 16-04-2021 04:43:17 1.3 C 44 %
3336 16-04-2021 04:53:17 1.3 C 44 %
3337 16-04-2021 05:03:17 1.1 C 43 %
3338 16-04-2021 05:13:17 1 C 45 %
3339 16-04-2021 05:23:17 1 C 45 %
3340 16-04-2021 05:33:17 1 C 45 %
3341 16-04-2021 05:43:17 0.8 C 46 %
3342 16-04-2021 05:53:17 1.3 C 45 %
3343 16-04-2021 06:03:17 1.3 C 45 %
3344 16-04-2021 06:13:17 1.4 C 44 %
3345 16-04-2021 06:23:18 1.4 C 44 %
3346 16-04-2021 06:33:18 1.2 C 45 %
3347 16-04-2021 06:43:18 1.1 C 45 %
3348 16-04-2021 06:53:17 1.1 C 45 %
3349 16-04-2021 07:03:17 1.3 C 45 %
3350 16-04-2021 07:13:17 1.4 C 45 %
Sensor: Nr:Datum:Temp:Feuchte:
Aussen-T/F 3351 16-04-2021 07:23:17 1.7 C 45 %
3352 16-04-2021 07:33:17 1.8 C 45 %
3353 16-04-2021 07:43:17 1.7 C 44 %
3354 16-04-2021 07:53:18 1.4 C 45 %
3355 16-04-2021 08:03:17 1.4 C 45 %
3356 16-04-2021 08:13:17 2 C 45 %
3357 16-04-2021 08:23:17 2.6 C 43 %
3358 16-04-2021 08:33:17 3.2 C 41 %
3359 16-04-2021 08:43:17 3.8 C 40 %
3360 16-04-2021 08:53:17 4.2 C 40 %
3361 16-04-2021 09:03:17 4.3 C 37 %
3362 16-04-2021 09:13:17 4.8 C 37 %
3363 16-04-2021 09:23:17 5 C 36 %
3364 16-04-2021 09:33:17 5.1 C 35 %
3365 16-04-2021 09:43:17 5.5 C 35 %
3366 16-04-2021 09:53:17 5.8 C 34 %
3367 16-04-2021 10:03:18 5.8 C 34 %
3368 16-04-2021 10:13:18 5.9 C 35 %
3369 16-04-2021 10:23:17 6.5 C 34 %
3370 16-04-2021 10:33:17 6.6 C 33 %
3371 16-04-2021 10:43:17 7 C 31 %
3372 16-04-2021 10:53:17 7.3 C 30 %
3373 16-04-2021 11:03:18 7.5 C 30 %
3374 16-04-2021 11:13:18 7.8 C 30 %
3375 16-04-2021 11:23:17 7.9 C 30 %
Sensor: Nr:Datum:Temp:Feuchte:
Aussen-T/F 3376 16-04-2021 11:33:17 8.5 C 30 %
3377 16-04-2021 11:43:17 8.7 C 29 %
3378 16-04-2021 11:53:17 8.7 C 29 %
3379 16-04-2021 12:03:17 8.6 C 29 %
3380 16-04-2021 12:13:17 8.4 C 29 %
3381 16-04-2021 12:23:17 8.3 C 29 %
3382 16-04-2021 12:33:17 8.7 C 29 %
3383 16-04-2021 12:43:17 9.2 C 27 %
3384 16-04-2021 12:53:18 9.7 C 27 %
3385 16-04-2021 13:03:18 10.1 C 26 %
3386 16-04-2021 13:13:18 10.6 C 26 %
3387 16-04-2021 13:23:17 9.7 C 26 %
3388 16-04-2021 13:33:17 9.6 C 27 %
3389 16-04-2021 13:43:17 9 C 27 %
3390 16-04-2021 13:53:18 9 C 27 %
3391 16-04-2021 14:03:17 9 C 27 %
3392 16-04-2021 14:13:17 9.4 C 28 %
3393 16-04-2021 14:23:17 9.2 C 28 %
3394 16-04-2021 14:33:17 9.6 C 28 %
3395 16-04-2021 14:43:17 8.9 C 28 %
3396 16-04-2021 14:53:18 9 C 28 %
3397 16-04-2021 15:03:17 9.1 C 28 %
3398 16-04-2021 15:13:18 9.1 C 28 %
3399 16-04-2021 15:23:17 9.2 C 28 %
3400 16-04-2021 15:33:17 9 C 28 %
Sensor: Nr:Datum:Temp:Feuchte:
Aussen-T/F 3401 16-04-2021 15:43:17 9 C 28 %
3402 16-04-2021 15:53:17 9.2 C 28 %
3403 16-04-2021 16:03:17 9.5 C 28 %
3404 16-04-2021 16:13:17 10 C 27 %
3405 16-04-2021 16:23:17 10.4 C 27 %
3406 16-04-2021 16:33:17 9.2 C 28 %
3407 16-04-2021 16:43:17 9.6 C 28 %
3408 16-04-2021 16:53:17 9.8 C 28 %
3409 16-04-2021 17:03:17 10.3 C 28 %
3410 16-04-2021 17:13:17 10.7 C 28 %
3411 16-04-2021 17:23:17 10.1 C 27 %
3412 16-04-2021 17:33:17 9.7 C 29 %
3413 16-04-2021 17:43:17 9.2 C 29 %
3414 16-04-2021 17:53:18 9.4 C 29 %
3415 16-04-2021 18:03:17 9.8 C 29 %
3416 16-04-2021 18:13:17 9.6 C 29 %
3417 16-04-2021 18:23:17 9.5 C 29 %
3418 16-04-2021 18:33:17 9.3 C 29 %
3419 16-04-2021 18:43:17 9.3 C 29 %
3420 16-04-2021 18:53:18 9.2 C 30 %
3421 16-04-2021 19:03:17 9.1 C 29 %
3422 16-04-2021 19:13:17 9 C 30 %
3423 16-04-2021 19:23:17 8.7 C 30 %
3424 16-04-2021 19:33:18 8.5 C 31 %
3425 16-04-2021 19:43:18 8.3 C 32 %
Sensor: Nr:Datum:Temp:Feuchte:
Aussen-T/F 3426 16-04-2021 19:53:17 8.1 C 32 %
3427 16-04-2021 20:03:17 7.8 C 33 %
3428 16-04-2021 20:13:17 7.3 C 33 %
3429 16-04-2021 20:23:17 6.9 C 35 %
3430 16-04-2021 20:33:17 6.7 C 35 %
3431 16-04-2021 20:43:17 6.3 C 35 %
3432 16-04-2021 20:53:18 5.8 C 36 %
3433 16-04-2021 21:03:17 5.9 C 36 %
3434 16-04-2021 21:13:18 5.7 C 37 %
3435 16-04-2021 21:23:17 5.6 C 37 %
3436 16-04-2021 21:33:17 5.9 C 37 %
3437 16-04-2021 21:43:17 5.9 C 37 %
3438 16-04-2021 21:53:17 5.4 C 38 %
3439 16-04-2021 22:03:17 5.3 C 38 %
3440 16-04-2021 22:13:17 5.3 C 38 %
3441 16-04-2021 22:23:17 4.9 C 40 %
3442 16-04-2021 22:33:17 4.7 C 40 %
3443 16-04-2021 22:43:17 4.6 C 41 %
3444 16-04-2021 22:53:17 4.5 C 40 %
3445 16-04-2021 23:03:17 4.4 C 41 %
3446 16-04-2021 23:13:17 4.2 C 41 %
3447 16-04-2021 23:23:17 4 C 41 %
3448 16-04-2021 23:33:17 3.7 C 42 %
3449 16-04-2021 23:43:17 3.8 C 42 %
3450 16-04-2021 23:53:17 3.8 C 42 %
Sensor: Nr:Datum:Temp:Feuchte:
Aussen-T/F 3451 17-04-2021 00:03:18 4 C 41 %
3452 17-04-2021 00:13:18 3.8 C 42 %
3453 17-04-2021 00:23:17 3.7 C 42 %
3454 17-04-2021 00:33:17 4 C 41 %
3455 17-04-2021 00:43:17 4 C 41 %
3456 17-04-2021 00:53:18 3.9 C 43 %
3457 17-04-2021 01:03:17 3.9 C 43 %
3458 17-04-2021 01:13:17 3.7 C 42 %
3459 17-04-2021 01:23:17 3.5 C 42 %
3460 17-04-2021 01:33:17 3.2 C 42 %
3461 17-04-2021 01:43:17 3.4 C 43 %
3462 17-04-2021 01:53:18 3.4 C 43 %
3463 17-04-2021 02:03:17 3.4 C 43 %
3464 17-04-2021 02:13:17 3.4 C 43 %
3465 17-04-2021 02:23:17 3.3 C 43 %
3466 17-04-2021 02:33:18 3.3 C 43 %
3467 17-04-2021 02:43:18 3.3 C 44 %
3468 17-04-2021 02:53:17 3.2 C 43 %
3469 17-04-2021 03:03:17 3.2 C 43 %
3470 17-04-2021 03:13:17 3.4 C 43 %
3471 17-04-2021 03:23:17 3.4 C 43 %
3472 17-04-2021 03:33:18 3.1 C 43 %
3473 17-04-2021 03:43:18 3.2 C 43 %
3474 17-04-2021 03:53:17 3.2 C 43 %
3475 17-04-2021 04:03:18 2.9 C 44 %
Sensor: Nr:Datum:Temp:Feuchte:
Aussen-T/F 3476 17-04-2021 04:13:18 2.6 C 44 %
3477 17-04-2021 04:23:17 3.1 C 43 %
3478 17-04-2021 04:33:17 2.4 C 44 %
3479 17-04-2021 04:43:17 2.3 C 45 %
3480 17-04-2021 04:53:18 1.8 C 46 %
3481 17-04-2021 05:03:17 1.4 C 46 %
3482 17-04-2021 05:13:17 1.1 C 47 %
3483 17-04-2021 05:23:17 1.5 C 47 %
3484 17-04-2021 05:33:17 1.4 C 48 %
3485 17-04-2021 05:43:17 1.3 C 47 %
3486 17-04-2021 05:53:18 1.2 C 48 %
3487 17-04-2021 06:03:17 0.6 C 49 %
3488 17-04-2021 06:13:17 0.6 C 49 %
3489 17-04-2021 06:23:17 0.5 C 50 %
3490 17-04-2021 06:33:18 0.8 C 51 %
3491 17-04-2021 06:43:18 0.6 C 50 %
3492 17-04-2021 06:53:17 0.3 C 50 %
3493 17-04-2021 07:03:17 0.4 C 50 %
3494 17-04-2021 07:13:17 0.6 C 50 %
3495 17-04-2021 07:23:17 0.7 C 50 %
3496 17-04-2021 07:33:18 0.9 C 50 %
3497 17-04-2021 07:43:18 1.2 C 49 %
3498 17-04-2021 07:53:17 1.5 C 49 %
3499 17-04-2021 08:03:17 1.8 C 48 %
3500 17-04-2021 08:13:17 1.9 C 48 %
Sensor: Nr:Datum:Temp:Feuchte:
Aussen-T/F 3501 17-04-2021 08:23:17 2.1 C 46 %
3502 17-04-2021 08:33:17 2.1 C 46 %
3503 17-04-2021 08:43:17 2.6 C 45 %
3504 17-04-2021 08:53:18 3.1 C 45 %
3505 17-04-2021 09:03:17 3.8 C 43 %
3506 17-04-2021 09:13:17 4.2 C 41 %
3507 17-04-2021 09:23:17 4.5 C 41 %
3508 17-04-2021 09:33:17 4.8 C 40 %
3509 17-04-2021 09:43:17 5.2 C 39 %
3510 17-04-2021 09:53:17 6.3 C 36 %
3511 17-04-2021 10:03:17 7.2 C 34 %
3512 17-04-2021 10:13:17 7.5 C 32 %
3513 17-04-2021 10:23:17 7.5 C 32 %
3514 17-04-2021 10:33:17 7.6 C 33 %
3515 17-04-2021 10:43:18 7.9 C 31 %
3516 17-04-2021 10:53:17 8.7 C 29 %
3517 17-04-2021 11:03:17 9.2 C 27 %
3518 17-04-2021 11:13:17 9.6 C 27 %
3519 17-04-2021 11:23:17 10.6 C 26 %
3520 17-04-2021 11:33:17 11.1 C 25 %
3521 17-04-2021 11:43:17 11.4 C 25 %
3522 17-04-2021 11:53:18 10.2 C 25 %
3523 17-04-2021 12:03:17 11.8 C 25 %
3524 17-04-2021 12:13:17 11.2 C 25 %
3525 17-04-2021 12:23:17 11.8 C 25 %
Sensor: Nr:Datum:Temp:Feuchte:
Aussen-T/F 3526 17-04-2021 12:33:18 11.6 C 25 %
3527 17-04-2021 12:43:18 11.7 C 25 %
3528 17-04-2021 12:53:17 11.2 C 25 %
3529 17-04-2021 13:03:17 12.6 C 22 %
3530 17-04-2021 13:13:17 12.3 C 21 %
3531 17-04-2021 13:23:17 12.4 C 21 %
3532 17-04-2021 13:33:17 12.1 C 21 %
3533 17-04-2021 13:43:17 12.5 C 20 %
3534 17-04-2021 13:53:17 12.4 C 20 %
3535 17-04-2021 14:03:18 11.8 C 20 %
3536 17-04-2021 14:13:18 12.4 C 20 %
3537 17-04-2021 14:23:17 15.2 C 20 %
3538 17-04-2021 14:33:17 13.2 C 20 %
3539 17-04-2021 14:43:17 13.5 C 20 %
3540 17-04-2021 14:53:17 12.5 C 20 %
3541 17-04-2021 15:03:18 12 C 20 %
3542 17-04-2021 15:13:18 11.9 C 23 %
3543 17-04-2021 15:23:17 10.9 C 25 %
3544 17-04-2021 15:33:17 10 C 26 %
3545 17-04-2021 15:43:17 10 C 26 %
3546 17-04-2021 15:53:17 9.8 C 27 %
3547 17-04-2021 16:03:17 9.6 C 27 %
3548 17-04-2021 16:13:17 10.7 C 26 %
3549 17-04-2021 16:23:17 10.4 C 26 %
3550 17-04-2021 16:33:17 10.5 C 26 %
Sensor: Nr:Datum:Temp:Feuchte:
Aussen-T/F 3551 17-04-2021 16:43:17 10.8 C 26 %
3552 17-04-2021 16:53:18 11.1 C 26 %
3553 17-04-2021 17:03:17 11.1 C 25 %
3554 17-04-2021 17:13:17 10.5 C 26 %
3555 17-04-2021 17:23:17 10.5 C 25 %
3556 17-04-2021 17:33:17 10.2 C 25 %
3557 17-04-2021 17:43:17 10.3 C 25 %
3558 17-04-2021 17:53:18 10.1 C 25 %
3559 17-04-2021 18:03:18 10.1 C 25 %
3560 17-04-2021 18:13:18 9.9 C 26 %
3561 17-04-2021 18:23:18 10.5 C 25 %
3562 17-04-2021 18:33:18 10.5 C 26 %
3563 17-04-2021 18:43:18 10.3 C 25 %
3564 17-04-2021 18:53:18 10.1 C 26 %
3565 17-04-2021 19:03:18 10.6 C 26 %
3566 17-04-2021 19:13:18 10.6 C 26 %
3567 17-04-2021 19:23:17 10.5 C 26 %
3568 17-04-2021 19:33:17 10.1 C 26 %
3569 17-04-2021 19:43:17 10.1 C 25 %
3570 17-04-2021 19:53:17 9.8 C 26 %
3571 17-04-2021 20:03:17 9.7 C 26 %
3572 17-04-2021 20:13:17 9.6 C 26 %
3573 17-04-2021 20:23:18 9.5 C 26 %
3574 17-04-2021 20:33:18 9.5 C 27 %
3575 17-04-2021 20:43:18 9.2 C 27 %
Sensor: Nr:Datum:Temp:Feuchte:
Aussen-T/F 3576 17-04-2021 20:53:17 8.7 C 30 %
3577 17-04-2021 21:03:17 8.6 C 30 %
3578 17-04-2021 21:13:17 8.4 C 31 %
3579 17-04-2021 21:23:18 8.1 C 32 %
3580 17-04-2021 21:33:18 8 C 31 %
3581 17-04-2021 21:43:18 8 C 31 %
3582 17-04-2021 21:53:18 7.9 C 32 %
3583 17-04-2021 22:03:17 7.8 C 32 %
3584 17-04-2021 22:13:18 7.9 C 32 %
3585 17-04-2021 22:23:18 8 C 31 %
3586 17-04-2021 22:33:17 7.8 C 32 %
3587 17-04-2021 22:43:17 7.9 C 32 %
3588 17-04-2021 22:53:18 7.8 C 32 %
3589 17-04-2021 23:03:17 7.7 C 33 %
3590 17-04-2021 23:13:17 7.7 C 33 %
3591 17-04-2021 23:23:17 7.7 C 33 %
3592 17-04-2021 23:33:17 7.5 C 34 %
3593 17-04-2021 23:43:17 7.5 C 33 %
3594 17-04-2021 23:53:17 7.4 C 34 %
3595 18-04-2021 00:03:17 7.1 C 34 %
3596 18-04-2021 00:13:17 7.1 C 35 %
3597 18-04-2021 00:23:17 7 C 35 %
3598 18-04-2021 00:33:17 6.8 C 36 %
3599 18-04-2021 00:43:17 7.1 C 34 %
3600 18-04-2021 00:53:17 6.8 C 36 %
Sensor: Nr:Datum:Temp:Feuchte:
Aussen-T/F 3601 18-04-2021 01:03:17 6.9 C 35 %
3602 18-04-2021 01:13:17 6.8 C 36 %
3603 18-04-2021 01:23:17 6.8 C 35 %
3604 18-04-2021 01:33:17 6.9 C 36 %
3605 18-04-2021 01:43:17 6.6 C 36 %
3606 18-04-2021 01:53:17 6.7 C 36 %
3607 18-04-2021 02:03:17 6.5 C 37 %
3608 18-04-2021 02:13:17 6.5 C 36 %
3609 18-04-2021 02:23:17 6.3 C 37 %
3610 18-04-2021 02:33:17 5.6 C 37 %
3611 18-04-2021 02:43:18 6 C 36 %
3612 18-04-2021 02:53:18 6.2 C 36 %
3613 18-04-2021 03:03:17 5.7 C 38 %
3614 18-04-2021 03:13:17 5.2 C 37 %
3615 18-04-2021 03:23:17 5.3 C 38 %
3616 18-04-2021 03:33:17 5.7 C 39 %
3617 18-04-2021 03:43:17 5.8 C 38 %
3618 18-04-2021 03:53:17 6.1 C 37 %
3619 18-04-2021 04:03:18 6 C 37 %
3620 18-04-2021 04:13:18 6 C 37 %
3621 18-04-2021 04:23:17 6.1 C 37 %
3622 18-04-2021 04:33:18 6.1 C 37 %
3623 18-04-2021 04:43:18 6.5 C 36 %
3624 18-04-2021 04:53:18 6.5 C 36 %
3625 18-04-2021 05:03:18 6.5 C 36 %
Sensor: Nr:Datum:Temp:Feuchte:
Aussen-T/F 3626 18-04-2021 05:13:18 6.4 C 36 %
3627 18-04-2021 05:23:17 6.4 C 36 %
3628 18-04-2021 05:33:17 6.4 C 36 %
3629 18-04-2021 05:43:17 6.4 C 36 %
3630 18-04-2021 05:53:17 6.4 C 36 %
3631 18-04-2021 06:03:17 6.7 C 36 %
3632 18-04-2021 06:13:17 6.5 C 36 %
3633 18-04-2021 06:23:17 6.5 C 36 %
3634 18-04-2021 06:33:17 6.3 C 37 %
3635 18-04-2021 06:43:17 6.2 C 37 %
3636 18-04-2021 06:53:17 6.3 C 36 %
3637 18-04-2021 07:03:17 6.5 C 36 %
3638 18-04-2021 07:13:17 6.6 C 36 %
3639 18-04-2021 07:23:17 6.7 C 36 %
3640 18-04-2021 07:33:17 6.7 C 36 %
3641 18-04-2021 07:43:17 6.8 C 36 %
3642 18-04-2021 07:53:17 6.7 C 36 %
3643 18-04-2021 08:03:17 6.9 C 36 %
3644 18-04-2021 08:13:17 7 C 35 %
3645 18-04-2021 08:23:17 7.1 C 35 %
3646 18-04-2021 08:33:17 7.1 C 35 %
3647 18-04-2021 08:43:17 7.4 C 35 %
3648 18-04-2021 08:53:17 7.5 C 35 %
3649 18-04-2021 09:03:17 7.9 C 35 %
3650 18-04-2021 09:13:17 7.9 C 35 %
Sensor: Nr:Datum:Temp:Feuchte:
Aussen-T/F 3651 18-04-2021 09:23:18 8 C 35 %
3652 18-04-2021 09:33:17 8 C 35 %
3653 18-04-2021 09:43:18 7.8 C 35 %
3654 18-04-2021 09:53:17 7.4 C 36 %
3655 18-04-2021 10:03:17 7.1 C 36 %
3656 18-04-2021 10:13:18 7 C 36 %
3657 18-04-2021 10:23:17 7 C 37 %
3658 18-04-2021 10:33:17 6.9 C 38 %
3659 18-04-2021 10:43:17 6.9 C 37 %
3660 18-04-2021 10:53:17 7 C 38 %
3661 18-04-2021 11:03:17 7.3 C 37 %
3662 18-04-2021 11:13:17 7.7 C 37 %
3663 18-04-2021 11:23:18 8.4 C 36 %
3664 18-04-2021 11:33:18 8.4 C 36 %
3665 18-04-2021 11:43:18 8.8 C 36 %
3666 18-04-2021 11:53:17 9.3 C 35 %
3667 18-04-2021 12:03:18 8.9 C 35 %
3668 18-04-2021 12:13:18 9.1 C 35 %
3669 18-04-2021 12:23:17 9 C 35 %
3670 18-04-2021 12:34:17 9.5 C 35 %
3671 18-04-2021 12:44:17 10.1 C 33 %
3672 18-04-2021 12:53:18 10.2 C 34 %
3673 18-04-2021 13:04:17 10.5 C 33 %
3674 18-04-2021 13:14:17 11.8 C 32 %
3675 18-04-2021 13:23:17 12.5 C 31 %
Sensor: Nr:Datum:Temp:Feuchte:
Aussen-T/F 3676 18-04-2021 13:33:17 12.9 C 30 %
3677 18-04-2021 13:43:18 13.2 C 30 %
3678 18-04-2021 13:53:18 12.5 C 30 %
3679 18-04-2021 14:04:17 12.6 C 30 %
3680 18-04-2021 14:14:17 12.8 C 30 %
3681 18-04-2021 14:23:17 12.3 C 30 %
3682 18-04-2021 14:33:17 13 C 29 %
3683 18-04-2021 14:43:17 14.7 C 28 %
3684 18-04-2021 14:53:18 13.7 C 28 %
3685 18-04-2021 15:03:18 12.6 C 29 %
3686 18-04-2021 15:13:18 12.9 C 30 %
3687 18-04-2021 15:24:17 13.1 C 29 %
3688 18-04-2021 15:34:17 12.9 C 30 %
3689 18-04-2021 15:44:17 13.2 C 29 %
3690 18-04-2021 15:53:18 13.7 C 29 %
3691 18-04-2021 16:03:18 14.1 C 28 %
3692 18-04-2021 16:13:18 13.5 C 29 %
3693 18-04-2021 16:24:17 14.2 C 28 %
3694 18-04-2021 16:34:17 13.4 C 29 %
3695 18-04-2021 16:44:17 12.8 C 30 %
3696 18-04-2021 16:53:18 13.3 C 29 %
3697 18-04-2021 17:04:17 13.6 C 29 %
3698 18-04-2021 17:14:17 13.4 C 29 %
3699 18-04-2021 17:24:17 13.6 C 29 %
3700 18-04-2021 17:33:18 13.1 C 29 %
Sensor: Nr:Datum:Temp:Feuchte:
Aussen-T/F 3701 18-04-2021 17:43:18 15.7 C 27 %
3702 18-04-2021 17:53:18 13.7 C 29 %
3703 18-04-2021 18:03:18 12.8 C 30 %
3704 18-04-2021 18:13:18 12.9 C 30 %
3705 18-04-2021 18:23:18 13 C 29 %
3706 18-04-2021 18:33:18 12.6 C 30 %
3707 18-04-2021 18:43:18 12.6 C 30 %
3708 18-04-2021 18:53:18 12.2 C 30 %
3709 18-04-2021 19:04:17 11.8 C 31 %
3710 18-04-2021 19:14:17 10.4 C 35 %
3711 18-04-2021 19:24:17 10.6 C 36 %
3712 18-04-2021 19:34:17 10.7 C 36 %
3713 18-04-2021 19:43:17 10.2 C 37 %
3714 18-04-2021 19:54:17 9.7 C 39 %
3715 18-04-2021 20:03:18 9.8 C 39 %
3716 18-04-2021 20:13:18 9.9 C 38 %
3717 18-04-2021 20:24:17 10.2 C 37 %
3718 18-04-2021 20:33:18 9.7 C 38 %
3719 18-04-2021 20:43:18 9.5 C 38 %
3720 18-04-2021 20:53:18 9.2 C 39 %
3721 18-04-2021 21:03:18 8.8 C 40 %
3722 18-04-2021 21:13:18 8.5 C 40 %
3723 18-04-2021 21:23:18 8.3 C 41 %
3724 18-04-2021 21:33:18 8.5 C 41 %
3725 18-04-2021 21:43:18 8.7 C 40 %
Sensor: Nr:Datum:Temp:Feuchte:
Aussen-T/F 3726 18-04-2021 21:53:18 8.7 C 41 %
3727 18-04-2021 22:03:18 8.8 C 41 %
3728 18-04-2021 22:13:18 8.8 C 41 %
3729 18-04-2021 22:24:17 8.7 C 41 %
3730 18-04-2021 22:33:18 8.7 C 41 %
3731 18-04-2021 22:43:18 8.4 C 41 %
3732 18-04-2021 22:54:17 7.6 C 41 %
3733 18-04-2021 23:04:18 6.8 C 43 %
3734 18-04-2021 23:13:18 7 C 43 %
3735 18-04-2021 23:24:18 7.4 C 43 %
3736 18-04-2021 23:34:18 7.8 C 41 %
3737 18-04-2021 23:43:18 8 C 41 %
3738 18-04-2021 23:54:17 7.9 C 42 %
3739 19-04-2021 00:04:17 8 C 41 %
3740 19-04-2021 00:14:17 7.9 C 42 %
3741 19-04-2021 00:24:17 7.8 C 42 %
3742 19-04-2021 00:34:17 8 C 42 %
3743 19-04-2021 00:44:17 8.5 C 40 %
3744 19-04-2021 00:54:17 8.5 C 40 %
3745 19-04-2021 01:04:18 8.3 C 41 %
3746 19-04-2021 01:14:19 8.2 C 41 %
3747 19-04-2021 01:24:18 8.1 C 41 %
3748 19-04-2021 01:34:18 7.8 C 43 %
3749 19-04-2021 01:44:18 7.7 C 45 %
3750 19-04-2021 01:54:18 8 C 46 %
Sensor: Nr:Datum:Temp:Feuchte:
Aussen-T/F 3751 19-04-2021 02:04:18 7.9 C 47 %
3752 19-04-2021 02:14:18 7.9 C 47 %
3753 19-04-2021 02:24:17 7.9 C 48 %
3754 19-04-2021 02:34:17 7.9 C 48 %
3755 19-04-2021 02:44:17 7.7 C 47 %
3756 19-04-2021 02:54:17 7.6 C 48 %
3757 19-04-2021 03:04:17 7.8 C 48 %
3758 19-04-2021 03:14:17 7.7 C 48 %
3759 19-04-2021 03:24:17 7.8 C 48 %
3760 19-04-2021 03:34:17 7.4 C 47 %
3761 19-04-2021 03:44:17 7.3 C 48 %
3762 19-04-2021 03:54:17 7.2 C 47 %
3763 19-04-2021 04:04:17 7.3 C 47 %
3764 19-04-2021 04:14:17 7.4 C 47 %
3765 19-04-2021 04:24:17 7.4 C 47 %
3766 19-04-2021 04:34:17 7.3 C 47 %
3767 19-04-2021 04:44:17 7.3 C 47 %
3768 19-04-2021 04:54:17 7.2 C 47 %
3769 19-04-2021 05:04:17 7.2 C 47 %
3770 19-04-2021 05:14:17 7.3 C 47 %
3771 19-04-2021 05:24:17 7.3 C 47 %
3772 19-04-2021 05:34:17 7.4 C 47 %
3773 19-04-2021 05:44:17 7.4 C 47 %
3774 19-04-2021 05:54:17 7.3 C 47 %
3775 19-04-2021 06:04:17 7.1 C 47 %
Sensor: Nr:Datum:Temp:Feuchte:
Aussen-T/F 3776 19-04-2021 06:14:17 6.8 C 47 %
3777 19-04-2021 06:24:17 6.8 C 47 %
3778 19-04-2021 06:34:18 6.9 C 47 %
3779 19-04-2021 06:44:18 7.1 C 47 %
3780 19-04-2021 06:54:17 7.3 C 47 %
3781 19-04-2021 07:04:17 7.4 C 47 %
3782 19-04-2021 07:14:17 7.4 C 47 %
3783 19-04-2021 07:24:17 7.5 C 47 %
3784 19-04-2021 07:34:17 7.6 C 47 %
3785 19-04-2021 07:44:17 7.7 C 47 %
3786 19-04-2021 07:54:17 7.7 C 47 %
3787 19-04-2021 08:04:17 7.8 C 47 %
3788 19-04-2021 08:14:17 7.9 C 47 %
3789 19-04-2021 08:24:18 7.9 C 47 %
3790 19-04-2021 08:34:18 7.9 C 47 %
3791 19-04-2021 08:44:18 7.9 C 47 %
3792 19-04-2021 08:54:17 8 C 46 %
3793 19-04-2021 09:04:17 8.1 C 46 %
3794 19-04-2021 09:14:17 8 C 46 %
3795 19-04-2021 09:24:18 8 C 47 %
3796 19-04-2021 09:34:18 8 C 46 %
3797 19-04-2021 09:44:18 8.1 C 47 %
3798 19-04-2021 09:54:18 8.2 C 47 %
3799 19-04-2021 10:04:18 8.3 C 45 %
3800 19-04-2021 10:14:18 8.8 C 45 %
Sensor: Nr:Datum:Temp:Feuchte:
Aussen-T/F 3801 19-04-2021 10:24:17 9 C 43 %
3802 19-04-2021 10:34:17 9.4 C 42 %
3803 19-04-2021 10:44:17 9.7 C 40 %
3804 19-04-2021 10:54:17 9.7 C 41 %
3805 19-04-2021 11:04:17 10 C 40 %
3806 19-04-2021 11:14:17 10.5 C 39 %
3807 19-04-2021 11:24:17 11.4 C 37 %
3808 19-04-2021 11:34:17 11.8 C 37 %
3809 19-04-2021 11:44:17 11.3 C 37 %
3810 19-04-2021 11:54:18 11.6 C 37 %
3811 19-04-2021 12:04:17 11.1 C 37 %
3812 19-04-2021 12:14:17 14.2 C 34 %
3813 19-04-2021 12:24:17 14.7 C 32 %
3814 19-04-2021 12:34:17 16.2 C 30 %
3815 19-04-2021 12:44:17 16.4 C 30 %
3816 19-04-2021 12:54:17 13.9 C 31 %
3817 19-04-2021 13:04:17 14.1 C 31 %
3818 19-04-2021 13:14:17 13.3 C 31 %
3819 19-04-2021 13:24:17 13.4 C 31 %
3820 19-04-2021 13:34:17 13.7 C 32 %
3821 19-04-2021 13:44:17 13 C 31 %
3822 19-04-2021 13:54:17 13.2 C 32 %
3823 19-04-2021 14:04:18 14.3 C 31 %
3824 19-04-2021 14:14:18 14.2 C 30 %
3825 19-04-2021 14:24:18 13.5 C 31 %
Sensor: Nr:Datum:Temp:Feuchte:
Aussen-T/F 3826 19-04-2021 14:34:18 14.4 C 31 %
3827 19-04-2021 14:44:18 14.7 C 30 %
3828 19-04-2021 14:54:17 14.5 C 30 %
3829 19-04-2021 15:04:18 14.7 C 30 %
3830 19-04-2021 15:14:18 14.3 C 30 %
3831 19-04-2021 15:24:17 14.7 C 30 %
3832 19-04-2021 15:34:17 15 C 29 %
3833 19-04-2021 15:44:17 15.4 C 29 %
3834 19-04-2021 15:54:18 18.9 C 25 %
3835 19-04-2021 16:04:18 19.6 C 24 %
3836 19-04-2021 16:14:18 15.6 C 26 %
3837 19-04-2021 16:24:17 14.6 C 27 %
3838 19-04-2021 16:34:17 14.2 C 28 %
3839 19-04-2021 16:44:17 15.6 C 26 %
3840 19-04-2021 16:54:17 19.7 C 23 %
3841 19-04-2021 17:04:18 18.9 C 23 %
3842 19-04-2021 17:14:18 20.8 C 21 %
3843 19-04-2021 17:24:17 21.6 C 20 %
3844 19-04-2021 17:34:18 21.2 C 20 %
3845 19-04-2021 17:44:18 21.6 C 20 %
3846 19-04-2021 17:54:17 18.3 C 21 %
3847 19-04-2021 18:04:17 15.8 C 24 %
3848 19-04-2021 18:14:17 17 C 23 %
3849 19-04-2021 18:24:17 15.8 C 26 %
3850 19-04-2021 18:34:17 15 C 25 %
Sensor: Nr:Datum:Temp:Feuchte:
Aussen-T/F 3851 19-04-2021 18:44:17 14.6 C 26 %
3852 19-04-2021 18:54:17 14.6 C 27 %
3853 19-04-2021 19:04:17 14.8 C 27 %
3854 19-04-2021 19:14:17 14.3 C 28 %
3855 19-04-2021 19:24:17 13.6 C 29 %
3856 19-04-2021 19:34:17 12.9 C 31 %
3857 19-04-2021 19:44:18 12.7 C 31 %
3858 19-04-2021 19:54:17 11.7 C 35 %
3859 19-04-2021 20:04:17 11.1 C 35 %
3860 19-04-2021 20:14:17 10.5 C 36 %
3861 19-04-2021 20:24:17 10.3 C 36 %
3862 19-04-2021 20:34:18 10.3 C 37 %
3863 19-04-2021 20:44:18 10 C 37 %
3864 19-04-2021 20:54:18 10.1 C 37 %
3865 19-04-2021 21:04:18 10.1 C 37 %
3866 19-04-2021 21:14:18 10 C 38 %
3867 19-04-2021 21:24:18 9.9 C 39 %
3868 19-04-2021 21:34:17 9.6 C 39 %
3869 19-04-2021 21:44:17 9.3 C 40 %
3870 19-04-2021 21:54:17 8.8 C 40 %
3871 19-04-2021 22:04:17 8.1 C 41 %
3872 19-04-2021 22:14:17 7.9 C 42 %
3873 19-04-2021 22:24:17 8.2 C 42 %
3874 19-04-2021 22:34:17 8 C 41 %
3875 19-04-2021 22:44:18 7.7 C 42 %
Sensor: Nr:Datum:Temp:Feuchte:
Aussen-T/F 3876 19-04-2021 22:54:17 7 C 42 %
3877 19-04-2021 23:04:17 6.7 C 43 %
3878 19-04-2021 23:14:18 6.6 C 45 %
3879 19-04-2021 23:24:18 6.2 C 44 %
3880 19-04-2021 23:34:18 6.1 C 45 %
3881 19-04-2021 23:44:18 5.9 C 45 %
3882 19-04-2021 23:54:18 5.6 C 45 %
3883 20-04-2021 00:04:18 5.4 C 46 %
3884 20-04-2021 00:14:18 5.4 C 46 %
3885 20-04-2021 00:24:18 5.2 C 46 %
3886 20-04-2021 00:34:17 5 C 46 %
3887 20-04-2021 00:44:17 5 C 47 %
3888 20-04-2021 00:54:17 4.7 C 47 %
3889 20-04-2021 01:04:17 4.4 C 47 %
3890 20-04-2021 01:14:17 4.4 C 47 %
3891 20-04-2021 01:24:17 4.3 C 48 %
3892 20-04-2021 01:34:17 4.2 C 48 %
3893 20-04-2021 01:44:17 4 C 48 %
3894 20-04-2021 01:54:17 4 C 48 %
3895 20-04-2021 02:04:17 3.6 C 49 %
3896 20-04-2021 02:14:17 3.8 C 50 %
3897 20-04-2021 02:24:17 3.7 C 50 %
3898 20-04-2021 02:34:17 3.7 C 50 %
3899 20-04-2021 02:44:17 3.4 C 49 %
3900 20-04-2021 02:54:18 3.6 C 50 %
Sensor: Nr:Datum:Temp:Feuchte:
Aussen-T/F 3901 20-04-2021 03:04:18 3.4 C 49 %
3902 20-04-2021 03:14:18 3.3 C 49 %
3903 20-04-2021 03:24:18 3.4 C 50 %
3904 20-04-2021 03:34:17 3 C 49 %
3905 20-04-2021 03:44:17 2.8 C 50 %
3906 20-04-2021 03:54:17 2.7 C 50 %
3907 20-04-2021 04:04:17 2.9 C 50 %
3908 20-04-2021 04:14:17 2.7 C 50 %
3909 20-04-2021 04:24:17 2.5 C 50 %
3910 20-04-2021 04:34:18 2.3 C 50 %
3911 20-04-2021 04:44:18 2.3 C 50 %
3912 20-04-2021 04:54:18 2.2 C 50 %
3913 20-04-2021 05:04:18 1.9 C 51 %
3914 20-04-2021 05:14:18 1.8 C 51 %
3915 20-04-2021 05:24:17 1.8 C 51 %
3916 20-04-2021 05:34:18 1.7 C 51 %
3917 20-04-2021 05:44:18 1.7 C 51 %
3918 20-04-2021 05:54:18 1.8 C 51 %
3919 20-04-2021 06:04:17 1.7 C 51 %
3920 20-04-2021 06:14:17 1.9 C 51 %
3921 20-04-2021 06:24:17 1.5 C 50 %
3922 20-04-2021 06:34:17 1.3 C 50 %
3923 20-04-2021 06:44:18 1.4 C 50 %
3924 20-04-2021 06:54:18 1.5 C 50 %
3925 20-04-2021 07:04:17 1.8 C 50 %
Sensor: Nr:Datum:Temp:Feuchte:
Aussen-T/F 3926 20-04-2021 07:14:17 1.9 C 50 %
3927 20-04-2021 07:24:17 2.1 C 49 %
3928 20-04-2021 07:34:17 2.4 C 49 %
3929 20-04-2021 07:44:17 2.3 C 49 %
3930 20-04-2021 07:54:18 2.5 C 49 %
3931 20-04-2021 08:04:17 2.5 C 49 %
3932 20-04-2021 08:14:17 2.6 C 50 %
3933 20-04-2021 08:24:17 2.9 C 50 %
3934 20-04-2021 08:34:17 3.2 C 49 %
3935 20-04-2021 08:44:17 3.7 C 49 %
3936 20-04-2021 08:54:17 4.1 C 48 %
3937 20-04-2021 09:04:18 4.2 C 48 %
3938 20-04-2021 09:14:18 4.2 C 48 %
3939 20-04-2021 09:24:18 4.3 C 48 %
3940 20-04-2021 09:34:18 4.9 C 48 %
3941 20-04-2021 09:44:18 5.3 C 48 %
3942 20-04-2021 09:54:18 5.9 C 48 %
3943 20-04-2021 10:04:18 6.5 C 46 %
3944 20-04-2021 10:14:18 7 C 46 %
3945 20-04-2021 10:24:17 7.6 C 45 %
3946 20-04-2021 10:34:17 8.5 C 44 %
3947 20-04-2021 10:44:17 8.8 C 41 %
3948 20-04-2021 10:54:17 10.4 C 38 %
3949 20-04-2021 11:04:17 11.2 C 37 %
3950 20-04-2021 11:14:17 11.8 C 36 %
Sensor: Nr:Datum:Temp:Feuchte:
Aussen-T/F 3951 20-04-2021 11:24:17 12.7 C 35 %
3952 20-04-2021 11:34:17 14.9 C 32 %
3953 20-04-2021 11:44:17 15.4 C 30 %
3954 20-04-2021 11:54:17 15.2 C 28 %
3955 20-04-2021 12:04:18 15.9 C 28 %
3956 20-04-2021 12:14:18 18.4 C 25 %
3957 20-04-2021 12:24:17 18.3 C 25 %
3958 20-04-2021 12:34:17 17 C 25 %
3959 20-04-2021 12:44:17 15.8 C 26 %
3960 20-04-2021 12:54:18 15.8 C 25 %
3961 20-04-2021 13:04:18 17.8 C 25 %
3962 20-04-2021 13:14:18 16 C 25 %
3963 20-04-2021 13:24:17 16.1 C 25 %
3964 20-04-2021 13:34:17 16.2 C 25 %
3965 20-04-2021 13:44:17 16.5 C 25 %
3966 20-04-2021 13:54:17 16.2 C 25 %
3967 20-04-2021 14:04:17 17.9 C 25 %
3968 20-04-2021 14:14:17 16.2 C 25 %
3969 20-04-2021 14:24:17 16 C 25 %
3970 20-04-2021 14:34:17 16.2 C 25 %
3971 20-04-2021 14:44:17 17.4 C 25 %
3972 20-04-2021 14:54:17 23.2 C 20 %
3973 20-04-2021 15:04:17 22 C 20 %
3974 20-04-2021 15:14:17 17.9 C 21 %
3975 20-04-2021 15:24:17 17.9 C 21 %
Sensor: Nr:Datum:Temp:Feuchte:
Aussen-T/F 3976 20-04-2021 15:34:17 17.3 C 21 %
3977 20-04-2021 15:44:18 17.4 C 21 %
3978 20-04-2021 15:54:17 17.5 C 22 %
3979 20-04-2021 16:04:17 17.3 C 21 %
3980 20-04-2021 16:14:18 17.3 C 21 %
3981 20-04-2021 16:24:18 17.3 C 21 %
3982 20-04-2021 16:34:18 17.1 C 22 %
3983 20-04-2021 16:44:18 17.1 C 21 %
3984 20-04-2021 16:54:17 17.8 C 21 %
3985 20-04-2021 17:04:17 17.8 C 22 %
3986 20-04-2021 17:14:17 17.3 C 21 %
3987 20-04-2021 17:24:18 17.3 C 22 %
3988 20-04-2021 17:34:18 17.2 C 21 %
3989 20-04-2021 17:44:18 17.2 C 21 %
3990 20-04-2021 17:54:18 19 C 20 %
3991 20-04-2021 18:04:17 18.1 C 20 %
3992 20-04-2021 18:14:17 17.2 C 20 %
3993 20-04-2021 18:24:17 17.5 C 21 %
3994 20-04-2021 18:34:18 17.2 C 21 %
3995 20-04-2021 18:44:18 17.2 C 21 %
3996 20-04-2021 18:54:18 17 C 21 %
3997 20-04-2021 19:04:17 16.8 C 21 %
3998 20-04-2021 19:14:17 16.5 C 21 %
3999 20-04-2021 19:24:17 15.8 C 22 %
4000 20-04-2021 19:34:17 15.5 C 24 %
Sensor: Nr:Datum:Temp:Feuchte:
Aussen-T/F 4001 20-04-2021 19:44:17 15 C 25 %
4002 20-04-2021 19:54:17 14.4 C 27 %
4003 20-04-2021 20:04:17 13.6 C 28 %
4004 20-04-2021 20:14:17 12.9 C 30 %
4005 20-04-2021 20:24:17 12.7 C 30 %
4006 20-04-2021 20:34:17 12.1 C 30 %
4007 20-04-2021 20:44:17 11.6 C 31 %
4008 20-04-2021 20:54:17 11.5 C 31 %
4009 20-04-2021 21:04:17 11.2 C 31 %
4010 20-04-2021 21:14:17 10.8 C 32 %
4011 20-04-2021 21:24:18 9.7 C 35 %
4012 20-04-2021 21:34:17 9.7 C 35 %
4013 20-04-2021 21:44:17 9.1 C 35 %
4014 20-04-2021 21:54:18 8.6 C 36 %
4015 20-04-2021 22:04:18 8.2 C 37 %
4016 20-04-2021 22:14:18 7.9 C 38 %
4017 20-04-2021 22:24:17 7.7 C 38 %
4018 20-04-2021 22:34:17 7.4 C 39 %
4019 20-04-2021 22:44:17 7.3 C 38 %
4020 20-04-2021 22:54:17 6.7 C 40 %
4021 20-04-2021 23:04:17 6.5 C 40 %
4022 20-04-2021 23:14:17 6.5 C 41 %
4023 20-04-2021 23:24:18 6.5 C 41 %
4024 20-04-2021 23:34:18 6.3 C 41 %
4025 20-04-2021 23:44:18 6 C 41 %
Sensor: Nr:Datum:Temp:Feuchte:
Aussen-T/F 4026 20-04-2021 23:54:18 5.7 C 41 %
4027 21-04-2021 00:04:18 5.4 C 42 %
4028 21-04-2021 00:14:18 5.3 C 43 %
4029 21-04-2021 00:24:18 5.4 C 43 %
4030 21-04-2021 00:34:18 5.1 C 43 %
4031 21-04-2021 00:44:18 5 C 44 %
4032 21-04-2021 00:54:18 5.1 C 43 %
4033 21-04-2021 01:04:18 5.3 C 43 %
4034 21-04-2021 01:14:18 5 C 43 %
4035 21-04-2021 01:24:17 5 C 44 %
4036 21-04-2021 01:34:17 4.9 C 45 %
4037 21-04-2021 01:44:17 4.8 C 44 %
4038 21-04-2021 01:54:18 5.2 C 44 %
4039 21-04-2021 02:04:18 4.8 C 44 %
4040 21-04-2021 02:14:18 4.9 C 45 %
4041 21-04-2021 02:24:17 4.7 C 44 %
4042 21-04-2021 02:34:17 4.3 C 44 %
4043 21-04-2021 02:44:17 4.4 C 45 %
4044 21-04-2021 02:54:17 4 C 45 %
4045 21-04-2021 03:04:17 3.6 C 46 %
4046 21-04-2021 03:14:18 3.7 C 47 %
4047 21-04-2021 03:24:17 3.7 C 47 %
4048 21-04-2021 03:34:18 3.4 C 47 %
4049 21-04-2021 03:44:18 3.4 C 47 %
4050 21-04-2021 03:54:17 3.8 C 48 %
Sensor: Nr:Datum:Temp:Feuchte:
Aussen-T/F 4051 21-04-2021 04:04:17 3.4 C 47 %
4052 21-04-2021 04:14:17 3.1 C 46 %
4053 21-04-2021 04:24:17 3 C 47 %
4054 21-04-2021 04:34:17 3.1 C 48 %
4055 21-04-2021 04:44:17 2.8 C 48 %
4056 21-04-2021 04:54:17 2.5 C 49 %
4057 21-04-2021 05:04:18 3 C 48 %
4058 21-04-2021 05:14:18 2.8 C 48 %
4059 21-04-2021 05:24:17 2.4 C 49 %
4060 21-04-2021 05:34:17 2.7 C 49 %
4061 21-04-2021 05:44:17 2.6 C 50 %
4062 21-04-2021 05:54:17 2.5 C 49 %
4063 21-04-2021 06:04:18 2.1 C 49 %
4064 21-04-2021 06:14:18 2.1 C 50 %
4065 21-04-2021 06:24:18 1.8 C 50 %
4066 21-04-2021 06:34:18 2 C 50 %
4067 21-04-2021 06:44:18 1.7 C 50 %
4068 21-04-2021 06:54:17 2 C 50 %
4069 21-04-2021 07:04:18 2.3 C 50 %
4070 21-04-2021 07:14:18 2.2 C 50 %
4071 21-04-2021 07:24:18 2.5 C 50 %
4072 21-04-2021 07:34:18 2.8 C 50 %
4073 21-04-2021 07:44:18 3.1 C 49 %
4074 21-04-2021 07:54:17 3.3 C 49 %
4075 21-04-2021 08:04:17 3.5 C 49 %
Sensor: Nr:Datum:Temp:Feuchte:
Aussen-T/F 4076 21-04-2021 08:14:17 3.9 C 48 %
4077 21-04-2021 08:24:17 4.4 C 46 %
4078 21-04-2021 08:34:17 4.4 C 46 %
4079 21-04-2021 08:44:17 4.7 C 45 %
4080 21-04-2021 08:54:17 4.9 C 45 %
4081 21-04-2021 09:04:17 5.1 C 44 %
4082 21-04-2021 09:14:17 5.6 C 43 %
4083 21-04-2021 09:24:18 5.9 C 43 %
4084 21-04-2021 09:34:18 6.5 C 43 %
4085 21-04-2021 09:44:18 7 C 40 %
4086 21-04-2021 09:54:17 7.7 C 41 %
4087 21-04-2021 10:04:18 8.5 C 40 %
4088 21-04-2021 10:14:18 9.2 C 40 %
4089 21-04-2021 10:24:17 10 C 36 %
4090 21-04-2021 10:34:17 11 C 35 %
4091 21-04-2021 10:44:17 11.9 C 34 %
4092 21-04-2021 10:54:17 13 C 32 %
4093 21-04-2021 11:04:17 13.8 C 31 %
4094 21-04-2021 11:14:17 14.4 C 30 %
4095 21-04-2021 11:24:18 15.2 C 30 %
4096 21-04-2021 11:34:17 16.5 C 28 %
4097 21-04-2021 11:44:17 17.1 C 27 %
4098 21-04-2021 11:54:17 18.1 C 26 %
4099 21-04-2021 12:04:18 18.3 C 26 %
4100 21-04-2021 12:14:18 18.7 C 26 %
Sensor: Nr:Datum:Temp:Feuchte:
Aussen-T/F 4101 21-04-2021 12:24:18 18.5 C 26 %
4102 21-04-2021 12:34:18 18.5 C 26 %
4103 21-04-2021 12:44:18 17.4 C 26 %
4104 21-04-2021 12:54:18 17.5 C 26 %
4105 21-04-2021 13:04:18 18.3 C 25 %
4106 21-04-2021 13:14:18 18.6 C 25 %
4107 21-04-2021 13:24:17 18 C 25 %
4108 21-04-2021 13:34:17 17.9 C 25 %
4109 21-04-2021 13:44:17 17.8 C 25 %
4110 21-04-2021 13:54:17 19.6 C 25 %
4111 21-04-2021 14:04:17 19.4 C 25 %
4112 21-04-2021 14:14:17 19.1 C 25 %
4113 21-04-2021 14:24:17 17.9 C 25 %
4114 21-04-2021 14:34:17 19.8 C 24 %
4115 21-04-2021 14:44:18 21.7 C 20 %
4116 21-04-2021 14:54:17 22 C 20 %
4117 21-04-2021 15:04:17 21.3 C 20 %
4118 21-04-2021 15:14:17 22.3 C 20 %
4119 21-04-2021 15:24:18 22 C 20 %
4120 21-04-2021 15:34:17 19.7 C 20 %
4121 21-04-2021 15:44:18 18.9 C 21 %
4122 21-04-2021 15:54:17 19.6 C 20 %
4123 21-04-2021 16:04:18 22.8 C 20 %
4124 21-04-2021 16:14:18 23.9 C 20 %
4125 21-04-2021 16:24:17 21.3 C 20 %
Sensor: Nr:Datum:Temp:Feuchte:
Aussen-T/F 4126 21-04-2021 16:34:17 22.3 C 20 %
4127 21-04-2021 16:44:17 21 C 20 %
4128 21-04-2021 16:54:18 19.9 C 21 %
4129 21-04-2021 17:04:18 19.9 C 21 %
4130 21-04-2021 17:14:18 20.3 C 20 %
4131 21-04-2021 17:24:17 20.2 C 20 %
4132 21-04-2021 17:34:17 19.4 C 20 %
4133 21-04-2021 17:44:17 17 C 22 %
4134 21-04-2021 17:54:17 17.1 C 23 %
4135 21-04-2021 18:04:17 17.4 C 22 %
4136 21-04-2021 18:14:17 16.9 C 22 %
4137 21-04-2021 18:24:18 16.7 C 22 %
4138 21-04-2021 18:34:18 16.4 C 22 %
4139 21-04-2021 18:44:18 16.5 C 22 %
4140 21-04-2021 18:54:18 16.6 C 22 %
4141 21-04-2021 19:04:18 16.1 C 22 %
4142 21-04-2021 19:14:18 16.1 C 22 %
4143 21-04-2021 19:24:17 15.8 C 25 %
4144 21-04-2021 19:34:18 15.6 C 24 %
4145 21-04-2021 19:44:18 15.6 C 24 %
4146 21-04-2021 19:54:17 15.4 C 25 %
4147 21-04-2021 20:04:17 14.8 C 27 %
4148 21-04-2021 20:14:17 13.8 C 27 %
4149 21-04-2021 20:24:17 14 C 26 %
4150 21-04-2021 20:34:18 14.1 C 26 %
Sensor: Nr:Datum:Temp:Feuchte:
Aussen-T/F 4151 21-04-2021 20:44:18 13.3 C 27 %
4152 21-04-2021 20:54:18 11.9 C 30 %
4153 21-04-2021 21:04:18 11.1 C 31 %
4154 21-04-2021 21:14:18 11.8 C 31 %
4155 21-04-2021 21:24:17 12.1 C 30 %
4156 21-04-2021 21:34:17 12.5 C 29 %
4157 21-04-2021 21:44:17 12.2 C 30 %
4158 21-04-2021 21:54:18 11.6 C 31 %
4159 21-04-2021 22:04:17 12.2 C 30 %
4160 21-04-2021 22:14:17 12.4 C 30 %
4161 21-04-2021 22:24:17 12.4 C 30 %
4162 21-04-2021 22:34:18 12.2 C 30 %
4163 21-04-2021 22:44:18 11.7 C 32 %
4164 21-04-2021 22:54:17 11.4 C 32 %
4165 21-04-2021 23:04:18 11.3 C 32 %
4166 21-04-2021 23:14:18 11.3 C 32 %
4167 21-04-2021 23:24:18 11.5 C 32 %
4168 21-04-2021 23:34:18 11.4 C 32 %
4169 21-04-2021 23:44:18 11 C 32 %
4170 21-04-2021 23:54:18 10.7 C 32 %
Sensor: Nr:Datum:Temp:Feuchte:
G-T/H 1 24-03-2021 00:01:17 9.4 C 73 %
2 24-03-2021 00:11:17 9.4 C 72 %
3 24-03-2021 00:21:18 9.4 C 72 %
4 24-03-2021 00:31:17 9.3 C 72 %
5 24-03-2021 00:41:17 9.3 C 72 %
6 24-03-2021 00:51:17 9.3 C 72 %
7 24-03-2021 01:01:17 9.3 C 72 %
8 24-03-2021 01:11:17 9.3 C 72 %
9 24-03-2021 01:21:17 9.3 C 72 %
10 24-03-2021 01:31:17 9.3 C 72 %
11 24-03-2021 01:41:17 9.3 C 72 %
12 24-03-2021 01:51:17 9.2 C 72 %
13 24-03-2021 02:01:17 9.2 C 72 %
14 24-03-2021 02:11:17 9.2 C 72 %
15 24-03-2021 02:21:17 9.2 C 72 %
16 24-03-2021 02:31:18 9.1 C 72 %
17 24-03-2021 02:41:18 9.2 C 72 %
18 24-03-2021 02:51:17 9.2 C 72 %
19 24-03-2021 03:01:17 9.1 C 72 %
20 24-03-2021 03:11:17 9.1 C 72 %
21 24-03-2021 03:21:17 9.1 C 72 %
22 24-03-2021 03:31:17 9.1 C 72 %
23 24-03-2021 03:41:17 9.1 C 72 %
24 24-03-2021 03:51:18 9 C 71 %
25 24-03-2021 04:01:18 9 C 71 %
Sensor: Nr:Datum:Temp:Feuchte:
G-T/H 26 24-03-2021 04:11:18 9 C 71 %
27 24-03-2021 04:21:17 9 C 71 %
28 24-03-2021 04:31:17 8.9 C 72 %
29 24-03-2021 04:41:17 8.9 C 72 %
30 24-03-2021 04:51:17 8.9 C 72 %
31 24-03-2021 05:01:17 8.9 C 72 %
32 24-03-2021 05:11:17 8.9 C 72 %
33 24-03-2021 05:21:18 8.8 C 72 %
34 24-03-2021 05:31:18 8.8 C 72 %
35 24-03-2021 05:41:18 8.8 C 72 %
36 24-03-2021 05:51:18 8.7 C 72 %
37 24-03-2021 06:01:17 8.8 C 72 %
38 24-03-2021 06:11:17 8.7 C 72 %
39 24-03-2021 06:21:18 8.7 C 72 %
40 24-03-2021 06:31:17 8.7 C 72 %
41 24-03-2021 06:41:17 8.6 C 72 %
42 24-03-2021 06:51:18 8.6 C 72 %
43 24-03-2021 07:01:18 8.6 C 72 %
44 24-03-2021 07:11:18 8.6 C 71 %
45 24-03-2021 07:21:17 8.6 C 71 %
46 24-03-2021 07:31:18 8.6 C 71 %
47 24-03-2021 07:41:18 8.5 C 71 %
48 24-03-2021 07:51:17 8.5 C 71 %
49 24-03-2021 08:01:17 8.5 C 71 %
50 24-03-2021 08:11:18 8.5 C 71 %
Sensor: Nr:Datum:Temp:Feuchte:
G-T/H 51 24-03-2021 08:21:17 8.5 C 71 %
52 24-03-2021 08:31:17 8.5 C 71 %
53 24-03-2021 08:41:17 8.5 C 71 %
54 24-03-2021 08:51:17 8.4 C 71 %
55 24-03-2021 09:01:18 8.4 C 71 %
56 24-03-2021 09:11:18 8.4 C 71 %
57 24-03-2021 09:21:17 8.4 C 71 %
58 24-03-2021 09:31:18 8.4 C 71 %
59 24-03-2021 09:41:18 8.4 C 71 %
60 24-03-2021 09:51:17 8.3 C 71 %
61 24-03-2021 10:01:17 8.3 C 71 %
62 24-03-2021 10:11:17 8.4 C 71 %
63 24-03-2021 10:21:17 8.4 C 71 %
64 24-03-2021 10:31:17 8.4 C 72 %
65 24-03-2021 10:41:17 8.4 C 72 %
66 24-03-2021 10:51:18 8.3 C 72 %
67 24-03-2021 11:01:17 8.4 C 72 %
68 24-03-2021 11:11:17 8.4 C 72 %
69 24-03-2021 11:21:18 8.4 C 72 %
70 24-03-2021 11:31:17 8.4 C 72 %
71 24-03-2021 11:41:17 8.4 C 72 %
72 24-03-2021 11:51:17 8.4 C 72 %
73 24-03-2021 12:01:18 8.4 C 72 %
74 24-03-2021 12:11:18 8.4 C 72 %
75 24-03-2021 12:21:18 8.5 C 72 %
Sensor: Nr:Datum:Temp:Feuchte:
G-T/H 76 24-03-2021 12:31:17 8.5 C 72 %
77 24-03-2021 12:41:17 8.5 C 72 %
78 24-03-2021 12:51:17 8.5 C 73 %
79 24-03-2021 13:01:18 8.5 C 73 %
80 24-03-2021 13:11:18 8.5 C 73 %
81 24-03-2021 13:21:17 8.8 C 72 %
82 24-03-2021 13:31:18 8.7 C 72 %
83 24-03-2021 13:41:18 8.7 C 72 %
84 24-03-2021 13:51:17 8.7 C 72 %
85 24-03-2021 14:01:17 8.7 C 72 %
86 24-03-2021 14:11:17 8.7 C 72 %
87 24-03-2021 14:21:17 8.7 C 72 %
88 24-03-2021 14:31:18 8.7 C 72 %
89 24-03-2021 14:41:18 8.7 C 72 %
90 24-03-2021 14:51:17 8.8 C 72 %
91 24-03-2021 15:01:17 8.8 C 72 %
92 24-03-2021 15:11:17 8.9 C 72 %
93 24-03-2021 15:21:17 8.9 C 72 %
94 24-03-2021 15:31:17 8.9 C 72 %
95 24-03-2021 15:41:17 8.9 C 72 %
96 24-03-2021 15:51:18 9 C 71 %
97 24-03-2021 16:01:17 9 C 71 %
98 24-03-2021 16:11:17 9 C 71 %
99 24-03-2021 16:21:17 9 C 71 %
100 24-03-2021 16:31:18 10.1 C 65 %
Sensor: Nr:Datum:Temp:Feuchte:
G-T/H 101 24-03-2021 16:41:18 11.3 C 57 %
102 24-03-2021 16:51:18 11.6 C 53 %
103 24-03-2021 17:01:18 11.9 C 51 %
104 24-03-2021 17:11:18 12.1 C 49 %
105 24-03-2021 17:21:17 12.3 C 49 %
106 24-03-2021 17:31:18 12.3 C 50 %
107 24-03-2021 17:41:18 12 C 52 %
108 24-03-2021 17:51:18 11.7 C 55 %
109 24-03-2021 18:01:18 11.6 C 57 %
110 24-03-2021 18:11:18 11.4 C 59 %
111 24-03-2021 18:21:17 11.3 C 60 %
112 24-03-2021 18:31:17 11.2 C 60 %
113 24-03-2021 18:41:17 11.1 C 61 %
114 24-03-2021 18:51:17 11.1 C 62 %
115 24-03-2021 19:01:18 11 C 62 %
116 24-03-2021 19:11:18 10.9 C 64 %
117 24-03-2021 19:21:18 10.9 C 64 %
118 24-03-2021 19:31:18 10.8 C 64 %
119 24-03-2021 19:41:18 10.8 C 65 %
120 24-03-2021 19:51:18 10.8 C 65 %
121 24-03-2021 20:01:18 10.7 C 65 %
122 24-03-2021 20:11:18 10.7 C 66 %
123 24-03-2021 20:21:18 10.7 C 66 %
124 24-03-2021 20:31:17 10.6 C 66 %
125 24-03-2021 20:41:17 10.6 C 66 %
Sensor: Nr:Datum:Temp:Feuchte:
G-T/H 126 24-03-2021 20:51:18 10.6 C 67 %
127 24-03-2021 21:01:18 10.6 C 67 %
128 24-03-2021 21:11:18 10.6 C 67 %
129 24-03-2021 21:21:17 10.5 C 67 %
130 24-03-2021 21:31:18 10.5 C 67 %
131 24-03-2021 21:41:18 10.5 C 67 %
132 24-03-2021 21:51:18 10.5 C 68 %
133 24-03-2021 22:01:18 10.5 C 68 %
134 24-03-2021 22:11:18 10.5 C 68 %
135 24-03-2021 22:21:17 10.4 C 68 %
136 24-03-2021 22:31:18 10.4 C 68 %
137 24-03-2021 22:41:18 10.4 C 68 %
138 24-03-2021 22:51:18 10.4 C 68 %
139 24-03-2021 23:01:17 10.4 C 68 %
140 24-03-2021 23:11:18 10.3 C 68 %
141 24-03-2021 23:21:17 10.3 C 68 %
142 24-03-2021 23:31:18 10.3 C 68 %
143 24-03-2021 23:41:18 10.3 C 69 %
144 24-03-2021 23:51:18 10.2 C 68 %
145 25-03-2021 00:01:18 10.2 C 68 %
146 25-03-2021 00:11:18 10.2 C 68 %
147 25-03-2021 00:21:17 10.2 C 68 %
148 25-03-2021 00:31:17 10.1 C 68 %
149 25-03-2021 00:41:17 10.1 C 68 %
150 25-03-2021 00:51:18 10.1 C 67 %
Sensor: Nr:Datum:Temp:Feuchte:
G-T/H 151 25-03-2021 01:01:18 10.1 C 67 %
152 25-03-2021 01:11:18 10 C 67 %
153 25-03-2021 01:21:17 10 C 67 %
154 25-03-2021 01:31:18 10 C 67 %
155 25-03-2021 01:41:18 10 C 67 %
156 25-03-2021 01:51:18 10 C 67 %
157 25-03-2021 02:01:17 10 C 66 %
158 25-03-2021 02:11:17 9.9 C 67 %
159 25-03-2021 02:21:17 9.9 C 67 %
160 25-03-2021 02:31:17 9.8 C 67 %
161 25-03-2021 02:41:17 9.8 C 67 %
162 25-03-2021 02:51:18 9.8 C 67 %
163 25-03-2021 03:01:17 9.8 C 67 %
164 25-03-2021 03:11:17 9.8 C 67 %
165 25-03-2021 03:21:17 9.7 C 67 %
166 25-03-2021 03:31:17 9.7 C 66 %
167 25-03-2021 03:41:17 9.7 C 66 %
168 25-03-2021 03:51:17 9.7 C 66 %
169 25-03-2021 04:01:17 9.6 C 66 %
170 25-03-2021 04:11:17 9.6 C 66 %
171 25-03-2021 04:21:17 9.6 C 66 %
172 25-03-2021 04:31:17 9.6 C 66 %
173 25-03-2021 04:41:18 9.6 C 67 %
174 25-03-2021 04:51:17 9.6 C 67 %
175 25-03-2021 05:01:17 9.6 C 67 %
Sensor: Nr:Datum:Temp:Feuchte:
G-T/H 176 25-03-2021 05:11:17 9.6 C 67 %
177 25-03-2021 05:21:18 9.6 C 67 %
178 25-03-2021 05:31:18 9.6 C 67 %
179 25-03-2021 05:41:18 9.6 C 67 %
180 25-03-2021 05:51:18 9.5 C 68 %
181 25-03-2021 06:01:18 9.5 C 68 %
182 25-03-2021 06:11:18 9.5 C 68 %
183 25-03-2021 06:21:17 9.5 C 68 %
184 25-03-2021 06:31:17 9.5 C 68 %
185 25-03-2021 06:41:17 9.5 C 68 %
186 25-03-2021 06:51:17 9.5 C 68 %
187 25-03-2021 07:01:17 9.4 C 68 %
188 25-03-2021 07:11:17 9.4 C 68 %
189 25-03-2021 07:21:18 9.4 C 68 %
190 25-03-2021 07:31:17 9.4 C 68 %
191 25-03-2021 07:41:17 9.4 C 68 %
192 25-03-2021 07:52:17 9.4 C 68 %
193 25-03-2021 08:01:18 9.4 C 68 %
194 25-03-2021 08:11:18 9.4 C 68 %
195 25-03-2021 08:21:18 9.4 C 68 %
196 25-03-2021 08:31:17 9.4 C 68 %
197 25-03-2021 08:41:17 9.4 C 68 %
198 25-03-2021 08:51:17 9.4 C 68 %
199 25-03-2021 09:01:18 9.3 C 69 %
200 25-03-2021 09:11:18 9.3 C 69 %
Sensor: Nr:Datum:Temp:Feuchte:
G-T/H 201 25-03-2021 09:21:18 9.3 C 69 %
202 25-03-2021 09:32:17 9.3 C 69 %
203 25-03-2021 09:42:17 9.3 C 69 %
204 25-03-2021 09:51:18 9.3 C 69 %
205 25-03-2021 10:01:17 9.3 C 69 %
206 25-03-2021 10:11:17 9.3 C 69 %
207 25-03-2021 10:21:17 9.3 C 69 %
208 25-03-2021 10:31:17 9.3 C 69 %
209 25-03-2021 10:41:17 9.4 C 69 %
210 25-03-2021 10:51:17 9.4 C 69 %
211 25-03-2021 11:01:17 9.4 C 69 %
212 25-03-2021 11:11:18 9.4 C 69 %
213 25-03-2021 11:21:18 9.4 C 70 %
214 25-03-2021 11:31:18 9.4 C 70 %
215 25-03-2021 11:41:18 9.4 C 70 %
216 25-03-2021 11:52:17 9.4 C 70 %
217 25-03-2021 12:01:17 9.4 C 70 %
218 25-03-2021 12:11:17 9.5 C 70 %
219 25-03-2021 12:21:17 9.5 C 70 %
220 25-03-2021 12:31:18 9.5 C 70 %
221 25-03-2021 12:41:18 9.5 C 70 %
222 25-03-2021 12:52:17 9.5 C 70 %
223 25-03-2021 13:01:18 9.5 C 70 %
224 25-03-2021 13:11:18 9.6 C 70 %
225 25-03-2021 13:22:17 9.6 C 70 %
Sensor: Nr:Datum:Temp:Feuchte:
G-T/H 226 25-03-2021 13:31:18 9.6 C 70 %
227 25-03-2021 13:41:18 9.6 C 70 %
228 25-03-2021 13:52:17 9.6 C 70 %
229 25-03-2021 14:01:18 9.7 C 70 %
230 25-03-2021 14:11:18 9.7 C 70 %
231 25-03-2021 14:22:17 9.7 C 70 %
232 25-03-2021 14:31:18 9.7 C 71 %
233 25-03-2021 14:41:18 9.8 C 71 %
234 25-03-2021 14:51:18 9.8 C 71 %
235 25-03-2021 15:02:17 9.9 C 71 %
236 25-03-2021 15:12:17 9.9 C 71 %
237 25-03-2021 15:22:17 9.9 C 71 %
238 25-03-2021 15:31:18 9.9 C 71 %
239 25-03-2021 15:41:18 10 C 70 %
240 25-03-2021 15:52:17 10 C 70 %
241 25-03-2021 16:02:18 10 C 70 %
242 25-03-2021 16:11:18 10 C 70 %
243 25-03-2021 16:21:18 10 C 70 %
244 25-03-2021 16:31:18 10 C 70 %
245 25-03-2021 16:41:18 10.1 C 70 %
246 25-03-2021 16:51:18 10.1 C 70 %
247 25-03-2021 17:02:17 10.1 C 70 %
248 25-03-2021 17:12:17 10.1 C 70 %
249 25-03-2021 17:21:18 10.2 C 70 %
250 25-03-2021 17:32:17 10.1 C 70 %
Sensor: Nr:Datum:Temp:Feuchte:
G-T/H 251 25-03-2021 17:42:18 10.2 C 70 %
252 25-03-2021 17:52:17 10.2 C 70 %
253 25-03-2021 18:02:18 10.2 C 70 %
254 25-03-2021 18:11:18 10.2 C 70 %
255 25-03-2021 18:22:17 10.2 C 70 %
256 25-03-2021 18:32:18 10.2 C 70 %
257 25-03-2021 18:42:18 10.2 C 70 %
258 25-03-2021 18:52:17 10.3 C 70 %
259 25-03-2021 19:02:17 10.3 C 70 %
260 25-03-2021 19:12:17 10.3 C 71 %
261 25-03-2021 19:22:17 10.3 C 71 %
262 25-03-2021 19:32:18 10.3 C 71 %
263 25-03-2021 19:42:18 10.4 C 71 %
264 25-03-2021 19:52:17 10.4 C 71 %
265 25-03-2021 20:02:18 10.4 C 71 %
266 25-03-2021 20:11:18 10.4 C 71 %
267 25-03-2021 20:22:17 10.4 C 71 %
268 25-03-2021 20:32:18 10.4 C 71 %
269 25-03-2021 20:42:18 10.4 C 71 %
270 25-03-2021 20:51:18 10.4 C 71 %
271 25-03-2021 21:02:17 10.4 C 71 %
272 25-03-2021 21:12:18 10.4 C 71 %
273 25-03-2021 21:21:18 10.5 C 71 %
274 25-03-2021 21:32:17 10.5 C 71 %
275 25-03-2021 21:42:17 10.5 C 71 %
Sensor: Nr:Datum:Temp:Feuchte:
G-T/H 276 25-03-2021 21:52:18 10.5 C 71 %
277 25-03-2021 22:01:18 10.4 C 71 %
278 25-03-2021 22:11:18 10.5 C 71 %
279 25-03-2021 22:22:18 10.5 C 71 %
280 25-03-2021 22:32:17 10.5 C 71 %
281 25-03-2021 22:42:17 10.5 C 71 %
282 25-03-2021 22:52:18 10.5 C 71 %
283 25-03-2021 23:02:17 10.5 C 71 %
284 25-03-2021 23:12:17 10.5 C 71 %
285 25-03-2021 23:22:18 10.5 C 71 %
286 25-03-2021 23:32:17 10.5 C 71 %
287 25-03-2021 23:42:18 10.5 C 71 %
288 25-03-2021 23:52:18 10.5 C 71 %
289 26-03-2021 00:02:18 10.5 C 71 %
290 26-03-2021 00:12:18 10.5 C 71 %
291 26-03-2021 00:22:18 10.5 C 71 %
292 26-03-2021 00:32:17 10.5 C 71 %
293 26-03-2021 00:42:18 10.5 C 71 %
294 26-03-2021 00:52:18 10.5 C 71 %
295 26-03-2021 01:02:18 10.4 C 71 %
296 26-03-2021 01:12:18 10.5 C 71 %
297 26-03-2021 01:21:18 10.5 C 71 %
298 26-03-2021 01:32:17 10.5 C 71 %
299 26-03-2021 01:42:17 10.5 C 71 %
300 26-03-2021 01:52:18 10.4 C 71 %
Sensor: Nr:Datum:Temp:Feuchte:
G-T/H 301 26-03-2021 02:02:18 10.4 C 71 %
302 26-03-2021 02:12:19 10.5 C 71 %
303 26-03-2021 02:22:18 10.4 C 71 %
304 26-03-2021 02:32:18 10.4 C 71 %
305 26-03-2021 02:42:19 10.4 C 71 %
306 26-03-2021 02:52:18 10.4 C 71 %
307 26-03-2021 03:02:17 10.4 C 71 %
308 26-03-2021 03:12:18 10.4 C 72 %
309 26-03-2021 03:22:18 10.4 C 72 %
310 26-03-2021 03:32:18 10.4 C 71 %
311 26-03-2021 03:42:18 10.4 C 71 %
312 26-03-2021 03:52:17 10.4 C 71 %
313 26-03-2021 04:02:17 10.4 C 71 %
314 26-03-2021 04:12:17 10.4 C 72 %
315 26-03-2021 04:22:18 10.4 C 72 %
316 26-03-2021 04:32:17 10.4 C 72 %
317 26-03-2021 04:42:17 10.3 C 72 %
318 26-03-2021 04:52:18 10.3 C 72 %
319 26-03-2021 05:02:17 10.3 C 71 %
320 26-03-2021 05:12:17 10.3 C 71 %
321 26-03-2021 05:22:18 10.3 C 71 %
322 26-03-2021 05:32:17 10.3 C 71 %
323 26-03-2021 05:42:17 10.2 C 71 %
324 26-03-2021 05:52:18 10.2 C 71 %
325 26-03-2021 06:02:18 10.2 C 71 %
Sensor: Nr:Datum:Temp:Feuchte:
G-T/H 326 26-03-2021 06:12:18 10.1 C 71 %
327 26-03-2021 06:22:18 10.2 C 71 %
328 26-03-2021 06:32:17 10.1 C 71 %
329 26-03-2021 06:42:17 10.1 C 70 %
330 26-03-2021 06:52:18 10.1 C 70 %
331 26-03-2021 07:02:17 10.1 C 70 %
332 26-03-2021 07:12:17 10.1 C 70 %
333 26-03-2021 07:22:17 10 C 69 %
334 26-03-2021 07:32:18 10 C 69 %
335 26-03-2021 07:42:18 10 C 69 %
336 26-03-2021 07:52:17 10 C 69 %
337 26-03-2021 08:02:17 10 C 69 %
338 26-03-2021 08:12:17 10 C 69 %
339 26-03-2021 08:22:18 10 C 70 %
340 26-03-2021 08:32:17 10 C 70 %
341 26-03-2021 08:42:17 10 C 70 %
342 26-03-2021 08:52:18 10 C 70 %
343 26-03-2021 09:02:18 10 C 70 %
344 26-03-2021 09:12:18 10 C 70 %
345 26-03-2021 09:22:17 9.9 C 71 %
346 26-03-2021 09:32:18 10 C 70 %
347 26-03-2021 09:42:18 10 C 70 %
348 26-03-2021 09:52:18 10 C 70 %
349 26-03-2021 10:02:18 9.9 C 71 %
350 26-03-2021 10:12:18 10 C 70 %
Sensor: Nr:Datum:Temp:Feuchte:
G-T/H 351 26-03-2021 10:22:18 10 C 70 %
352 26-03-2021 10:32:17 10 C 70 %
353 26-03-2021 10:42:17 10 C 70 %
354 26-03-2021 10:52:18 10 C 71 %
355 26-03-2021 11:02:17 10 C 71 %
356 26-03-2021 11:12:17 10 C 71 %
357 26-03-2021 11:22:18 10 C 71 %
358 26-03-2021 11:32:18 10 C 71 %
359 26-03-2021 11:42:18 10 C 71 %
360 26-03-2021 11:52:17 10 C 71 %
361 26-03-2021 12:02:17 10.1 C 71 %
362 26-03-2021 12:12:18 10.1 C 71 %
363 26-03-2021 12:22:18 10 C 71 %
364 26-03-2021 12:32:18 10.1 C 71 %
365 26-03-2021 12:42:18 10.1 C 71 %
366 26-03-2021 12:52:17 10.1 C 71 %
367 26-03-2021 13:02:17 10.1 C 71 %
368 26-03-2021 13:12:17 10.2 C 71 %
369 26-03-2021 13:22:17 10.2 C 71 %
370 26-03-2021 13:32:18 10.2 C 71 %
371 26-03-2021 13:42:18 10.2 C 71 %
372 26-03-2021 13:52:18 10.2 C 71 %
373 26-03-2021 14:02:18 10.2 C 71 %
374 26-03-2021 14:12:18 10.3 C 71 %
375 26-03-2021 14:22:18 10.3 C 71 %
Sensor: Nr:Datum:Temp:Feuchte:
G-T/H 376 26-03-2021 14:32:17 10.3 C 71 %
377 26-03-2021 14:42:17 11.4 C 66 %
378 26-03-2021 14:52:17 12 C 59 %
379 26-03-2021 15:02:18 12.2 C 57 %
380 26-03-2021 15:12:18 12.5 C 56 %
381 26-03-2021 15:22:18 12.6 C 54 %
382 26-03-2021 15:32:17 12.8 C 53 %
383 26-03-2021 15:42:17 12.8 C 54 %
384 26-03-2021 15:52:18 12.8 C 54 %
385 26-03-2021 16:02:17 13 C 52 %
386 26-03-2021 16:12:17 13 C 52 %
387 26-03-2021 16:22:18 13 C 52 %
388 26-03-2021 16:32:18 13.1 C 52 %
389 26-03-2021 16:42:18 13.2 C 51 %
390 26-03-2021 16:52:18 13.2 C 51 %
391 26-03-2021 17:02:18 13.2 C 51 %
392 26-03-2021 17:12:18 13.1 C 51 %
393 26-03-2021 17:22:18 13.1 C 51 %
394 26-03-2021 17:32:17 13.1 C 51 %
395 26-03-2021 17:42:17 13.2 C 51 %
396 26-03-2021 17:52:18 13.3 C 51 %
397 26-03-2021 18:02:17 13.2 C 51 %
398 26-03-2021 18:12:17 13.3 C 51 %
399 26-03-2021 18:22:18 13.3 C 51 %
400 26-03-2021 18:32:18 13.2 C 51 %
Sensor: Nr:Datum:Temp:Feuchte:
G-T/H 401 26-03-2021 18:42:18 13.1 C 52 %
402 26-03-2021 18:52:17 12.8 C 53 %
403 26-03-2021 19:02:17 12.6 C 54 %
404 26-03-2021 19:12:17 12.5 C 55 %
405 26-03-2021 19:22:18 12.3 C 56 %
406 26-03-2021 19:32:17 12.2 C 56 %
407 26-03-2021 19:42:18 12.2 C 57 %
408 26-03-2021 19:52:18 12.1 C 57 %
409 26-03-2021 20:02:17 12.1 C 58 %
410 26-03-2021 20:12:17 12.1 C 58 %
411 26-03-2021 20:22:17 12 C 59 %
412 26-03-2021 20:32:17 12 C 59 %
413 26-03-2021 20:42:18 12 C 60 %
414 26-03-2021 20:52:17 12 C 60 %
415 26-03-2021 21:02:18 11.9 C 61 %
416 26-03-2021 21:12:18 11.9 C 62 %
417 26-03-2021 21:22:18 11.9 C 62 %
418 26-03-2021 21:32:17 11.9 C 62 %
419 26-03-2021 21:42:17 11.8 C 62 %
420 26-03-2021 21:52:17 11.8 C 63 %
421 26-03-2021 22:02:17 11.8 C 63 %
422 26-03-2021 22:12:17 11.8 C 63 %
423 26-03-2021 22:22:18 11.7 C 63 %
424 26-03-2021 22:32:18 11.8 C 63 %
425 26-03-2021 22:42:18 11.8 C 64 %
Sensor: Nr:Datum:Temp:Feuchte:
G-T/H 426 26-03-2021 22:52:18 11.7 C 64 %
427 26-03-2021 23:02:18 11.7 C 64 %
428 26-03-2021 23:12:18 11.7 C 64 %
429 26-03-2021 23:22:17 11.7 C 64 %
430 26-03-2021 23:32:17 11.7 C 64 %
431 26-03-2021 23:42:17 11.7 C 65 %
432 26-03-2021 23:52:18 11.6 C 65 %
433 27-03-2021 00:02:18 11.7 C 65 %
434 27-03-2021 00:12:18 11.6 C 65 %
435 27-03-2021 00:22:18 11.6 C 65 %
436 27-03-2021 00:32:17 11.6 C 65 %
437 27-03-2021 00:42:17 11.6 C 65 %
438 27-03-2021 00:52:18 11.6 C 65 %
439 27-03-2021 01:02:18 11.5 C 66 %
440 27-03-2021 01:12:18 11.5 C 66 %
441 27-03-2021 01:22:17 11.6 C 66 %
442 27-03-2021 01:32:17 11.6 C 66 %
443 27-03-2021 01:42:18 11.6 C 66 %
444 27-03-2021 01:52:18 11.6 C 66 %
445 27-03-2021 02:02:18 11.5 C 66 %
446 27-03-2021 02:12:18 11.5 C 66 %
447 27-03-2021 02:22:17 11.5 C 66 %
448 27-03-2021 02:32:17 11.5 C 66 %
449 27-03-2021 02:42:17 11.5 C 66 %
450 27-03-2021 02:52:17 11.5 C 67 %
Sensor: Nr:Datum:Temp:Feuchte:
G-T/H 451 27-03-2021 03:02:18 11.5 C 67 %
452 27-03-2021 03:12:18 11.5 C 67 %
453 27-03-2021 03:22:17 11.4 C 67 %
454 27-03-2021 03:32:18 11.5 C 67 %
455 27-03-2021 03:42:18 11.4 C 67 %
456 27-03-2021 03:52:17 11.4 C 67 %
457 27-03-2021 04:02:18 11.4 C 67 %
458 27-03-2021 04:12:18 11.4 C 67 %
459 27-03-2021 04:22:17 11.4 C 67 %
460 27-03-2021 04:32:17 11.4 C 67 %
461 27-03-2021 04:42:17 11.3 C 67 %
462 27-03-2021 04:52:17 11.3 C 67 %
463 27-03-2021 05:02:18 11.3 C 67 %
464 27-03-2021 05:12:18 11.3 C 67 %
465 27-03-2021 05:22:17 11.3 C 67 %
466 27-03-2021 05:32:17 11.2 C 67 %
467 27-03-2021 05:42:18 11.2 C 67 %
468 27-03-2021 05:52:17 11.1 C 66 %
469 27-03-2021 06:02:17 11.1 C 66 %
470 27-03-2021 06:12:17 11.1 C 65 %
471 27-03-2021 06:22:18 11.1 C 65 %
472 27-03-2021 06:32:17 11 C 64 %
473 27-03-2021 06:42:18 11 C 64 %
474 27-03-2021 06:52:18 11 C 64 %
475 27-03-2021 07:02:17 11 C 64 %
Sensor: Nr:Datum:Temp:Feuchte:
G-T/H 476 27-03-2021 07:12:17 11 C 63 %
477 27-03-2021 07:22:18 11 C 63 %
478 27-03-2021 07:32:17 11 C 64 %
479 27-03-2021 07:42:17 11 C 64 %
480 27-03-2021 07:52:17 11 C 64 %
481 27-03-2021 08:02:18 10.9 C 65 %
482 27-03-2021 08:12:18 10.9 C 65 %
483 27-03-2021 08:22:17 10.9 C 65 %
484 27-03-2021 08:32:17 10.9 C 65 %
485 27-03-2021 08:42:17 10.9 C 65 %
486 27-03-2021 08:52:18 10.9 C 66 %
487 27-03-2021 09:02:17 10.9 C 66 %
488 27-03-2021 09:12:17 10.9 C 66 %
489 27-03-2021 09:22:18 10.9 C 66 %
490 27-03-2021 09:32:18 10.9 C 66 %
491 27-03-2021 09:42:18 10.9 C 66 %
492 27-03-2021 09:52:18 10.9 C 66 %
493 27-03-2021 10:02:17 10.9 C 66 %
494 27-03-2021 10:12:17 10.8 C 66 %
495 27-03-2021 10:22:18 10.8 C 66 %
496 27-03-2021 10:32:18 10.7 C 65 %
497 27-03-2021 10:42:18 10.7 C 64 %
498 27-03-2021 10:52:17 10.7 C 64 %
499 27-03-2021 11:02:17 10.7 C 65 %
500 27-03-2021 11:12:17 10.7 C 65 %
Sensor: Nr:Datum:Temp:Feuchte:
G-T/H 501 27-03-2021 11:22:17 10.7 C 65 %
502 27-03-2021 11:32:17 10.7 C 65 %
503 27-03-2021 11:42:17 10.8 C 65 %
504 27-03-2021 11:52:17 10.8 C 66 %
505 27-03-2021 12:02:18 10.8 C 66 %
506 27-03-2021 12:12:18 10.8 C 66 %
507 27-03-2021 12:22:17 10.8 C 66 %